<?xml version="1.0" encoding="UTF-8" standalone="no" ?>
<gpx xmlns="http://www.topografix.com/GPX/1/1" xmlns:xsi="http://www.w3.org/2001/XMLSchema-instance" xsi:schemaLocation="http://www.topografix.com/GPX/1/1 http://www.topografix.com/GPX/1/1/gpx.xsd" version="1.1" creator="VisuGPX - https://www.visugpx.com">
  <metadata>
    <name>Coubisou - Autour du village de Coubisou</name>
    <desc><![CDATA[Jolie balade autour de Coubisou sur des chemins bien ombragés. Idéal par temps chaud.]]></desc>
  </metadata>
  <trk>
    <name><![CDATA[2021-05-31 16:16:47]]></name>
    <trkseg>
      <trkpt lat="44.55333" lon="2.73165">
        <ele>415.91</ele>
        <time>2021-05-31T11:18:26Z</time>
      </trkpt>
      <trkpt lat="44.55333" lon="2.73164">
        <ele>414.95</ele>
        <time>2021-05-31T11:18:37Z</time>
      </trkpt>
      <trkpt lat="44.55333" lon="2.73163">
        <ele>413.5</ele>
        <time>2021-05-31T11:18:46Z</time>
      </trkpt>
      <trkpt lat="44.5533" lon="2.73161">
        <ele>411.58</ele>
        <time>2021-05-31T11:18:53Z</time>
      </trkpt>
      <trkpt lat="44.55329" lon="2.73161">
        <ele>411.58</ele>
        <time>2021-05-31T11:19:03Z</time>
      </trkpt>
      <trkpt lat="44.55329" lon="2.73161">
        <ele>412.06</ele>
        <time>2021-05-31T11:19:20Z</time>
      </trkpt>
      <trkpt lat="44.55328" lon="2.73159">
        <ele>409.18</ele>
        <time>2021-05-31T11:19:34Z</time>
      </trkpt>
      <trkpt lat="44.5533" lon="2.73159">
        <ele>409.18</ele>
        <time>2021-05-31T11:19:49Z</time>
      </trkpt>
      <trkpt lat="44.5533" lon="2.7316">
        <ele>406.77</ele>
        <time>2021-05-31T11:20:00Z</time>
      </trkpt>
      <trkpt lat="44.55332" lon="2.73161">
        <ele>405.33</ele>
        <time>2021-05-31T11:20:11Z</time>
      </trkpt>
      <trkpt lat="44.55337" lon="2.73162">
        <ele>404.37</ele>
        <time>2021-05-31T11:20:23Z</time>
      </trkpt>
      <trkpt lat="44.55331" lon="2.73164">
        <ele>404.85</ele>
        <time>2021-05-31T11:20:32Z</time>
      </trkpt>
      <trkpt lat="44.55331" lon="2.73162">
        <ele>408.22</ele>
        <time>2021-05-31T11:20:41Z</time>
      </trkpt>
      <trkpt lat="44.55329" lon="2.73161">
        <ele>407.74</ele>
        <time>2021-05-31T11:20:48Z</time>
      </trkpt>
      <trkpt lat="44.55327" lon="2.7316">
        <ele>406.29</ele>
        <time>2021-05-31T11:20:58Z</time>
      </trkpt>
      <trkpt lat="44.55328" lon="2.73161">
        <ele>406.29</ele>
        <time>2021-05-31T11:21:08Z</time>
      </trkpt>
      <trkpt lat="44.55328" lon="2.73163">
        <ele>406.77</ele>
        <time>2021-05-31T11:21:21Z</time>
      </trkpt>
      <trkpt lat="44.5533" lon="2.73163">
        <ele>406.29</ele>
        <time>2021-05-31T11:21:27Z</time>
      </trkpt>
      <trkpt lat="44.55328" lon="2.73161">
        <ele>405.81</ele>
        <time>2021-05-31T11:21:35Z</time>
      </trkpt>
      <trkpt lat="44.55335" lon="2.73151">
        <ele>409.66</ele>
        <time>2021-05-31T11:21:44Z</time>
      </trkpt>
      <trkpt lat="44.55338" lon="2.73143">
        <ele>410.14</ele>
        <time>2021-05-31T11:21:50Z</time>
      </trkpt>
      <trkpt lat="44.55339" lon="2.73137">
        <ele>409.66</ele>
        <time>2021-05-31T11:21:55Z</time>
      </trkpt>
      <trkpt lat="44.55343" lon="2.7313">
        <ele>410.14</ele>
        <time>2021-05-31T11:22:01Z</time>
      </trkpt>
      <trkpt lat="44.55346" lon="2.73124">
        <ele>410.62</ele>
        <time>2021-05-31T11:22:06Z</time>
      </trkpt>
      <trkpt lat="44.5535" lon="2.73114">
        <ele>411.1</ele>
        <time>2021-05-31T11:22:14Z</time>
      </trkpt>
      <trkpt lat="44.55353" lon="2.7311">
        <ele>411.58</ele>
        <time>2021-05-31T11:22:21Z</time>
      </trkpt>
      <trkpt lat="44.55356" lon="2.73102">
        <ele>413.02</ele>
        <time>2021-05-31T11:22:29Z</time>
      </trkpt>
      <trkpt lat="44.55362" lon="2.73095">
        <ele>414.47</ele>
        <time>2021-05-31T11:22:37Z</time>
      </trkpt>
      <trkpt lat="44.55369" lon="2.73089">
        <ele>415.91</ele>
        <time>2021-05-31T11:22:45Z</time>
      </trkpt>
      <trkpt lat="44.55374" lon="2.73084">
        <ele>417.35</ele>
        <time>2021-05-31T11:22:52Z</time>
      </trkpt>
      <trkpt lat="44.55378" lon="2.7308">
        <ele>417.83</ele>
        <time>2021-05-31T11:22:58Z</time>
      </trkpt>
      <trkpt lat="44.55381" lon="2.73078">
        <ele>418.79</ele>
        <time>2021-05-31T11:23:02Z</time>
      </trkpt>
      <trkpt lat="44.55383" lon="2.73075">
        <ele>419.27</ele>
        <time>2021-05-31T11:23:05Z</time>
      </trkpt>
      <trkpt lat="44.55389" lon="2.73067">
        <ele>420.71</ele>
        <time>2021-05-31T11:23:12Z</time>
      </trkpt>
      <trkpt lat="44.55393" lon="2.73063">
        <ele>420.71</ele>
        <time>2021-05-31T11:23:17Z</time>
      </trkpt>
      <trkpt lat="44.55397" lon="2.73059">
        <ele>421.19</ele>
        <time>2021-05-31T11:23:25Z</time>
      </trkpt>
      <trkpt lat="44.55402" lon="2.73054">
        <ele>420.71</ele>
        <time>2021-05-31T11:23:34Z</time>
      </trkpt>
      <trkpt lat="44.55407" lon="2.73051">
        <ele>421.19</ele>
        <time>2021-05-31T11:23:41Z</time>
      </trkpt>
      <trkpt lat="44.55415" lon="2.73048">
        <ele>423.6</ele>
        <time>2021-05-31T11:23:49Z</time>
      </trkpt>
      <trkpt lat="44.55423" lon="2.73046">
        <ele>425.52</ele>
        <time>2021-05-31T11:23:57Z</time>
      </trkpt>
      <trkpt lat="44.5543" lon="2.73043">
        <ele>425.52</ele>
        <time>2021-05-31T11:24:04Z</time>
      </trkpt>
      <trkpt lat="44.55438" lon="2.7304">
        <ele>424.56</ele>
        <time>2021-05-31T11:24:11Z</time>
      </trkpt>
      <trkpt lat="44.55444" lon="2.73035">
        <ele>424.56</ele>
        <time>2021-05-31T11:24:18Z</time>
      </trkpt>
      <trkpt lat="44.55446" lon="2.73035">
        <ele>424.56</ele>
        <time>2021-05-31T11:24:20Z</time>
      </trkpt>
      <trkpt lat="44.55458" lon="2.73032">
        <ele>426.48</ele>
        <time>2021-05-31T11:24:30Z</time>
      </trkpt>
      <trkpt lat="44.55465" lon="2.73032">
        <ele>428.4</ele>
        <time>2021-05-31T11:24:37Z</time>
      </trkpt>
      <trkpt lat="44.55474" lon="2.73032">
        <ele>430.81</ele>
        <time>2021-05-31T11:24:44Z</time>
      </trkpt>
      <trkpt lat="44.55481" lon="2.73031">
        <ele>430.33</ele>
        <time>2021-05-31T11:24:51Z</time>
      </trkpt>
      <trkpt lat="44.55489" lon="2.73031">
        <ele>431.29</ele>
        <time>2021-05-31T11:24:59Z</time>
      </trkpt>
      <trkpt lat="44.55495" lon="2.73029">
        <ele>432.25</ele>
        <time>2021-05-31T11:25:06Z</time>
      </trkpt>
      <trkpt lat="44.55499" lon="2.73027">
        <ele>432.73</ele>
        <time>2021-05-31T11:25:13Z</time>
      </trkpt>
      <trkpt lat="44.55504" lon="2.73026">
        <ele>432.73</ele>
        <time>2021-05-31T11:25:19Z</time>
      </trkpt>
      <trkpt lat="44.55513" lon="2.73026">
        <ele>432.73</ele>
        <time>2021-05-31T11:25:28Z</time>
      </trkpt>
      <trkpt lat="44.55524" lon="2.73023">
        <ele>433.21</ele>
        <time>2021-05-31T11:25:36Z</time>
      </trkpt>
      <trkpt lat="44.55533" lon="2.73022">
        <ele>434.17</ele>
        <time>2021-05-31T11:25:44Z</time>
      </trkpt>
      <trkpt lat="44.55541" lon="2.73022">
        <ele>435.61</ele>
        <time>2021-05-31T11:25:53Z</time>
      </trkpt>
      <trkpt lat="44.55552" lon="2.73025">
        <ele>437.54</ele>
        <time>2021-05-31T11:26:02Z</time>
      </trkpt>
      <trkpt lat="44.55559" lon="2.73025">
        <ele>438.98</ele>
        <time>2021-05-31T11:26:13Z</time>
      </trkpt>
      <trkpt lat="44.55568" lon="2.73025">
        <ele>439.46</ele>
        <time>2021-05-31T11:26:20Z</time>
      </trkpt>
      <trkpt lat="44.55576" lon="2.73026">
        <ele>440.42</ele>
        <time>2021-05-31T11:26:29Z</time>
      </trkpt>
      <trkpt lat="44.55584" lon="2.73027">
        <ele>441.38</ele>
        <time>2021-05-31T11:26:37Z</time>
      </trkpt>
      <trkpt lat="44.55591" lon="2.73027">
        <ele>441.86</ele>
        <time>2021-05-31T11:26:44Z</time>
      </trkpt>
      <trkpt lat="44.55595" lon="2.73028">
        <ele>442.34</ele>
        <time>2021-05-31T11:26:51Z</time>
      </trkpt>
      <trkpt lat="44.55604" lon="2.73026">
        <ele>440.9</ele>
        <time>2021-05-31T11:27:00Z</time>
      </trkpt>
      <trkpt lat="44.5561" lon="2.73026">
        <ele>439.94</ele>
        <time>2021-05-31T11:27:06Z</time>
      </trkpt>
      <trkpt lat="44.55615" lon="2.73026">
        <ele>438.98</ele>
        <time>2021-05-31T11:27:12Z</time>
      </trkpt>
      <trkpt lat="44.5562" lon="2.73025">
        <ele>438.5</ele>
        <time>2021-05-31T11:27:18Z</time>
      </trkpt>
      <trkpt lat="44.55623" lon="2.73026">
        <ele>438.5</ele>
        <time>2021-05-31T11:27:23Z</time>
      </trkpt>
      <trkpt lat="44.55628" lon="2.73024">
        <ele>439.46</ele>
        <time>2021-05-31T11:27:29Z</time>
      </trkpt>
      <trkpt lat="44.55631" lon="2.73025">
        <ele>439.94</ele>
        <time>2021-05-31T11:27:37Z</time>
      </trkpt>
      <trkpt lat="44.55633" lon="2.73024">
        <ele>439.94</ele>
        <time>2021-05-31T11:27:55Z</time>
      </trkpt>
      <trkpt lat="44.55635" lon="2.73023">
        <ele>441.86</ele>
        <time>2021-05-31T11:28:13Z</time>
      </trkpt>
      <trkpt lat="44.55639" lon="2.73024">
        <ele>443.79</ele>
        <time>2021-05-31T11:28:24Z</time>
      </trkpt>
      <trkpt lat="44.55645" lon="2.73023">
        <ele>444.75</ele>
        <time>2021-05-31T11:28:30Z</time>
      </trkpt>
      <trkpt lat="44.55651" lon="2.73024">
        <ele>445.23</ele>
        <time>2021-05-31T11:28:38Z</time>
      </trkpt>
      <trkpt lat="44.55657" lon="2.73025">
        <ele>446.67</ele>
        <time>2021-05-31T11:28:45Z</time>
      </trkpt>
      <trkpt lat="44.55664" lon="2.73028">
        <ele>447.63</ele>
        <time>2021-05-31T11:28:53Z</time>
      </trkpt>
      <trkpt lat="44.55669" lon="2.73034">
        <ele>449.07</ele>
        <time>2021-05-31T11:29:01Z</time>
      </trkpt>
      <trkpt lat="44.55674" lon="2.73039">
        <ele>450.52</ele>
        <time>2021-05-31T11:29:09Z</time>
      </trkpt>
      <trkpt lat="44.55677" lon="2.73042">
        <ele>451.48</ele>
        <time>2021-05-31T11:29:17Z</time>
      </trkpt>
      <trkpt lat="44.55685" lon="2.73051">
        <ele>452.92</ele>
        <time>2021-05-31T11:29:29Z</time>
      </trkpt>
      <trkpt lat="44.55691" lon="2.73059">
        <ele>454.36</ele>
        <time>2021-05-31T11:29:39Z</time>
      </trkpt>
      <trkpt lat="44.55698" lon="2.73065">
        <ele>456.28</ele>
        <time>2021-05-31T11:29:50Z</time>
      </trkpt>
      <trkpt lat="44.55701" lon="2.73067">
        <ele>458.69</ele>
        <time>2021-05-31T11:30:08Z</time>
      </trkpt>
      <trkpt lat="44.55702" lon="2.73071">
        <ele>458.21</ele>
        <time>2021-05-31T11:30:14Z</time>
      </trkpt>
      <trkpt lat="44.55707" lon="2.73076">
        <ele>458.21</ele>
        <time>2021-05-31T11:30:23Z</time>
      </trkpt>
      <trkpt lat="44.55715" lon="2.73082">
        <ele>459.65</ele>
        <time>2021-05-31T11:30:31Z</time>
      </trkpt>
      <trkpt lat="44.55723" lon="2.73088">
        <ele>460.61</ele>
        <time>2021-05-31T11:30:40Z</time>
      </trkpt>
      <trkpt lat="44.55728" lon="2.73092">
        <ele>462.53</ele>
        <time>2021-05-31T11:30:48Z</time>
      </trkpt>
      <trkpt lat="44.55735" lon="2.73096">
        <ele>464.45</ele>
        <time>2021-05-31T11:30:55Z</time>
      </trkpt>
      <trkpt lat="44.55741" lon="2.73104">
        <ele>465.42</ele>
        <time>2021-05-31T11:31:04Z</time>
      </trkpt>
      <trkpt lat="44.55748" lon="2.7311">
        <ele>464.93</ele>
        <time>2021-05-31T11:31:12Z</time>
      </trkpt>
      <trkpt lat="44.55753" lon="2.73116">
        <ele>465.9</ele>
        <time>2021-05-31T11:31:19Z</time>
      </trkpt>
      <trkpt lat="44.55758" lon="2.73122">
        <ele>466.38</ele>
        <time>2021-05-31T11:31:26Z</time>
      </trkpt>
      <trkpt lat="44.55761" lon="2.7313">
        <ele>467.34</ele>
        <time>2021-05-31T11:31:34Z</time>
      </trkpt>
      <trkpt lat="44.55761" lon="2.73133">
        <ele>467.82</ele>
        <time>2021-05-31T11:31:36Z</time>
      </trkpt>
      <trkpt lat="44.55754" lon="2.73139">
        <ele>469.26</ele>
        <time>2021-05-31T11:31:44Z</time>
      </trkpt>
      <trkpt lat="44.55753" lon="2.73139">
        <ele>469.26</ele>
        <time>2021-05-31T11:31:45Z</time>
      </trkpt>
      <trkpt lat="44.55746" lon="2.73141">
        <ele>468.3</ele>
        <time>2021-05-31T11:31:53Z</time>
      </trkpt>
      <trkpt lat="44.55741" lon="2.73141">
        <ele>466.38</ele>
        <time>2021-05-31T11:32:01Z</time>
      </trkpt>
      <trkpt lat="44.55731" lon="2.7314">
        <ele>464.45</ele>
        <time>2021-05-31T11:32:08Z</time>
      </trkpt>
      <trkpt lat="44.55724" lon="2.73141">
        <ele>462.53</ele>
        <time>2021-05-31T11:32:15Z</time>
      </trkpt>
      <trkpt lat="44.55717" lon="2.73138">
        <ele>460.61</ele>
        <time>2021-05-31T11:32:22Z</time>
      </trkpt>
      <trkpt lat="44.5571" lon="2.73138">
        <ele>458.69</ele>
        <time>2021-05-31T11:32:29Z</time>
      </trkpt>
      <trkpt lat="44.557" lon="2.73136">
        <ele>456.76</ele>
        <time>2021-05-31T11:32:37Z</time>
      </trkpt>
      <trkpt lat="44.55693" lon="2.73136">
        <ele>453.4</ele>
        <time>2021-05-31T11:32:44Z</time>
      </trkpt>
      <trkpt lat="44.55688" lon="2.73133">
        <ele>451.48</ele>
        <time>2021-05-31T11:32:52Z</time>
      </trkpt>
      <trkpt lat="44.55681" lon="2.73129">
        <ele>461.09</ele>
        <time>2021-05-31T11:32:59Z</time>
      </trkpt>
      <trkpt lat="44.55678" lon="2.7313">
        <ele>463.97</ele>
        <time>2021-05-31T11:33:09Z</time>
      </trkpt>
      <trkpt lat="44.55679" lon="2.73132">
        <ele>464.45</ele>
        <time>2021-05-31T11:33:11Z</time>
      </trkpt>
      <trkpt lat="44.55683" lon="2.73134">
        <ele>464.45</ele>
        <time>2021-05-31T11:33:16Z</time>
      </trkpt>
      <trkpt lat="44.55691" lon="2.73138">
        <ele>464.45</ele>
        <time>2021-05-31T11:33:24Z</time>
      </trkpt>
      <trkpt lat="44.55698" lon="2.73141">
        <ele>464.93</ele>
        <time>2021-05-31T11:33:31Z</time>
      </trkpt>
      <trkpt lat="44.55707" lon="2.73148">
        <ele>465.9</ele>
        <time>2021-05-31T11:33:41Z</time>
      </trkpt>
      <trkpt lat="44.55715" lon="2.73153">
        <ele>466.38</ele>
        <time>2021-05-31T11:33:49Z</time>
      </trkpt>
      <trkpt lat="44.55722" lon="2.73157">
        <ele>466.86</ele>
        <time>2021-05-31T11:33:57Z</time>
      </trkpt>
      <trkpt lat="44.55732" lon="2.73163">
        <ele>467.82</ele>
        <time>2021-05-31T11:34:06Z</time>
      </trkpt>
      <trkpt lat="44.55741" lon="2.73169">
        <ele>469.26</ele>
        <time>2021-05-31T11:34:16Z</time>
      </trkpt>
      <trkpt lat="44.55749" lon="2.73175">
        <ele>470.22</ele>
        <time>2021-05-31T11:34:24Z</time>
      </trkpt>
      <trkpt lat="44.5576" lon="2.73182">
        <ele>471.66</ele>
        <time>2021-05-31T11:34:34Z</time>
      </trkpt>
      <trkpt lat="44.55768" lon="2.73188">
        <ele>472.63</ele>
        <time>2021-05-31T11:34:41Z</time>
      </trkpt>
      <trkpt lat="44.55778" lon="2.73196">
        <ele>474.07</ele>
        <time>2021-05-31T11:34:49Z</time>
      </trkpt>
      <trkpt lat="44.55788" lon="2.73205">
        <ele>476.95</ele>
        <time>2021-05-31T11:34:58Z</time>
      </trkpt>
      <trkpt lat="44.55795" lon="2.73216">
        <ele>479.35</ele>
        <time>2021-05-31T11:35:07Z</time>
      </trkpt>
      <trkpt lat="44.558" lon="2.73226">
        <ele>480.8</ele>
        <time>2021-05-31T11:35:15Z</time>
      </trkpt>
      <trkpt lat="44.55806" lon="2.73235">
        <ele>482.24</ele>
        <time>2021-05-31T11:35:23Z</time>
      </trkpt>
      <trkpt lat="44.55807" lon="2.73239">
        <ele>483.2</ele>
        <time>2021-05-31T11:35:25Z</time>
      </trkpt>
      <trkpt lat="44.5581" lon="2.73244">
        <ele>484.16</ele>
        <time>2021-05-31T11:35:29Z</time>
      </trkpt>
      <trkpt lat="44.55818" lon="2.73257">
        <ele>485.12</ele>
        <time>2021-05-31T11:35:40Z</time>
      </trkpt>
      <trkpt lat="44.55825" lon="2.73266">
        <ele>485.12</ele>
        <time>2021-05-31T11:35:48Z</time>
      </trkpt>
      <trkpt lat="44.55832" lon="2.73275">
        <ele>485.6</ele>
        <time>2021-05-31T11:35:55Z</time>
      </trkpt>
      <trkpt lat="44.55837" lon="2.73283">
        <ele>486.08</ele>
        <time>2021-05-31T11:36:02Z</time>
      </trkpt>
      <trkpt lat="44.55841" lon="2.73294">
        <ele>487.05</ele>
        <time>2021-05-31T11:36:09Z</time>
      </trkpt>
      <trkpt lat="44.55845" lon="2.73304">
        <ele>487.05</ele>
        <time>2021-05-31T11:36:15Z</time>
      </trkpt>
      <trkpt lat="44.55849" lon="2.73312">
        <ele>486.56</ele>
        <time>2021-05-31T11:36:22Z</time>
      </trkpt>
      <trkpt lat="44.5585" lon="2.73316">
        <ele>486.56</ele>
        <time>2021-05-31T11:36:25Z</time>
      </trkpt>
      <trkpt lat="44.55853" lon="2.73324">
        <ele>486.08</ele>
        <time>2021-05-31T11:36:31Z</time>
      </trkpt>
      <trkpt lat="44.55859" lon="2.73337">
        <ele>487.05</ele>
        <time>2021-05-31T11:36:40Z</time>
      </trkpt>
      <trkpt lat="44.55862" lon="2.73342">
        <ele>487.05</ele>
        <time>2021-05-31T11:36:46Z</time>
      </trkpt>
      <trkpt lat="44.55868" lon="2.73346">
        <ele>487.53</ele>
        <time>2021-05-31T11:36:52Z</time>
      </trkpt>
      <trkpt lat="44.55877" lon="2.73344">
        <ele>490.41</ele>
        <time>2021-05-31T11:37:00Z</time>
      </trkpt>
      <trkpt lat="44.55886" lon="2.73332">
        <ele>491.85</ele>
        <time>2021-05-31T11:37:12Z</time>
      </trkpt>
      <trkpt lat="44.55891" lon="2.73322">
        <ele>492.81</ele>
        <time>2021-05-31T11:37:19Z</time>
      </trkpt>
      <trkpt lat="44.55896" lon="2.73315">
        <ele>493.77</ele>
        <time>2021-05-31T11:37:26Z</time>
      </trkpt>
      <trkpt lat="44.55902" lon="2.73309">
        <ele>494.26</ele>
        <time>2021-05-31T11:37:32Z</time>
      </trkpt>
      <trkpt lat="44.55906" lon="2.73304">
        <ele>494.74</ele>
        <time>2021-05-31T11:37:36Z</time>
      </trkpt>
      <trkpt lat="44.55912" lon="2.73301">
        <ele>495.22</ele>
        <time>2021-05-31T11:37:40Z</time>
      </trkpt>
      <trkpt lat="44.55921" lon="2.73296">
        <ele>496.66</ele>
        <time>2021-05-31T11:37:48Z</time>
      </trkpt>
      <trkpt lat="44.55929" lon="2.73291">
        <ele>498.58</ele>
        <time>2021-05-31T11:37:56Z</time>
      </trkpt>
      <trkpt lat="44.55937" lon="2.73289">
        <ele>501.46</ele>
        <time>2021-05-31T11:38:03Z</time>
      </trkpt>
      <trkpt lat="44.55945" lon="2.73287">
        <ele>504.35</ele>
        <time>2021-05-31T11:38:11Z</time>
      </trkpt>
      <trkpt lat="44.55955" lon="2.73283">
        <ele>506.27</ele>
        <time>2021-05-31T11:38:19Z</time>
      </trkpt>
      <trkpt lat="44.55962" lon="2.73282">
        <ele>507.23</ele>
        <time>2021-05-31T11:38:25Z</time>
      </trkpt>
      <trkpt lat="44.55971" lon="2.7328">
        <ele>508.67</ele>
        <time>2021-05-31T11:38:33Z</time>
      </trkpt>
      <trkpt lat="44.55978" lon="2.73278">
        <ele>509.64</ele>
        <time>2021-05-31T11:38:39Z</time>
      </trkpt>
      <trkpt lat="44.55989" lon="2.73276">
        <ele>509.64</ele>
        <time>2021-05-31T11:38:47Z</time>
      </trkpt>
      <trkpt lat="44.55998" lon="2.73273">
        <ele>508.19</ele>
        <time>2021-05-31T11:38:55Z</time>
      </trkpt>
      <trkpt lat="44.56004" lon="2.73269">
        <ele>507.23</ele>
        <time>2021-05-31T11:39:00Z</time>
      </trkpt>
      <trkpt lat="44.56011" lon="2.7326">
        <ele>508.19</ele>
        <time>2021-05-31T11:39:07Z</time>
      </trkpt>
      <trkpt lat="44.56017" lon="2.73248">
        <ele>510.12</ele>
        <time>2021-05-31T11:39:15Z</time>
      </trkpt>
      <trkpt lat="44.56022" lon="2.7324">
        <ele>511.56</ele>
        <time>2021-05-31T11:39:22Z</time>
      </trkpt>
      <trkpt lat="44.56028" lon="2.73231">
        <ele>513</ele>
        <time>2021-05-31T11:39:30Z</time>
      </trkpt>
      <trkpt lat="44.56033" lon="2.73223">
        <ele>513.96</ele>
        <time>2021-05-31T11:39:36Z</time>
      </trkpt>
      <trkpt lat="44.56039" lon="2.73215">
        <ele>513.96</ele>
        <time>2021-05-31T11:39:43Z</time>
      </trkpt>
      <trkpt lat="44.56047" lon="2.73204">
        <ele>514.44</ele>
        <time>2021-05-31T11:39:51Z</time>
      </trkpt>
      <trkpt lat="44.56053" lon="2.73196">
        <ele>515.4</ele>
        <time>2021-05-31T11:39:58Z</time>
      </trkpt>
      <trkpt lat="44.5606" lon="2.7319">
        <ele>516.37</ele>
        <time>2021-05-31T11:40:05Z</time>
      </trkpt>
      <trkpt lat="44.56066" lon="2.73181">
        <ele>516.85</ele>
        <time>2021-05-31T11:40:12Z</time>
      </trkpt>
      <trkpt lat="44.56072" lon="2.73175">
        <ele>517.33</ele>
        <time>2021-05-31T11:40:18Z</time>
      </trkpt>
      <trkpt lat="44.56079" lon="2.73169">
        <ele>517.81</ele>
        <time>2021-05-31T11:40:25Z</time>
      </trkpt>
      <trkpt lat="44.56084" lon="2.73163">
        <ele>518.77</ele>
        <time>2021-05-31T11:40:31Z</time>
      </trkpt>
      <trkpt lat="44.56091" lon="2.73156">
        <ele>519.73</ele>
        <time>2021-05-31T11:40:39Z</time>
      </trkpt>
      <trkpt lat="44.56099" lon="2.7315">
        <ele>521.17</ele>
        <time>2021-05-31T11:40:47Z</time>
      </trkpt>
      <trkpt lat="44.56111" lon="2.73141">
        <ele>521.17</ele>
        <time>2021-05-31T11:40:57Z</time>
      </trkpt>
      <trkpt lat="44.56114" lon="2.7314">
        <ele>521.17</ele>
        <time>2021-05-31T11:40:59Z</time>
      </trkpt>
      <trkpt lat="44.56123" lon="2.73133">
        <ele>520.21</ele>
        <time>2021-05-31T11:41:07Z</time>
      </trkpt>
      <trkpt lat="44.56133" lon="2.73128">
        <ele>520.69</ele>
        <time>2021-05-31T11:41:15Z</time>
      </trkpt>
      <trkpt lat="44.56143" lon="2.73125">
        <ele>521.17</ele>
        <time>2021-05-31T11:41:23Z</time>
      </trkpt>
      <trkpt lat="44.5615" lon="2.73123">
        <ele>522.13</ele>
        <time>2021-05-31T11:41:30Z</time>
      </trkpt>
      <trkpt lat="44.56163" lon="2.73119">
        <ele>523.09</ele>
        <time>2021-05-31T11:41:42Z</time>
      </trkpt>
      <trkpt lat="44.5617" lon="2.73117">
        <ele>523.58</ele>
        <time>2021-05-31T11:41:49Z</time>
      </trkpt>
      <trkpt lat="44.56181" lon="2.73113">
        <ele>525.02</ele>
        <time>2021-05-31T11:41:58Z</time>
      </trkpt>
      <trkpt lat="44.56189" lon="2.73111">
        <ele>525.98</ele>
        <time>2021-05-31T11:42:05Z</time>
      </trkpt>
      <trkpt lat="44.56196" lon="2.7311">
        <ele>527.42</ele>
        <time>2021-05-31T11:42:11Z</time>
      </trkpt>
      <trkpt lat="44.56197" lon="2.73109">
        <ele>527.42</ele>
        <time>2021-05-31T11:42:12Z</time>
      </trkpt>
      <trkpt lat="44.56202" lon="2.7311">
        <ele>527.9</ele>
        <time>2021-05-31T11:42:16Z</time>
      </trkpt>
      <trkpt lat="44.56213" lon="2.7311">
        <ele>528.38</ele>
        <time>2021-05-31T11:42:25Z</time>
      </trkpt>
      <trkpt lat="44.56222" lon="2.73114">
        <ele>528.86</ele>
        <time>2021-05-31T11:42:33Z</time>
      </trkpt>
      <trkpt lat="44.56231" lon="2.7312">
        <ele>528.86</ele>
        <time>2021-05-31T11:42:41Z</time>
      </trkpt>
      <trkpt lat="44.56237" lon="2.73127">
        <ele>528.86</ele>
        <time>2021-05-31T11:42:48Z</time>
      </trkpt>
      <trkpt lat="44.56242" lon="2.73139">
        <ele>529.82</ele>
        <time>2021-05-31T11:42:56Z</time>
      </trkpt>
      <trkpt lat="44.56244" lon="2.73149">
        <ele>531.27</ele>
        <time>2021-05-31T11:43:04Z</time>
      </trkpt>
      <trkpt lat="44.56246" lon="2.7316">
        <ele>532.23</ele>
        <time>2021-05-31T11:43:11Z</time>
      </trkpt>
      <trkpt lat="44.56246" lon="2.73161">
        <ele>532.71</ele>
        <time>2021-05-31T11:43:12Z</time>
      </trkpt>
      <trkpt lat="44.56244" lon="2.73174">
        <ele>534.63</ele>
        <time>2021-05-31T11:43:20Z</time>
      </trkpt>
      <trkpt lat="44.56243" lon="2.73178">
        <ele>534.63</ele>
        <time>2021-05-31T11:43:23Z</time>
      </trkpt>
      <trkpt lat="44.56236" lon="2.73184">
        <ele>533.67</ele>
        <time>2021-05-31T11:43:31Z</time>
      </trkpt>
      <trkpt lat="44.5623" lon="2.73186">
        <ele>533.19</ele>
        <time>2021-05-31T11:43:39Z</time>
      </trkpt>
      <trkpt lat="44.56225" lon="2.73192">
        <ele>533.19</ele>
        <time>2021-05-31T11:43:47Z</time>
      </trkpt>
      <trkpt lat="44.56222" lon="2.73202">
        <ele>532.71</ele>
        <time>2021-05-31T11:43:55Z</time>
      </trkpt>
      <trkpt lat="44.56215" lon="2.73213">
        <ele>532.71</ele>
        <time>2021-05-31T11:44:04Z</time>
      </trkpt>
      <trkpt lat="44.56211" lon="2.73224">
        <ele>532.71</ele>
        <time>2021-05-31T11:44:13Z</time>
      </trkpt>
      <trkpt lat="44.56205" lon="2.73236">
        <ele>532.71</ele>
        <time>2021-05-31T11:44:23Z</time>
      </trkpt>
      <trkpt lat="44.56202" lon="2.73248">
        <ele>533.19</ele>
        <time>2021-05-31T11:44:31Z</time>
      </trkpt>
      <trkpt lat="44.56197" lon="2.73261">
        <ele>533.19</ele>
        <time>2021-05-31T11:44:40Z</time>
      </trkpt>
      <trkpt lat="44.56193" lon="2.73275">
        <ele>534.15</ele>
        <time>2021-05-31T11:44:50Z</time>
      </trkpt>
      <trkpt lat="44.56188" lon="2.73288">
        <ele>534.63</ele>
        <time>2021-05-31T11:44:58Z</time>
      </trkpt>
      <trkpt lat="44.56182" lon="2.73301">
        <ele>535.59</ele>
        <time>2021-05-31T11:45:07Z</time>
      </trkpt>
      <trkpt lat="44.56178" lon="2.73312">
        <ele>536.55</ele>
        <time>2021-05-31T11:45:15Z</time>
      </trkpt>
      <trkpt lat="44.56173" lon="2.73328">
        <ele>537.51</ele>
        <time>2021-05-31T11:45:25Z</time>
      </trkpt>
      <trkpt lat="44.56171" lon="2.73335">
        <ele>537.99</ele>
        <time>2021-05-31T11:45:29Z</time>
      </trkpt>
      <trkpt lat="44.56167" lon="2.73346">
        <ele>539.44</ele>
        <time>2021-05-31T11:45:37Z</time>
      </trkpt>
      <trkpt lat="44.56164" lon="2.73351">
        <ele>540.4</ele>
        <time>2021-05-31T11:45:48Z</time>
      </trkpt>
      <trkpt lat="44.56161" lon="2.73364">
        <ele>542.32</ele>
        <time>2021-05-31T11:45:57Z</time>
      </trkpt>
      <trkpt lat="44.56158" lon="2.73373">
        <ele>543.28</ele>
        <time>2021-05-31T11:46:05Z</time>
      </trkpt>
      <trkpt lat="44.56154" lon="2.73386">
        <ele>544.72</ele>
        <time>2021-05-31T11:46:14Z</time>
      </trkpt>
      <trkpt lat="44.56151" lon="2.73399">
        <ele>544.72</ele>
        <time>2021-05-31T11:46:22Z</time>
      </trkpt>
      <trkpt lat="44.56148" lon="2.73409">
        <ele>545.69</ele>
        <time>2021-05-31T11:46:29Z</time>
      </trkpt>
      <trkpt lat="44.56145" lon="2.73423">
        <ele>546.65</ele>
        <time>2021-05-31T11:46:40Z</time>
      </trkpt>
      <trkpt lat="44.56143" lon="2.73432">
        <ele>547.61</ele>
        <time>2021-05-31T11:46:47Z</time>
      </trkpt>
      <trkpt lat="44.56139" lon="2.73442">
        <ele>548.57</ele>
        <time>2021-05-31T11:46:54Z</time>
      </trkpt>
      <trkpt lat="44.56135" lon="2.73452">
        <ele>549.53</ele>
        <time>2021-05-31T11:47:02Z</time>
      </trkpt>
      <trkpt lat="44.56131" lon="2.73463">
        <ele>550.97</ele>
        <time>2021-05-31T11:47:09Z</time>
      </trkpt>
      <trkpt lat="44.56127" lon="2.73473">
        <ele>552.41</ele>
        <time>2021-05-31T11:47:17Z</time>
      </trkpt>
      <trkpt lat="44.56125" lon="2.73484">
        <ele>553.38</ele>
        <time>2021-05-31T11:47:25Z</time>
      </trkpt>
      <trkpt lat="44.56122" lon="2.73497">
        <ele>554.82</ele>
        <time>2021-05-31T11:47:34Z</time>
      </trkpt>
      <trkpt lat="44.5612" lon="2.73508">
        <ele>556.26</ele>
        <time>2021-05-31T11:47:43Z</time>
      </trkpt>
      <trkpt lat="44.56119" lon="2.73521">
        <ele>557.7</ele>
        <time>2021-05-31T11:47:51Z</time>
      </trkpt>
      <trkpt lat="44.56121" lon="2.73531">
        <ele>558.18</ele>
        <time>2021-05-31T11:47:58Z</time>
      </trkpt>
      <trkpt lat="44.56127" lon="2.73538">
        <ele>560.11</ele>
        <time>2021-05-31T11:48:07Z</time>
      </trkpt>
      <trkpt lat="44.56135" lon="2.73541">
        <ele>562.51</ele>
        <time>2021-05-31T11:48:16Z</time>
      </trkpt>
      <trkpt lat="44.56142" lon="2.73542">
        <ele>563.47</ele>
        <time>2021-05-31T11:48:25Z</time>
      </trkpt>
      <trkpt lat="44.56152" lon="2.73545">
        <ele>565.39</ele>
        <time>2021-05-31T11:48:34Z</time>
      </trkpt>
      <trkpt lat="44.56153" lon="2.73545">
        <ele>565.87</ele>
        <time>2021-05-31T11:48:35Z</time>
      </trkpt>
      <trkpt lat="44.56159" lon="2.73546">
        <ele>566.83</ele>
        <time>2021-05-31T11:48:43Z</time>
      </trkpt>
      <trkpt lat="44.56165" lon="2.73549">
        <ele>567.32</ele>
        <time>2021-05-31T11:48:52Z</time>
      </trkpt>
      <trkpt lat="44.56172" lon="2.73549">
        <ele>565.87</ele>
        <time>2021-05-31T11:48:59Z</time>
      </trkpt>
      <trkpt lat="44.56178" lon="2.73549">
        <ele>565.87</ele>
        <time>2021-05-31T11:49:05Z</time>
      </trkpt>
      <trkpt lat="44.56184" lon="2.73548">
        <ele>567.32</ele>
        <time>2021-05-31T11:49:11Z</time>
      </trkpt>
      <trkpt lat="44.56185" lon="2.73548">
        <ele>567.32</ele>
        <time>2021-05-31T11:49:12Z</time>
      </trkpt>
      <trkpt lat="44.56192" lon="2.73545">
        <ele>569.72</ele>
        <time>2021-05-31T11:49:19Z</time>
      </trkpt>
      <trkpt lat="44.56198" lon="2.73543">
        <ele>571.16</ele>
        <time>2021-05-31T11:49:26Z</time>
      </trkpt>
      <trkpt lat="44.56205" lon="2.73542">
        <ele>572.6</ele>
        <time>2021-05-31T11:49:32Z</time>
      </trkpt>
      <trkpt lat="44.56213" lon="2.7354">
        <ele>573.56</ele>
        <time>2021-05-31T11:49:39Z</time>
      </trkpt>
      <trkpt lat="44.56219" lon="2.73538">
        <ele>574.53</ele>
        <time>2021-05-31T11:49:45Z</time>
      </trkpt>
      <trkpt lat="44.56228" lon="2.73537">
        <ele>575.49</ele>
        <time>2021-05-31T11:49:53Z</time>
      </trkpt>
      <trkpt lat="44.56235" lon="2.73535">
        <ele>575.49</ele>
        <time>2021-05-31T11:50:00Z</time>
      </trkpt>
      <trkpt lat="44.56243" lon="2.73534">
        <ele>575.97</ele>
        <time>2021-05-31T11:50:07Z</time>
      </trkpt>
      <trkpt lat="44.56246" lon="2.73533">
        <ele>576.45</ele>
        <time>2021-05-31T11:50:09Z</time>
      </trkpt>
      <trkpt lat="44.56255" lon="2.73534">
        <ele>578.37</ele>
        <time>2021-05-31T11:50:16Z</time>
      </trkpt>
      <trkpt lat="44.56262" lon="2.73534">
        <ele>579.81</ele>
        <time>2021-05-31T11:50:22Z</time>
      </trkpt>
      <trkpt lat="44.56269" lon="2.73534">
        <ele>580.29</ele>
        <time>2021-05-31T11:50:28Z</time>
      </trkpt>
      <trkpt lat="44.56277" lon="2.73537">
        <ele>581.73</ele>
        <time>2021-05-31T11:50:35Z</time>
      </trkpt>
      <trkpt lat="44.56285" lon="2.73539">
        <ele>583.66</ele>
        <time>2021-05-31T11:50:42Z</time>
      </trkpt>
      <trkpt lat="44.5629" lon="2.73543">
        <ele>584.14</ele>
        <time>2021-05-31T11:50:47Z</time>
      </trkpt>
      <trkpt lat="44.56294" lon="2.7355">
        <ele>585.58</ele>
        <time>2021-05-31T11:50:53Z</time>
      </trkpt>
      <trkpt lat="44.56295" lon="2.73555">
        <ele>587.02</ele>
        <time>2021-05-31T11:50:57Z</time>
      </trkpt>
      <trkpt lat="44.56297" lon="2.73566">
        <ele>588.46</ele>
        <time>2021-05-31T11:51:04Z</time>
      </trkpt>
      <trkpt lat="44.56297" lon="2.73573">
        <ele>588.95</ele>
        <time>2021-05-31T11:51:10Z</time>
      </trkpt>
      <trkpt lat="44.56296" lon="2.73574">
        <ele>588.46</ele>
        <time>2021-05-31T11:51:17Z</time>
      </trkpt>
      <trkpt lat="44.56297" lon="2.7358">
        <ele>588.95</ele>
        <time>2021-05-31T11:51:24Z</time>
      </trkpt>
      <trkpt lat="44.56298" lon="2.73589">
        <ele>588.46</ele>
        <time>2021-05-31T11:51:30Z</time>
      </trkpt>
      <trkpt lat="44.56299" lon="2.73598">
        <ele>589.43</ele>
        <time>2021-05-31T11:51:36Z</time>
      </trkpt>
      <trkpt lat="44.563" lon="2.73599">
        <ele>589.43</ele>
        <time>2021-05-31T11:51:37Z</time>
      </trkpt>
      <trkpt lat="44.56306" lon="2.73607">
        <ele>590.39</ele>
        <time>2021-05-31T11:51:46Z</time>
      </trkpt>
      <trkpt lat="44.56307" lon="2.73608">
        <ele>590.87</ele>
        <time>2021-05-31T11:51:48Z</time>
      </trkpt>
      <trkpt lat="44.56315" lon="2.7361">
        <ele>592.31</ele>
        <time>2021-05-31T11:51:56Z</time>
      </trkpt>
      <trkpt lat="44.56323" lon="2.73611">
        <ele>594.23</ele>
        <time>2021-05-31T11:52:04Z</time>
      </trkpt>
      <trkpt lat="44.56326" lon="2.73611">
        <ele>595.19</ele>
        <time>2021-05-31T11:52:13Z</time>
      </trkpt>
      <trkpt lat="44.56327" lon="2.73611">
        <ele>595.19</ele>
        <time>2021-05-31T11:52:14Z</time>
      </trkpt>
      <trkpt lat="44.56336" lon="2.73611">
        <ele>597.12</ele>
        <time>2021-05-31T11:52:22Z</time>
      </trkpt>
      <trkpt lat="44.56344" lon="2.73612">
        <ele>598.08</ele>
        <time>2021-05-31T11:52:28Z</time>
      </trkpt>
      <trkpt lat="44.5635" lon="2.73613">
        <ele>599.04</ele>
        <time>2021-05-31T11:52:34Z</time>
      </trkpt>
      <trkpt lat="44.56351" lon="2.73613">
        <ele>599.52</ele>
        <time>2021-05-31T11:52:35Z</time>
      </trkpt>
      <trkpt lat="44.56359" lon="2.73617">
        <ele>600.96</ele>
        <time>2021-05-31T11:52:42Z</time>
      </trkpt>
      <trkpt lat="44.56364" lon="2.73623">
        <ele>601.92</ele>
        <time>2021-05-31T11:52:48Z</time>
      </trkpt>
      <trkpt lat="44.56368" lon="2.73631">
        <ele>602.88</ele>
        <time>2021-05-31T11:52:55Z</time>
      </trkpt>
      <trkpt lat="44.56371" lon="2.73639">
        <ele>603.85</ele>
        <time>2021-05-31T11:53:02Z</time>
      </trkpt>
      <trkpt lat="44.56377" lon="2.73648">
        <ele>603.85</ele>
        <time>2021-05-31T11:53:09Z</time>
      </trkpt>
      <trkpt lat="44.56383" lon="2.73656">
        <ele>605.29</ele>
        <time>2021-05-31T11:53:18Z</time>
      </trkpt>
      <trkpt lat="44.56392" lon="2.73664">
        <ele>605.77</ele>
        <time>2021-05-31T11:53:27Z</time>
      </trkpt>
      <trkpt lat="44.564" lon="2.73669">
        <ele>605.29</ele>
        <time>2021-05-31T11:53:34Z</time>
      </trkpt>
      <trkpt lat="44.56408" lon="2.73671">
        <ele>603.85</ele>
        <time>2021-05-31T11:53:40Z</time>
      </trkpt>
      <trkpt lat="44.56422" lon="2.73679">
        <ele>603.85</ele>
        <time>2021-05-31T11:53:49Z</time>
      </trkpt>
      <trkpt lat="44.56431" lon="2.73681">
        <ele>604.81</ele>
        <time>2021-05-31T11:53:57Z</time>
      </trkpt>
      <trkpt lat="44.56439" lon="2.73685">
        <ele>604.81</ele>
        <time>2021-05-31T11:54:04Z</time>
      </trkpt>
      <trkpt lat="44.5644" lon="2.73685">
        <ele>604.33</ele>
        <time>2021-05-31T11:54:05Z</time>
      </trkpt>
      <trkpt lat="44.5645" lon="2.73688">
        <ele>604.81</ele>
        <time>2021-05-31T11:54:13Z</time>
      </trkpt>
      <trkpt lat="44.56461" lon="2.73692">
        <ele>604.81</ele>
        <time>2021-05-31T11:54:22Z</time>
      </trkpt>
      <trkpt lat="44.56473" lon="2.73698">
        <ele>607.69</ele>
        <time>2021-05-31T11:54:32Z</time>
      </trkpt>
      <trkpt lat="44.56483" lon="2.73702">
        <ele>609.13</ele>
        <time>2021-05-31T11:54:41Z</time>
      </trkpt>
      <trkpt lat="44.56491" lon="2.73708">
        <ele>609.61</ele>
        <time>2021-05-31T11:54:49Z</time>
      </trkpt>
      <trkpt lat="44.56497" lon="2.73712">
        <ele>610.57</ele>
        <time>2021-05-31T11:54:55Z</time>
      </trkpt>
      <trkpt lat="44.56509" lon="2.73718">
        <ele>611.06</ele>
        <time>2021-05-31T11:55:04Z</time>
      </trkpt>
      <trkpt lat="44.56512" lon="2.73719">
        <ele>611.54</ele>
        <time>2021-05-31T11:55:07Z</time>
      </trkpt>
      <trkpt lat="44.56522" lon="2.73723">
        <ele>612.02</ele>
        <time>2021-05-31T11:55:16Z</time>
      </trkpt>
      <trkpt lat="44.56523" lon="2.73723">
        <ele>612.02</ele>
        <time>2021-05-31T11:55:17Z</time>
      </trkpt>
      <trkpt lat="44.56533" lon="2.73725">
        <ele>612.5</ele>
        <time>2021-05-31T11:55:25Z</time>
      </trkpt>
      <trkpt lat="44.56542" lon="2.73726">
        <ele>613.94</ele>
        <time>2021-05-31T11:55:31Z</time>
      </trkpt>
      <trkpt lat="44.56549" lon="2.73728">
        <ele>616.34</ele>
        <time>2021-05-31T11:55:38Z</time>
      </trkpt>
      <trkpt lat="44.56555" lon="2.73731">
        <ele>617.3</ele>
        <time>2021-05-31T11:55:44Z</time>
      </trkpt>
      <trkpt lat="44.56562" lon="2.73735">
        <ele>617.78</ele>
        <time>2021-05-31T11:55:51Z</time>
      </trkpt>
      <trkpt lat="44.5657" lon="2.7374">
        <ele>617.78</ele>
        <time>2021-05-31T11:55:58Z</time>
      </trkpt>
      <trkpt lat="44.56578" lon="2.73746">
        <ele>618.26</ele>
        <time>2021-05-31T11:56:04Z</time>
      </trkpt>
      <trkpt lat="44.56585" lon="2.73753">
        <ele>620.19</ele>
        <time>2021-05-31T11:56:12Z</time>
      </trkpt>
      <trkpt lat="44.56593" lon="2.73758">
        <ele>621.63</ele>
        <time>2021-05-31T11:56:20Z</time>
      </trkpt>
      <trkpt lat="44.56603" lon="2.73764">
        <ele>623.07</ele>
        <time>2021-05-31T11:56:28Z</time>
      </trkpt>
      <trkpt lat="44.56611" lon="2.73768">
        <ele>623.55</ele>
        <time>2021-05-31T11:56:35Z</time>
      </trkpt>
      <trkpt lat="44.56618" lon="2.73772">
        <ele>623.07</ele>
        <time>2021-05-31T11:56:42Z</time>
      </trkpt>
      <trkpt lat="44.56631" lon="2.73778">
        <ele>622.59</ele>
        <time>2021-05-31T11:56:50Z</time>
      </trkpt>
      <trkpt lat="44.56632" lon="2.73779">
        <ele>623.07</ele>
        <time>2021-05-31T11:56:51Z</time>
      </trkpt>
      <trkpt lat="44.5664" lon="2.73784">
        <ele>622.59</ele>
        <time>2021-05-31T11:56:59Z</time>
      </trkpt>
      <trkpt lat="44.56648" lon="2.73787">
        <ele>621.63</ele>
        <time>2021-05-31T11:57:06Z</time>
      </trkpt>
      <trkpt lat="44.56656" lon="2.73788">
        <ele>622.59</ele>
        <time>2021-05-31T11:57:14Z</time>
      </trkpt>
      <trkpt lat="44.56666" lon="2.73792">
        <ele>623.55</ele>
        <time>2021-05-31T11:57:23Z</time>
      </trkpt>
      <trkpt lat="44.56674" lon="2.73794">
        <ele>624.51</ele>
        <time>2021-05-31T11:57:31Z</time>
      </trkpt>
      <trkpt lat="44.56678" lon="2.73796">
        <ele>624.03</ele>
        <time>2021-05-31T11:57:34Z</time>
      </trkpt>
      <trkpt lat="44.5668" lon="2.73796">
        <ele>623.55</ele>
        <time>2021-05-31T11:57:35Z</time>
      </trkpt>
      <trkpt lat="44.56681" lon="2.73797">
        <ele>623.55</ele>
        <time>2021-05-31T11:57:36Z</time>
      </trkpt>
      <trkpt lat="44.56683" lon="2.73798">
        <ele>623.07</ele>
        <time>2021-05-31T11:57:37Z</time>
      </trkpt>
      <trkpt lat="44.56684" lon="2.73798">
        <ele>623.07</ele>
        <time>2021-05-31T11:57:38Z</time>
      </trkpt>
      <trkpt lat="44.56696" lon="2.73802">
        <ele>621.63</ele>
        <time>2021-05-31T11:57:46Z</time>
      </trkpt>
      <trkpt lat="44.56706" lon="2.73805">
        <ele>619.71</ele>
        <time>2021-05-31T11:57:54Z</time>
      </trkpt>
      <trkpt lat="44.56708" lon="2.73805">
        <ele>618.75</ele>
        <time>2021-05-31T11:58:00Z</time>
      </trkpt>
      <trkpt lat="44.56714" lon="2.73808">
        <ele>617.3</ele>
        <time>2021-05-31T11:58:06Z</time>
      </trkpt>
      <trkpt lat="44.56718" lon="2.73809">
        <ele>616.34</ele>
        <time>2021-05-31T11:58:10Z</time>
      </trkpt>
      <trkpt lat="44.56727" lon="2.73814">
        <ele>616.34</ele>
        <time>2021-05-31T11:58:18Z</time>
      </trkpt>
      <trkpt lat="44.56727" lon="2.73815">
        <ele>617.3</ele>
        <time>2021-05-31T11:58:26Z</time>
      </trkpt>
      <trkpt lat="44.56733" lon="2.73818">
        <ele>616.34</ele>
        <time>2021-05-31T11:58:32Z</time>
      </trkpt>
      <trkpt lat="44.56742" lon="2.73826">
        <ele>615.38</ele>
        <time>2021-05-31T11:58:39Z</time>
      </trkpt>
      <trkpt lat="44.56748" lon="2.7383">
        <ele>613.94</ele>
        <time>2021-05-31T11:58:46Z</time>
      </trkpt>
      <trkpt lat="44.56757" lon="2.73833">
        <ele>612.5</ele>
        <time>2021-05-31T11:58:54Z</time>
      </trkpt>
      <trkpt lat="44.56759" lon="2.73834">
        <ele>612.5</ele>
        <time>2021-05-31T11:58:55Z</time>
      </trkpt>
      <trkpt lat="44.56764" lon="2.73838">
        <ele>612.02</ele>
        <time>2021-05-31T11:59:01Z</time>
      </trkpt>
      <trkpt lat="44.56764" lon="2.73839">
        <ele>612.02</ele>
        <time>2021-05-31T11:59:13Z</time>
      </trkpt>
      <trkpt lat="44.56766" lon="2.73841">
        <ele>609.61</ele>
        <time>2021-05-31T11:59:32Z</time>
      </trkpt>
      <trkpt lat="44.56768" lon="2.73842">
        <ele>609.13</ele>
        <time>2021-05-31T11:59:34Z</time>
      </trkpt>
      <trkpt lat="44.56774" lon="2.73848">
        <ele>609.13</ele>
        <time>2021-05-31T11:59:40Z</time>
      </trkpt>
      <trkpt lat="44.56779" lon="2.73854">
        <ele>611.06</ele>
        <time>2021-05-31T11:59:47Z</time>
      </trkpt>
      <trkpt lat="44.56786" lon="2.73862">
        <ele>610.57</ele>
        <time>2021-05-31T11:59:55Z</time>
      </trkpt>
      <trkpt lat="44.56791" lon="2.73868">
        <ele>610.09</ele>
        <time>2021-05-31T12:00:02Z</time>
      </trkpt>
      <trkpt lat="44.56792" lon="2.73869">
        <ele>610.09</ele>
        <time>2021-05-31T12:00:03Z</time>
      </trkpt>
      <trkpt lat="44.56793" lon="2.73869">
        <ele>610.09</ele>
        <time>2021-05-31T12:00:04Z</time>
      </trkpt>
      <trkpt lat="44.56801" lon="2.73877">
        <ele>610.09</ele>
        <time>2021-05-31T12:00:11Z</time>
      </trkpt>
      <trkpt lat="44.56809" lon="2.73886">
        <ele>611.06</ele>
        <time>2021-05-31T12:00:20Z</time>
      </trkpt>
      <trkpt lat="44.56815" lon="2.73892">
        <ele>611.06</ele>
        <time>2021-05-31T12:00:28Z</time>
      </trkpt>
      <trkpt lat="44.56825" lon="2.73901">
        <ele>612.02</ele>
        <time>2021-05-31T12:00:35Z</time>
      </trkpt>
      <trkpt lat="44.5683" lon="2.73904">
        <ele>614.9</ele>
        <time>2021-05-31T12:00:43Z</time>
      </trkpt>
      <trkpt lat="44.56837" lon="2.73906">
        <ele>616.82</ele>
        <time>2021-05-31T12:00:50Z</time>
      </trkpt>
      <trkpt lat="44.56839" lon="2.73906">
        <ele>617.3</ele>
        <time>2021-05-31T12:00:51Z</time>
      </trkpt>
      <trkpt lat="44.5684" lon="2.73907">
        <ele>617.3</ele>
        <time>2021-05-31T12:00:52Z</time>
      </trkpt>
      <trkpt lat="44.56842" lon="2.73908">
        <ele>617.78</ele>
        <time>2021-05-31T12:00:53Z</time>
      </trkpt>
      <trkpt lat="44.56843" lon="2.73909">
        <ele>618.26</ele>
        <time>2021-05-31T12:00:54Z</time>
      </trkpt>
      <trkpt lat="44.56849" lon="2.73912">
        <ele>619.23</ele>
        <time>2021-05-31T12:01:01Z</time>
      </trkpt>
      <trkpt lat="44.56857" lon="2.73915">
        <ele>620.19</ele>
        <time>2021-05-31T12:01:09Z</time>
      </trkpt>
      <trkpt lat="44.56865" lon="2.73917">
        <ele>620.19</ele>
        <time>2021-05-31T12:01:17Z</time>
      </trkpt>
      <trkpt lat="44.56871" lon="2.73914">
        <ele>620.19</ele>
        <time>2021-05-31T12:01:26Z</time>
      </trkpt>
      <trkpt lat="44.56876" lon="2.73912">
        <ele>618.75</ele>
        <time>2021-05-31T12:01:47Z</time>
      </trkpt>
      <trkpt lat="44.56883" lon="2.73917">
        <ele>617.3</ele>
        <time>2021-05-31T12:02:02Z</time>
      </trkpt>
      <trkpt lat="44.56886" lon="2.73923">
        <ele>616.82</ele>
        <time>2021-05-31T12:02:08Z</time>
      </trkpt>
      <trkpt lat="44.56887" lon="2.73924">
        <ele>616.82</ele>
        <time>2021-05-31T12:02:09Z</time>
      </trkpt>
      <trkpt lat="44.56893" lon="2.73931">
        <ele>616.82</ele>
        <time>2021-05-31T12:02:16Z</time>
      </trkpt>
      <trkpt lat="44.56899" lon="2.73938">
        <ele>616.34</ele>
        <time>2021-05-31T12:02:23Z</time>
      </trkpt>
      <trkpt lat="44.56906" lon="2.73941">
        <ele>615.86</ele>
        <time>2021-05-31T12:02:29Z</time>
      </trkpt>
      <trkpt lat="44.56914" lon="2.73948">
        <ele>614.42</ele>
        <time>2021-05-31T12:02:37Z</time>
      </trkpt>
      <trkpt lat="44.56921" lon="2.73954">
        <ele>613.46</ele>
        <time>2021-05-31T12:02:44Z</time>
      </trkpt>
      <trkpt lat="44.56929" lon="2.73959">
        <ele>611.06</ele>
        <time>2021-05-31T12:02:53Z</time>
      </trkpt>
      <trkpt lat="44.56938" lon="2.73967">
        <ele>610.09</ele>
        <time>2021-05-31T12:03:01Z</time>
      </trkpt>
      <trkpt lat="44.56945" lon="2.73976">
        <ele>611.06</ele>
        <time>2021-05-31T12:03:09Z</time>
      </trkpt>
      <trkpt lat="44.56948" lon="2.73985">
        <ele>612.5</ele>
        <time>2021-05-31T12:03:15Z</time>
      </trkpt>
      <trkpt lat="44.56956" lon="2.73989">
        <ele>612.5</ele>
        <time>2021-05-31T12:03:24Z</time>
      </trkpt>
      <trkpt lat="44.56965" lon="2.73992">
        <ele>611.54</ele>
        <time>2021-05-31T12:03:33Z</time>
      </trkpt>
      <trkpt lat="44.56975" lon="2.73994">
        <ele>610.57</ele>
        <time>2021-05-31T12:03:42Z</time>
      </trkpt>
      <trkpt lat="44.56983" lon="2.73999">
        <ele>610.09</ele>
        <time>2021-05-31T12:03:49Z</time>
      </trkpt>
      <trkpt lat="44.56991" lon="2.74007">
        <ele>610.57</ele>
        <time>2021-05-31T12:03:58Z</time>
      </trkpt>
      <trkpt lat="44.56998" lon="2.74015">
        <ele>611.54</ele>
        <time>2021-05-31T12:04:06Z</time>
      </trkpt>
      <trkpt lat="44.57003" lon="2.74023">
        <ele>612.02</ele>
        <time>2021-05-31T12:04:14Z</time>
      </trkpt>
      <trkpt lat="44.57009" lon="2.74033">
        <ele>612.5</ele>
        <time>2021-05-31T12:04:19Z</time>
      </trkpt>
      <trkpt lat="44.5701" lon="2.74035">
        <ele>612.5</ele>
        <time>2021-05-31T12:04:20Z</time>
      </trkpt>
      <trkpt lat="44.57015" lon="2.74044">
        <ele>612.02</ele>
        <time>2021-05-31T12:04:26Z</time>
      </trkpt>
      <trkpt lat="44.57017" lon="2.74059">
        <ele>610.09</ele>
        <time>2021-05-31T12:04:35Z</time>
      </trkpt>
      <trkpt lat="44.57017" lon="2.74067">
        <ele>609.13</ele>
        <time>2021-05-31T12:04:39Z</time>
      </trkpt>
      <trkpt lat="44.57018" lon="2.74079">
        <ele>607.21</ele>
        <time>2021-05-31T12:04:47Z</time>
      </trkpt>
      <trkpt lat="44.5702" lon="2.74087">
        <ele>606.73</ele>
        <time>2021-05-31T12:04:53Z</time>
      </trkpt>
      <trkpt lat="44.5702" lon="2.74089">
        <ele>606.73</ele>
        <time>2021-05-31T12:04:54Z</time>
      </trkpt>
      <trkpt lat="44.57024" lon="2.74099">
        <ele>605.77</ele>
        <time>2021-05-31T12:05:01Z</time>
      </trkpt>
      <trkpt lat="44.5703" lon="2.7411">
        <ele>603.36</ele>
        <time>2021-05-31T12:05:09Z</time>
      </trkpt>
      <trkpt lat="44.57038" lon="2.74123">
        <ele>600</ele>
        <time>2021-05-31T12:05:19Z</time>
      </trkpt>
      <trkpt lat="44.57047" lon="2.74132">
        <ele>598.08</ele>
        <time>2021-05-31T12:05:29Z</time>
      </trkpt>
      <trkpt lat="44.57057" lon="2.74136">
        <ele>598.08</ele>
        <time>2021-05-31T12:05:38Z</time>
      </trkpt>
      <trkpt lat="44.57063" lon="2.7414">
        <ele>598.56</ele>
        <time>2021-05-31T12:05:44Z</time>
      </trkpt>
      <trkpt lat="44.57072" lon="2.74141">
        <ele>598.08</ele>
        <time>2021-05-31T12:05:52Z</time>
      </trkpt>
      <trkpt lat="44.57082" lon="2.7414">
        <ele>598.08</ele>
        <time>2021-05-31T12:06:02Z</time>
      </trkpt>
      <trkpt lat="44.57094" lon="2.74141">
        <ele>598.08</ele>
        <time>2021-05-31T12:06:12Z</time>
      </trkpt>
      <trkpt lat="44.57105" lon="2.74142">
        <ele>598.08</ele>
        <time>2021-05-31T12:06:21Z</time>
      </trkpt>
      <trkpt lat="44.57114" lon="2.74141">
        <ele>597.6</ele>
        <time>2021-05-31T12:06:29Z</time>
      </trkpt>
      <trkpt lat="44.57124" lon="2.74139">
        <ele>597.12</ele>
        <time>2021-05-31T12:06:38Z</time>
      </trkpt>
      <trkpt lat="44.57135" lon="2.74133">
        <ele>596.15</ele>
        <time>2021-05-31T12:06:47Z</time>
      </trkpt>
      <trkpt lat="44.57144" lon="2.74126">
        <ele>595.19</ele>
        <time>2021-05-31T12:06:56Z</time>
      </trkpt>
      <trkpt lat="44.57151" lon="2.7412">
        <ele>594.71</ele>
        <time>2021-05-31T12:07:03Z</time>
      </trkpt>
      <trkpt lat="44.57159" lon="2.74112">
        <ele>594.71</ele>
        <time>2021-05-31T12:07:10Z</time>
      </trkpt>
      <trkpt lat="44.57162" lon="2.74109">
        <ele>594.71</ele>
        <time>2021-05-31T12:07:14Z</time>
      </trkpt>
      <trkpt lat="44.57172" lon="2.74102">
        <ele>594.71</ele>
        <time>2021-05-31T12:07:23Z</time>
      </trkpt>
      <trkpt lat="44.5718" lon="2.74094">
        <ele>595.67</ele>
        <time>2021-05-31T12:07:31Z</time>
      </trkpt>
      <trkpt lat="44.57189" lon="2.74086">
        <ele>595.67</ele>
        <time>2021-05-31T12:07:39Z</time>
      </trkpt>
      <trkpt lat="44.57197" lon="2.74077">
        <ele>595.67</ele>
        <time>2021-05-31T12:07:48Z</time>
      </trkpt>
      <trkpt lat="44.57203" lon="2.74064">
        <ele>593.75</ele>
        <time>2021-05-31T12:07:57Z</time>
      </trkpt>
      <trkpt lat="44.57207" lon="2.74053">
        <ele>593.27</ele>
        <time>2021-05-31T12:08:04Z</time>
      </trkpt>
      <trkpt lat="44.57211" lon="2.74043">
        <ele>593.27</ele>
        <time>2021-05-31T12:08:11Z</time>
      </trkpt>
      <trkpt lat="44.57218" lon="2.74029">
        <ele>594.23</ele>
        <time>2021-05-31T12:08:20Z</time>
      </trkpt>
      <trkpt lat="44.57221" lon="2.74024">
        <ele>593.27</ele>
        <time>2021-05-31T12:08:26Z</time>
      </trkpt>
      <trkpt lat="44.57229" lon="2.74023">
        <ele>591.83</ele>
        <time>2021-05-31T12:08:35Z</time>
      </trkpt>
      <trkpt lat="44.57241" lon="2.74028">
        <ele>589.43</ele>
        <time>2021-05-31T12:08:44Z</time>
      </trkpt>
      <trkpt lat="44.57252" lon="2.74033">
        <ele>587.5</ele>
        <time>2021-05-31T12:08:52Z</time>
      </trkpt>
      <trkpt lat="44.57259" lon="2.74039">
        <ele>586.06</ele>
        <time>2021-05-31T12:09:00Z</time>
      </trkpt>
      <trkpt lat="44.5726" lon="2.74039">
        <ele>585.58</ele>
        <time>2021-05-31T12:09:01Z</time>
      </trkpt>
      <trkpt lat="44.57263" lon="2.74043">
        <ele>585.1</ele>
        <time>2021-05-31T12:09:03Z</time>
      </trkpt>
      <trkpt lat="44.57274" lon="2.7405">
        <ele>585.58</ele>
        <time>2021-05-31T12:09:13Z</time>
      </trkpt>
      <trkpt lat="44.57282" lon="2.74057">
        <ele>585.58</ele>
        <time>2021-05-31T12:09:20Z</time>
      </trkpt>
      <trkpt lat="44.5729" lon="2.74065">
        <ele>586.54</ele>
        <time>2021-05-31T12:09:28Z</time>
      </trkpt>
      <trkpt lat="44.57298" lon="2.74071">
        <ele>586.06</ele>
        <time>2021-05-31T12:09:37Z</time>
      </trkpt>
      <trkpt lat="44.57304" lon="2.74081">
        <ele>586.06</ele>
        <time>2021-05-31T12:09:46Z</time>
      </trkpt>
      <trkpt lat="44.57314" lon="2.74088">
        <ele>585.58</ele>
        <time>2021-05-31T12:09:54Z</time>
      </trkpt>
      <trkpt lat="44.57322" lon="2.74096">
        <ele>585.58</ele>
        <time>2021-05-31T12:10:03Z</time>
      </trkpt>
      <trkpt lat="44.5733" lon="2.74105">
        <ele>585.1</ele>
        <time>2021-05-31T12:10:10Z</time>
      </trkpt>
      <trkpt lat="44.57337" lon="2.74115">
        <ele>585.58</ele>
        <time>2021-05-31T12:10:18Z</time>
      </trkpt>
      <trkpt lat="44.57346" lon="2.74124">
        <ele>587.98</ele>
        <time>2021-05-31T12:10:26Z</time>
      </trkpt>
      <trkpt lat="44.57352" lon="2.74127">
        <ele>589.91</ele>
        <time>2021-05-31T12:10:33Z</time>
      </trkpt>
      <trkpt lat="44.57359" lon="2.74124">
        <ele>589.43</ele>
        <time>2021-05-31T12:10:41Z</time>
      </trkpt>
      <trkpt lat="44.57366" lon="2.7412">
        <ele>587.98</ele>
        <time>2021-05-31T12:10:48Z</time>
      </trkpt>
      <trkpt lat="44.57372" lon="2.74113">
        <ele>586.06</ele>
        <time>2021-05-31T12:10:56Z</time>
      </trkpt>
      <trkpt lat="44.57379" lon="2.74103">
        <ele>583.66</ele>
        <time>2021-05-31T12:11:04Z</time>
      </trkpt>
      <trkpt lat="44.57389" lon="2.74095">
        <ele>579.33</ele>
        <time>2021-05-31T12:11:16Z</time>
      </trkpt>
      <trkpt lat="44.57403" lon="2.74083">
        <ele>575.97</ele>
        <time>2021-05-31T12:11:27Z</time>
      </trkpt>
      <trkpt lat="44.5741" lon="2.74075">
        <ele>575.49</ele>
        <time>2021-05-31T12:11:36Z</time>
      </trkpt>
      <trkpt lat="44.57411" lon="2.74073">
        <ele>575.49</ele>
        <time>2021-05-31T12:11:37Z</time>
      </trkpt>
      <trkpt lat="44.57418" lon="2.74064">
        <ele>575.49</ele>
        <time>2021-05-31T12:11:43Z</time>
      </trkpt>
      <trkpt lat="44.57427" lon="2.74061">
        <ele>575.97</ele>
        <time>2021-05-31T12:11:52Z</time>
      </trkpt>
      <trkpt lat="44.57429" lon="2.74062">
        <ele>575.97</ele>
        <time>2021-05-31T12:11:54Z</time>
      </trkpt>
      <trkpt lat="44.57433" lon="2.74068">
        <ele>575.49</ele>
        <time>2021-05-31T12:12:02Z</time>
      </trkpt>
      <trkpt lat="44.57434" lon="2.74076">
        <ele>575.49</ele>
        <time>2021-05-31T12:12:10Z</time>
      </trkpt>
      <trkpt lat="44.57434" lon="2.74088">
        <ele>575.01</ele>
        <time>2021-05-31T12:12:20Z</time>
      </trkpt>
      <trkpt lat="44.57432" lon="2.741">
        <ele>574.53</ele>
        <time>2021-05-31T12:12:28Z</time>
      </trkpt>
      <trkpt lat="44.57429" lon="2.74113">
        <ele>574.04</ele>
        <time>2021-05-31T12:12:34Z</time>
      </trkpt>
      <trkpt lat="44.57426" lon="2.74124">
        <ele>574.04</ele>
        <time>2021-05-31T12:12:41Z</time>
      </trkpt>
      <trkpt lat="44.57424" lon="2.74141">
        <ele>574.04</ele>
        <time>2021-05-31T12:12:52Z</time>
      </trkpt>
      <trkpt lat="44.57421" lon="2.74155">
        <ele>574.53</ele>
        <time>2021-05-31T12:13:01Z</time>
      </trkpt>
      <trkpt lat="44.57419" lon="2.74169">
        <ele>575.49</ele>
        <time>2021-05-31T12:13:11Z</time>
      </trkpt>
      <trkpt lat="44.57417" lon="2.74181">
        <ele>575.01</ele>
        <time>2021-05-31T12:13:20Z</time>
      </trkpt>
      <trkpt lat="44.57413" lon="2.74194">
        <ele>574.53</ele>
        <time>2021-05-31T12:13:28Z</time>
      </trkpt>
      <trkpt lat="44.57408" lon="2.74206">
        <ele>573.56</ele>
        <time>2021-05-31T12:13:37Z</time>
      </trkpt>
      <trkpt lat="44.57402" lon="2.7422">
        <ele>572.12</ele>
        <time>2021-05-31T12:13:46Z</time>
      </trkpt>
      <trkpt lat="44.57397" lon="2.7423">
        <ele>571.64</ele>
        <time>2021-05-31T12:13:53Z</time>
      </trkpt>
      <trkpt lat="44.57392" lon="2.74242">
        <ele>571.64</ele>
        <time>2021-05-31T12:14:01Z</time>
      </trkpt>
      <trkpt lat="44.57386" lon="2.74255">
        <ele>572.6</ele>
        <time>2021-05-31T12:14:08Z</time>
      </trkpt>
      <trkpt lat="44.5738" lon="2.74266">
        <ele>573.08</ele>
        <time>2021-05-31T12:14:16Z</time>
      </trkpt>
      <trkpt lat="44.57375" lon="2.74272">
        <ele>572.12</ele>
        <time>2021-05-31T12:14:25Z</time>
      </trkpt>
      <trkpt lat="44.57367" lon="2.74281">
        <ele>573.56</ele>
        <time>2021-05-31T12:14:33Z</time>
      </trkpt>
      <trkpt lat="44.57359" lon="2.74286">
        <ele>572.12</ele>
        <time>2021-05-31T12:14:42Z</time>
      </trkpt>
      <trkpt lat="44.5735" lon="2.74288">
        <ele>572.12</ele>
        <time>2021-05-31T12:14:51Z</time>
      </trkpt>
      <trkpt lat="44.57348" lon="2.74287">
        <ele>571.64</ele>
        <time>2021-05-31T12:14:53Z</time>
      </trkpt>
      <trkpt lat="44.57336" lon="2.74287">
        <ele>570.68</ele>
        <time>2021-05-31T12:15:00Z</time>
      </trkpt>
      <trkpt lat="44.57325" lon="2.74289">
        <ele>570.2</ele>
        <time>2021-05-31T12:15:07Z</time>
      </trkpt>
      <trkpt lat="44.57313" lon="2.74288">
        <ele>568.28</ele>
        <time>2021-05-31T12:15:16Z</time>
      </trkpt>
      <trkpt lat="44.57301" lon="2.7429">
        <ele>565.87</ele>
        <time>2021-05-31T12:15:26Z</time>
      </trkpt>
      <trkpt lat="44.57291" lon="2.74292">
        <ele>562.99</ele>
        <time>2021-05-31T12:15:34Z</time>
      </trkpt>
      <trkpt lat="44.57286" lon="2.74297">
        <ele>562.51</ele>
        <time>2021-05-31T12:15:42Z</time>
      </trkpt>
      <trkpt lat="44.57283" lon="2.74307">
        <ele>561.07</ele>
        <time>2021-05-31T12:15:49Z</time>
      </trkpt>
      <trkpt lat="44.57281" lon="2.74324">
        <ele>561.55</ele>
        <time>2021-05-31T12:15:59Z</time>
      </trkpt>
      <trkpt lat="44.57282" lon="2.74327">
        <ele>562.03</ele>
        <time>2021-05-31T12:16:01Z</time>
      </trkpt>
      <trkpt lat="44.57285" lon="2.74338">
        <ele>563.47</ele>
        <time>2021-05-31T12:16:09Z</time>
      </trkpt>
      <trkpt lat="44.5729" lon="2.7435">
        <ele>564.43</ele>
        <time>2021-05-31T12:16:18Z</time>
      </trkpt>
      <trkpt lat="44.57292" lon="2.74358">
        <ele>563.95</ele>
        <time>2021-05-31T12:16:25Z</time>
      </trkpt>
      <trkpt lat="44.57296" lon="2.74372">
        <ele>564.43</ele>
        <time>2021-05-31T12:16:31Z</time>
      </trkpt>
      <trkpt lat="44.57305" lon="2.74387">
        <ele>566.35</ele>
        <time>2021-05-31T12:16:41Z</time>
      </trkpt>
      <trkpt lat="44.57309" lon="2.74388">
        <ele>565.87</ele>
        <time>2021-05-31T12:16:47Z</time>
      </trkpt>
      <trkpt lat="44.57317" lon="2.74388">
        <ele>565.39</ele>
        <time>2021-05-31T12:16:57Z</time>
      </trkpt>
      <trkpt lat="44.57324" lon="2.74387">
        <ele>563.47</ele>
        <time>2021-05-31T12:17:05Z</time>
      </trkpt>
      <trkpt lat="44.5733" lon="2.74384">
        <ele>562.51</ele>
        <time>2021-05-31T12:17:11Z</time>
      </trkpt>
      <trkpt lat="44.57336" lon="2.74382">
        <ele>561.07</ele>
        <time>2021-05-31T12:17:18Z</time>
      </trkpt>
      <trkpt lat="44.57348" lon="2.74379">
        <ele>559.14</ele>
        <time>2021-05-31T12:17:29Z</time>
      </trkpt>
      <trkpt lat="44.5736" lon="2.74377">
        <ele>558.66</ele>
        <time>2021-05-31T12:17:39Z</time>
      </trkpt>
      <trkpt lat="44.57367" lon="2.74377">
        <ele>558.18</ele>
        <time>2021-05-31T12:17:47Z</time>
      </trkpt>
      <trkpt lat="44.57375" lon="2.74377">
        <ele>557.7</ele>
        <time>2021-05-31T12:17:54Z</time>
      </trkpt>
      <trkpt lat="44.57387" lon="2.74376">
        <ele>557.22</ele>
        <time>2021-05-31T12:18:01Z</time>
      </trkpt>
      <trkpt lat="44.57396" lon="2.7438">
        <ele>556.74</ele>
        <time>2021-05-31T12:18:08Z</time>
      </trkpt>
      <trkpt lat="44.57411" lon="2.74382">
        <ele>555.3</ele>
        <time>2021-05-31T12:18:18Z</time>
      </trkpt>
      <trkpt lat="44.57419" lon="2.74386">
        <ele>555.3</ele>
        <time>2021-05-31T12:18:26Z</time>
      </trkpt>
      <trkpt lat="44.57427" lon="2.74386">
        <ele>555.3</ele>
        <time>2021-05-31T12:18:33Z</time>
      </trkpt>
      <trkpt lat="44.57438" lon="2.74389">
        <ele>555.3</ele>
        <time>2021-05-31T12:18:42Z</time>
      </trkpt>
      <trkpt lat="44.57446" lon="2.74393">
        <ele>555.78</ele>
        <time>2021-05-31T12:18:49Z</time>
      </trkpt>
      <trkpt lat="44.57455" lon="2.74397">
        <ele>555.78</ele>
        <time>2021-05-31T12:18:56Z</time>
      </trkpt>
      <trkpt lat="44.57465" lon="2.74404">
        <ele>556.26</ele>
        <time>2021-05-31T12:19:05Z</time>
      </trkpt>
      <trkpt lat="44.57475" lon="2.7441">
        <ele>556.26</ele>
        <time>2021-05-31T12:19:12Z</time>
      </trkpt>
      <trkpt lat="44.5748" lon="2.74414">
        <ele>556.74</ele>
        <time>2021-05-31T12:19:18Z</time>
      </trkpt>
      <trkpt lat="44.57492" lon="2.74424">
        <ele>556.74</ele>
        <time>2021-05-31T12:19:28Z</time>
      </trkpt>
      <trkpt lat="44.575" lon="2.74428">
        <ele>556.74</ele>
        <time>2021-05-31T12:19:35Z</time>
      </trkpt>
      <trkpt lat="44.57507" lon="2.74432">
        <ele>556.74</ele>
        <time>2021-05-31T12:19:42Z</time>
      </trkpt>
      <trkpt lat="44.57515" lon="2.74439">
        <ele>556.74</ele>
        <time>2021-05-31T12:19:50Z</time>
      </trkpt>
      <trkpt lat="44.5752" lon="2.7445">
        <ele>556.74</ele>
        <time>2021-05-31T12:19:59Z</time>
      </trkpt>
      <trkpt lat="44.57529" lon="2.74462">
        <ele>556.74</ele>
        <time>2021-05-31T12:20:07Z</time>
      </trkpt>
      <trkpt lat="44.57535" lon="2.74471">
        <ele>556.74</ele>
        <time>2021-05-31T12:20:16Z</time>
      </trkpt>
      <trkpt lat="44.57541" lon="2.7448">
        <ele>556.26</ele>
        <time>2021-05-31T12:20:25Z</time>
      </trkpt>
      <trkpt lat="44.57545" lon="2.74491">
        <ele>555.78</ele>
        <time>2021-05-31T12:20:32Z</time>
      </trkpt>
      <trkpt lat="44.57545" lon="2.74504">
        <ele>555.3</ele>
        <time>2021-05-31T12:20:40Z</time>
      </trkpt>
      <trkpt lat="44.57542" lon="2.74519">
        <ele>554.34</ele>
        <time>2021-05-31T12:20:49Z</time>
      </trkpt>
      <trkpt lat="44.57544" lon="2.74534">
        <ele>552.9</ele>
        <time>2021-05-31T12:20:59Z</time>
      </trkpt>
      <trkpt lat="44.57544" lon="2.74538">
        <ele>552.41</ele>
        <time>2021-05-31T12:21:01Z</time>
      </trkpt>
      <trkpt lat="44.57543" lon="2.7455">
        <ele>550.49</ele>
        <time>2021-05-31T12:21:07Z</time>
      </trkpt>
      <trkpt lat="44.57543" lon="2.74561">
        <ele>548.57</ele>
        <time>2021-05-31T12:21:16Z</time>
      </trkpt>
      <trkpt lat="44.57541" lon="2.74569">
        <ele>547.61</ele>
        <time>2021-05-31T12:21:23Z</time>
      </trkpt>
      <trkpt lat="44.57534" lon="2.74571">
        <ele>547.13</ele>
        <time>2021-05-31T12:21:32Z</time>
      </trkpt>
      <trkpt lat="44.57523" lon="2.74569">
        <ele>550.01</ele>
        <time>2021-05-31T12:21:44Z</time>
      </trkpt>
      <trkpt lat="44.57514" lon="2.74567">
        <ele>550.49</ele>
        <time>2021-05-31T12:21:55Z</time>
      </trkpt>
      <trkpt lat="44.57505" lon="2.74565">
        <ele>548.57</ele>
        <time>2021-05-31T12:22:06Z</time>
      </trkpt>
      <trkpt lat="44.57495" lon="2.74562">
        <ele>547.13</ele>
        <time>2021-05-31T12:22:18Z</time>
      </trkpt>
      <trkpt lat="44.57487" lon="2.7456">
        <ele>547.13</ele>
        <time>2021-05-31T12:22:26Z</time>
      </trkpt>
      <trkpt lat="44.57477" lon="2.74556">
        <ele>546.65</ele>
        <time>2021-05-31T12:22:37Z</time>
      </trkpt>
      <trkpt lat="44.57467" lon="2.74556">
        <ele>547.61</ele>
        <time>2021-05-31T12:22:47Z</time>
      </trkpt>
      <trkpt lat="44.57455" lon="2.74555">
        <ele>549.05</ele>
        <time>2021-05-31T12:22:58Z</time>
      </trkpt>
      <trkpt lat="44.57443" lon="2.74555">
        <ele>549.53</ele>
        <time>2021-05-31T12:23:07Z</time>
      </trkpt>
      <trkpt lat="44.57441" lon="2.74554">
        <ele>550.01</ele>
        <time>2021-05-31T12:23:09Z</time>
      </trkpt>
      <trkpt lat="44.57433" lon="2.74551">
        <ele>552.41</ele>
        <time>2021-05-31T12:23:16Z</time>
      </trkpt>
      <trkpt lat="44.57424" lon="2.74551">
        <ele>553.38</ele>
        <time>2021-05-31T12:23:25Z</time>
      </trkpt>
      <trkpt lat="44.57414" lon="2.7455">
        <ele>555.78</ele>
        <time>2021-05-31T12:23:35Z</time>
      </trkpt>
      <trkpt lat="44.57402" lon="2.7455">
        <ele>556.26</ele>
        <time>2021-05-31T12:23:47Z</time>
      </trkpt>
      <trkpt lat="44.57389" lon="2.74549">
        <ele>553.38</ele>
        <time>2021-05-31T12:23:57Z</time>
      </trkpt>
      <trkpt lat="44.57379" lon="2.74552">
        <ele>551.45</ele>
        <time>2021-05-31T12:24:06Z</time>
      </trkpt>
      <trkpt lat="44.57371" lon="2.74555">
        <ele>551.45</ele>
        <time>2021-05-31T12:24:17Z</time>
      </trkpt>
      <trkpt lat="44.57363" lon="2.74562">
        <ele>551.93</ele>
        <time>2021-05-31T12:24:24Z</time>
      </trkpt>
      <trkpt lat="44.57353" lon="2.7457">
        <ele>551.93</ele>
        <time>2021-05-31T12:24:33Z</time>
      </trkpt>
      <trkpt lat="44.57342" lon="2.74576">
        <ele>552.9</ele>
        <time>2021-05-31T12:24:43Z</time>
      </trkpt>
      <trkpt lat="44.57331" lon="2.74583">
        <ele>553.38</ele>
        <time>2021-05-31T12:24:53Z</time>
      </trkpt>
      <trkpt lat="44.57323" lon="2.74591">
        <ele>552.9</ele>
        <time>2021-05-31T12:25:01Z</time>
      </trkpt>
      <trkpt lat="44.57316" lon="2.74602">
        <ele>551.45</ele>
        <time>2021-05-31T12:25:11Z</time>
      </trkpt>
      <trkpt lat="44.5731" lon="2.7461">
        <ele>551.45</ele>
        <time>2021-05-31T12:25:22Z</time>
      </trkpt>
      <trkpt lat="44.57302" lon="2.74614">
        <ele>551.45</ele>
        <time>2021-05-31T12:25:29Z</time>
      </trkpt>
      <trkpt lat="44.57289" lon="2.74622">
        <ele>551.45</ele>
        <time>2021-05-31T12:25:39Z</time>
      </trkpt>
      <trkpt lat="44.57282" lon="2.74616">
        <ele>551.45</ele>
        <time>2021-05-31T12:25:47Z</time>
      </trkpt>
      <trkpt lat="44.57272" lon="2.7461">
        <ele>551.45</ele>
        <time>2021-05-31T12:25:55Z</time>
      </trkpt>
      <trkpt lat="44.57264" lon="2.74604">
        <ele>551.45</ele>
        <time>2021-05-31T12:26:04Z</time>
      </trkpt>
      <trkpt lat="44.57256" lon="2.74596">
        <ele>551.45</ele>
        <time>2021-05-31T12:26:11Z</time>
      </trkpt>
      <trkpt lat="44.57251" lon="2.74595">
        <ele>551.45</ele>
        <time>2021-05-31T12:26:15Z</time>
      </trkpt>
      <trkpt lat="44.5724" lon="2.74585">
        <ele>551.45</ele>
        <time>2021-05-31T12:26:25Z</time>
      </trkpt>
      <trkpt lat="44.57232" lon="2.74578">
        <ele>550.97</ele>
        <time>2021-05-31T12:26:33Z</time>
      </trkpt>
      <trkpt lat="44.57226" lon="2.7457">
        <ele>550.97</ele>
        <time>2021-05-31T12:26:41Z</time>
      </trkpt>
      <trkpt lat="44.5722" lon="2.74563">
        <ele>550.97</ele>
        <time>2021-05-31T12:26:49Z</time>
      </trkpt>
      <trkpt lat="44.57214" lon="2.74553">
        <ele>550.97</ele>
        <time>2021-05-31T12:26:56Z</time>
      </trkpt>
      <trkpt lat="44.57208" lon="2.74543">
        <ele>550.97</ele>
        <time>2021-05-31T12:27:03Z</time>
      </trkpt>
      <trkpt lat="44.57207" lon="2.74536">
        <ele>550.97</ele>
        <time>2021-05-31T12:27:15Z</time>
      </trkpt>
      <trkpt lat="44.57208" lon="2.74534">
        <ele>552.41</ele>
        <time>2021-05-31T12:27:29Z</time>
      </trkpt>
      <trkpt lat="44.57209" lon="2.74537">
        <ele>549.05</ele>
        <time>2021-05-31T12:27:36Z</time>
      </trkpt>
      <trkpt lat="44.57205" lon="2.74536">
        <ele>550.01</ele>
        <time>2021-05-31T12:27:41Z</time>
      </trkpt>
      <trkpt lat="44.57205" lon="2.74534">
        <ele>550.01</ele>
        <time>2021-05-31T12:27:48Z</time>
      </trkpt>
      <trkpt lat="44.57201" lon="2.74528">
        <ele>550.49</ele>
        <time>2021-05-31T12:27:54Z</time>
      </trkpt>
      <trkpt lat="44.57198" lon="2.74519">
        <ele>550.97</ele>
        <time>2021-05-31T12:28:00Z</time>
      </trkpt>
      <trkpt lat="44.57192" lon="2.7451">
        <ele>551.45</ele>
        <time>2021-05-31T12:28:07Z</time>
      </trkpt>
      <trkpt lat="44.57184" lon="2.74502">
        <ele>552.41</ele>
        <time>2021-05-31T12:28:15Z</time>
      </trkpt>
      <trkpt lat="44.57178" lon="2.74494">
        <ele>554.82</ele>
        <time>2021-05-31T12:28:22Z</time>
      </trkpt>
      <trkpt lat="44.57172" lon="2.74485">
        <ele>556.74</ele>
        <time>2021-05-31T12:28:31Z</time>
      </trkpt>
      <trkpt lat="44.57171" lon="2.74484">
        <ele>556.74</ele>
        <time>2021-05-31T12:28:32Z</time>
      </trkpt>
      <trkpt lat="44.57161" lon="2.74476">
        <ele>556.26</ele>
        <time>2021-05-31T12:28:41Z</time>
      </trkpt>
      <trkpt lat="44.57157" lon="2.74472">
        <ele>556.74</ele>
        <time>2021-05-31T12:28:44Z</time>
      </trkpt>
      <trkpt lat="44.5715" lon="2.74466">
        <ele>556.74</ele>
        <time>2021-05-31T12:28:52Z</time>
      </trkpt>
      <trkpt lat="44.57144" lon="2.74458">
        <ele>557.22</ele>
        <time>2021-05-31T12:28:59Z</time>
      </trkpt>
      <trkpt lat="44.57134" lon="2.74448">
        <ele>558.66</ele>
        <time>2021-05-31T12:29:08Z</time>
      </trkpt>
      <trkpt lat="44.57125" lon="2.7444">
        <ele>559.62</ele>
        <time>2021-05-31T12:29:17Z</time>
      </trkpt>
      <trkpt lat="44.57115" lon="2.74438">
        <ele>559.14</ele>
        <time>2021-05-31T12:29:25Z</time>
      </trkpt>
      <trkpt lat="44.57105" lon="2.74434">
        <ele>559.14</ele>
        <time>2021-05-31T12:29:33Z</time>
      </trkpt>
      <trkpt lat="44.571" lon="2.74436">
        <ele>558.66</ele>
        <time>2021-05-31T12:29:40Z</time>
      </trkpt>
      <trkpt lat="44.57094" lon="2.74436">
        <ele>557.7</ele>
        <time>2021-05-31T12:29:47Z</time>
      </trkpt>
      <trkpt lat="44.57087" lon="2.74436">
        <ele>556.74</ele>
        <time>2021-05-31T12:29:54Z</time>
      </trkpt>
      <trkpt lat="44.57077" lon="2.74438">
        <ele>556.74</ele>
        <time>2021-05-31T12:30:02Z</time>
      </trkpt>
      <trkpt lat="44.5707" lon="2.74437">
        <ele>557.7</ele>
        <time>2021-05-31T12:30:11Z</time>
      </trkpt>
      <trkpt lat="44.57062" lon="2.74438">
        <ele>558.18</ele>
        <time>2021-05-31T12:30:19Z</time>
      </trkpt>
      <trkpt lat="44.57055" lon="2.7444">
        <ele>558.66</ele>
        <time>2021-05-31T12:30:28Z</time>
      </trkpt>
      <trkpt lat="44.57043" lon="2.74444">
        <ele>560.59</ele>
        <time>2021-05-31T12:30:39Z</time>
      </trkpt>
      <trkpt lat="44.57034" lon="2.74447">
        <ele>562.99</ele>
        <time>2021-05-31T12:30:49Z</time>
      </trkpt>
      <trkpt lat="44.57024" lon="2.74451">
        <ele>563.47</ele>
        <time>2021-05-31T12:30:57Z</time>
      </trkpt>
      <trkpt lat="44.57016" lon="2.74452">
        <ele>562.99</ele>
        <time>2021-05-31T12:31:04Z</time>
      </trkpt>
      <trkpt lat="44.57006" lon="2.74452">
        <ele>562.99</ele>
        <time>2021-05-31T12:31:13Z</time>
      </trkpt>
      <trkpt lat="44.56997" lon="2.74451">
        <ele>562.51</ele>
        <time>2021-05-31T12:31:21Z</time>
      </trkpt>
      <trkpt lat="44.56988" lon="2.74449">
        <ele>562.51</ele>
        <time>2021-05-31T12:31:29Z</time>
      </trkpt>
      <trkpt lat="44.56977" lon="2.74447">
        <ele>562.99</ele>
        <time>2021-05-31T12:31:38Z</time>
      </trkpt>
      <trkpt lat="44.56976" lon="2.74447">
        <ele>562.99</ele>
        <time>2021-05-31T12:31:39Z</time>
      </trkpt>
      <trkpt lat="44.56966" lon="2.74439">
        <ele>562.99</ele>
        <time>2021-05-31T12:31:47Z</time>
      </trkpt>
      <trkpt lat="44.56958" lon="2.74435">
        <ele>563.95</ele>
        <time>2021-05-31T12:31:55Z</time>
      </trkpt>
      <trkpt lat="44.56951" lon="2.74431">
        <ele>563.47</ele>
        <time>2021-05-31T12:32:02Z</time>
      </trkpt>
      <trkpt lat="44.56943" lon="2.74424">
        <ele>562.51</ele>
        <time>2021-05-31T12:32:10Z</time>
      </trkpt>
      <trkpt lat="44.56933" lon="2.74417">
        <ele>561.55</ele>
        <time>2021-05-31T12:32:19Z</time>
      </trkpt>
      <trkpt lat="44.56922" lon="2.74415">
        <ele>560.59</ele>
        <time>2021-05-31T12:32:29Z</time>
      </trkpt>
      <trkpt lat="44.56917" lon="2.74415">
        <ele>559.62</ele>
        <time>2021-05-31T12:32:36Z</time>
      </trkpt>
      <trkpt lat="44.56906" lon="2.74416">
        <ele>559.14</ele>
        <time>2021-05-31T12:32:44Z</time>
      </trkpt>
      <trkpt lat="44.56896" lon="2.74419">
        <ele>557.7</ele>
        <time>2021-05-31T12:32:53Z</time>
      </trkpt>
      <trkpt lat="44.56885" lon="2.74418">
        <ele>556.74</ele>
        <time>2021-05-31T12:33:03Z</time>
      </trkpt>
      <trkpt lat="44.56875" lon="2.74417">
        <ele>555.78</ele>
        <time>2021-05-31T12:33:11Z</time>
      </trkpt>
      <trkpt lat="44.56865" lon="2.74414">
        <ele>555.78</ele>
        <time>2021-05-31T12:33:20Z</time>
      </trkpt>
      <trkpt lat="44.56862" lon="2.74413">
        <ele>555.3</ele>
        <time>2021-05-31T12:33:22Z</time>
      </trkpt>
      <trkpt lat="44.56851" lon="2.7441">
        <ele>555.3</ele>
        <time>2021-05-31T12:33:31Z</time>
      </trkpt>
      <trkpt lat="44.5684" lon="2.74405">
        <ele>554.34</ele>
        <time>2021-05-31T12:33:40Z</time>
      </trkpt>
      <trkpt lat="44.56832" lon="2.744">
        <ele>553.38</ele>
        <time>2021-05-31T12:33:49Z</time>
      </trkpt>
      <trkpt lat="44.56823" lon="2.74396">
        <ele>553.38</ele>
        <time>2021-05-31T12:33:55Z</time>
      </trkpt>
      <trkpt lat="44.56814" lon="2.74392">
        <ele>552.9</ele>
        <time>2021-05-31T12:34:03Z</time>
      </trkpt>
      <trkpt lat="44.56805" lon="2.7439">
        <ele>552.41</ele>
        <time>2021-05-31T12:34:13Z</time>
      </trkpt>
      <trkpt lat="44.56798" lon="2.74386">
        <ele>551.93</ele>
        <time>2021-05-31T12:34:20Z</time>
      </trkpt>
      <trkpt lat="44.56786" lon="2.74381">
        <ele>552.9</ele>
        <time>2021-05-31T12:34:28Z</time>
      </trkpt>
      <trkpt lat="44.56776" lon="2.74372">
        <ele>555.78</ele>
        <time>2021-05-31T12:34:38Z</time>
      </trkpt>
      <trkpt lat="44.56767" lon="2.7437">
        <ele>556.74</ele>
        <time>2021-05-31T12:34:47Z</time>
      </trkpt>
      <trkpt lat="44.56762" lon="2.74371">
        <ele>555.3</ele>
        <time>2021-05-31T12:34:54Z</time>
      </trkpt>
      <trkpt lat="44.56763" lon="2.74373">
        <ele>552.41</ele>
        <time>2021-05-31T12:35:04Z</time>
      </trkpt>
      <trkpt lat="44.56764" lon="2.74368">
        <ele>548.57</ele>
        <time>2021-05-31T12:35:28Z</time>
      </trkpt>
      <trkpt lat="44.56757" lon="2.74371">
        <ele>549.53</ele>
        <time>2021-05-31T12:35:40Z</time>
      </trkpt>
      <trkpt lat="44.56748" lon="2.74377">
        <ele>549.53</ele>
        <time>2021-05-31T12:35:48Z</time>
      </trkpt>
      <trkpt lat="44.5674" lon="2.74381">
        <ele>548.09</ele>
        <time>2021-05-31T12:35:56Z</time>
      </trkpt>
      <trkpt lat="44.56734" lon="2.74384">
        <ele>547.61</ele>
        <time>2021-05-31T12:36:03Z</time>
      </trkpt>
      <trkpt lat="44.56726" lon="2.74388">
        <ele>546.65</ele>
        <time>2021-05-31T12:36:10Z</time>
      </trkpt>
      <trkpt lat="44.56719" lon="2.7439">
        <ele>545.69</ele>
        <time>2021-05-31T12:36:18Z</time>
      </trkpt>
      <trkpt lat="44.56706" lon="2.7439">
        <ele>545.2</ele>
        <time>2021-05-31T12:36:27Z</time>
      </trkpt>
      <trkpt lat="44.56696" lon="2.74388">
        <ele>544.72</ele>
        <time>2021-05-31T12:36:35Z</time>
      </trkpt>
      <trkpt lat="44.5669" lon="2.74383">
        <ele>543.76</ele>
        <time>2021-05-31T12:36:41Z</time>
      </trkpt>
      <trkpt lat="44.56683" lon="2.74374">
        <ele>545.2</ele>
        <time>2021-05-31T12:36:49Z</time>
      </trkpt>
      <trkpt lat="44.56677" lon="2.74368">
        <ele>547.13</ele>
        <time>2021-05-31T12:36:56Z</time>
      </trkpt>
      <trkpt lat="44.56669" lon="2.74363">
        <ele>548.57</ele>
        <time>2021-05-31T12:37:03Z</time>
      </trkpt>
      <trkpt lat="44.56661" lon="2.74359">
        <ele>549.53</ele>
        <time>2021-05-31T12:37:12Z</time>
      </trkpt>
      <trkpt lat="44.5665" lon="2.74353">
        <ele>549.05</ele>
        <time>2021-05-31T12:37:21Z</time>
      </trkpt>
      <trkpt lat="44.56641" lon="2.74344">
        <ele>548.57</ele>
        <time>2021-05-31T12:37:29Z</time>
      </trkpt>
      <trkpt lat="44.56638" lon="2.74335">
        <ele>549.53</ele>
        <time>2021-05-31T12:37:37Z</time>
      </trkpt>
      <trkpt lat="44.56632" lon="2.74322">
        <ele>550.49</ele>
        <time>2021-05-31T12:37:44Z</time>
      </trkpt>
      <trkpt lat="44.5663" lon="2.74311">
        <ele>550.97</ele>
        <time>2021-05-31T12:37:51Z</time>
      </trkpt>
      <trkpt lat="44.56624" lon="2.743">
        <ele>550.01</ele>
        <time>2021-05-31T12:37:59Z</time>
      </trkpt>
      <trkpt lat="44.5662" lon="2.74292">
        <ele>549.05</ele>
        <time>2021-05-31T12:38:06Z</time>
      </trkpt>
      <trkpt lat="44.56613" lon="2.74284">
        <ele>548.57</ele>
        <time>2021-05-31T12:38:14Z</time>
      </trkpt>
      <trkpt lat="44.56612" lon="2.74282">
        <ele>548.57</ele>
        <time>2021-05-31T12:38:15Z</time>
      </trkpt>
      <trkpt lat="44.566" lon="2.74277">
        <ele>549.53</ele>
        <time>2021-05-31T12:38:23Z</time>
      </trkpt>
      <trkpt lat="44.56599" lon="2.74277">
        <ele>549.53</ele>
        <time>2021-05-31T12:38:24Z</time>
      </trkpt>
      <trkpt lat="44.56591" lon="2.7428">
        <ele>549.53</ele>
        <time>2021-05-31T12:38:33Z</time>
      </trkpt>
      <trkpt lat="44.56584" lon="2.74285">
        <ele>549.05</ele>
        <time>2021-05-31T12:38:41Z</time>
      </trkpt>
      <trkpt lat="44.56578" lon="2.7429">
        <ele>549.05</ele>
        <time>2021-05-31T12:38:49Z</time>
      </trkpt>
      <trkpt lat="44.56572" lon="2.74293">
        <ele>549.53</ele>
        <time>2021-05-31T12:38:56Z</time>
      </trkpt>
      <trkpt lat="44.56561" lon="2.74299">
        <ele>549.05</ele>
        <time>2021-05-31T12:39:04Z</time>
      </trkpt>
      <trkpt lat="44.56555" lon="2.74301">
        <ele>548.57</ele>
        <time>2021-05-31T12:39:11Z</time>
      </trkpt>
      <trkpt lat="44.56545" lon="2.74298">
        <ele>547.13</ele>
        <time>2021-05-31T12:39:19Z</time>
      </trkpt>
      <trkpt lat="44.56536" lon="2.74292">
        <ele>546.65</ele>
        <time>2021-05-31T12:39:26Z</time>
      </trkpt>
      <trkpt lat="44.56528" lon="2.74289">
        <ele>546.65</ele>
        <time>2021-05-31T12:39:33Z</time>
      </trkpt>
      <trkpt lat="44.5652" lon="2.74282">
        <ele>545.2</ele>
        <time>2021-05-31T12:39:41Z</time>
      </trkpt>
      <trkpt lat="44.56512" lon="2.74278">
        <ele>543.76</ele>
        <time>2021-05-31T12:39:51Z</time>
      </trkpt>
      <trkpt lat="44.56503" lon="2.74272">
        <ele>543.28</ele>
        <time>2021-05-31T12:39:58Z</time>
      </trkpt>
      <trkpt lat="44.56494" lon="2.74266">
        <ele>543.76</ele>
        <time>2021-05-31T12:40:06Z</time>
      </trkpt>
      <trkpt lat="44.56486" lon="2.74261">
        <ele>543.28</ele>
        <time>2021-05-31T12:40:13Z</time>
      </trkpt>
      <trkpt lat="44.56474" lon="2.74258">
        <ele>542.32</ele>
        <time>2021-05-31T12:40:22Z</time>
      </trkpt>
      <trkpt lat="44.56464" lon="2.74256">
        <ele>541.36</ele>
        <time>2021-05-31T12:40:30Z</time>
      </trkpt>
      <trkpt lat="44.56456" lon="2.74256">
        <ele>541.36</ele>
        <time>2021-05-31T12:40:37Z</time>
      </trkpt>
      <trkpt lat="44.56447" lon="2.74251">
        <ele>539.92</ele>
        <time>2021-05-31T12:40:46Z</time>
      </trkpt>
      <trkpt lat="44.56436" lon="2.74249">
        <ele>538.48</ele>
        <time>2021-05-31T12:40:54Z</time>
      </trkpt>
      <trkpt lat="44.56426" lon="2.74246">
        <ele>537.51</ele>
        <time>2021-05-31T12:41:02Z</time>
      </trkpt>
      <trkpt lat="44.56416" lon="2.74239">
        <ele>536.55</ele>
        <time>2021-05-31T12:41:09Z</time>
      </trkpt>
      <trkpt lat="44.56409" lon="2.74232">
        <ele>536.55</ele>
        <time>2021-05-31T12:41:17Z</time>
      </trkpt>
      <trkpt lat="44.56401" lon="2.74225">
        <ele>536.07</ele>
        <time>2021-05-31T12:41:25Z</time>
      </trkpt>
      <trkpt lat="44.56394" lon="2.74223">
        <ele>536.07</ele>
        <time>2021-05-31T12:41:33Z</time>
      </trkpt>
      <trkpt lat="44.56386" lon="2.74217">
        <ele>535.59</ele>
        <time>2021-05-31T12:41:40Z</time>
      </trkpt>
      <trkpt lat="44.56376" lon="2.74217">
        <ele>534.15</ele>
        <time>2021-05-31T12:41:49Z</time>
      </trkpt>
      <trkpt lat="44.56368" lon="2.74215">
        <ele>532.71</ele>
        <time>2021-05-31T12:41:55Z</time>
      </trkpt>
      <trkpt lat="44.56362" lon="2.74215">
        <ele>531.27</ele>
        <time>2021-05-31T12:42:03Z</time>
      </trkpt>
      <trkpt lat="44.56353" lon="2.74213">
        <ele>529.82</ele>
        <time>2021-05-31T12:42:11Z</time>
      </trkpt>
      <trkpt lat="44.56342" lon="2.74214">
        <ele>527.9</ele>
        <time>2021-05-31T12:42:20Z</time>
      </trkpt>
      <trkpt lat="44.56328" lon="2.7421">
        <ele>525.98</ele>
        <time>2021-05-31T12:42:29Z</time>
      </trkpt>
      <trkpt lat="44.56316" lon="2.74206">
        <ele>524.54</ele>
        <time>2021-05-31T12:42:39Z</time>
      </trkpt>
      <trkpt lat="44.56305" lon="2.74201">
        <ele>525.5</ele>
        <time>2021-05-31T12:42:50Z</time>
      </trkpt>
      <trkpt lat="44.56296" lon="2.74199">
        <ele>525.5</ele>
        <time>2021-05-31T12:42:58Z</time>
      </trkpt>
      <trkpt lat="44.56289" lon="2.74195">
        <ele>525.02</ele>
        <time>2021-05-31T12:43:06Z</time>
      </trkpt>
      <trkpt lat="44.56278" lon="2.74186">
        <ele>523.58</ele>
        <time>2021-05-31T12:43:16Z</time>
      </trkpt>
      <trkpt lat="44.56266" lon="2.74181">
        <ele>524.06</ele>
        <time>2021-05-31T12:43:25Z</time>
      </trkpt>
      <trkpt lat="44.56258" lon="2.74177">
        <ele>523.09</ele>
        <time>2021-05-31T12:43:33Z</time>
      </trkpt>
      <trkpt lat="44.56249" lon="2.74173">
        <ele>522.13</ele>
        <time>2021-05-31T12:43:42Z</time>
      </trkpt>
      <trkpt lat="44.56238" lon="2.7417">
        <ele>521.65</ele>
        <time>2021-05-31T12:43:51Z</time>
      </trkpt>
      <trkpt lat="44.56227" lon="2.74169">
        <ele>521.17</ele>
        <time>2021-05-31T12:43:59Z</time>
      </trkpt>
      <trkpt lat="44.56219" lon="2.74173">
        <ele>520.69</ele>
        <time>2021-05-31T12:44:08Z</time>
      </trkpt>
      <trkpt lat="44.56211" lon="2.74178">
        <ele>519.25</ele>
        <time>2021-05-31T12:44:17Z</time>
      </trkpt>
      <trkpt lat="44.56204" lon="2.74182">
        <ele>517.81</ele>
        <time>2021-05-31T12:44:23Z</time>
      </trkpt>
      <trkpt lat="44.56195" lon="2.74187">
        <ele>515.4</ele>
        <time>2021-05-31T12:44:31Z</time>
      </trkpt>
      <trkpt lat="44.56186" lon="2.74188">
        <ele>513</ele>
        <time>2021-05-31T12:44:40Z</time>
      </trkpt>
      <trkpt lat="44.56175" lon="2.74182">
        <ele>513</ele>
        <time>2021-05-31T12:44:48Z</time>
      </trkpt>
      <trkpt lat="44.56174" lon="2.74181">
        <ele>513.48</ele>
        <time>2021-05-31T12:44:49Z</time>
      </trkpt>
      <trkpt lat="44.56163" lon="2.74171">
        <ele>513.48</ele>
        <time>2021-05-31T12:44:57Z</time>
      </trkpt>
      <trkpt lat="44.56161" lon="2.74171">
        <ele>513.48</ele>
        <time>2021-05-31T12:44:59Z</time>
      </trkpt>
      <trkpt lat="44.56157" lon="2.74172">
        <ele>513.96</ele>
        <time>2021-05-31T12:45:02Z</time>
      </trkpt>
      <trkpt lat="44.56154" lon="2.7417">
        <ele>513.96</ele>
        <time>2021-05-31T12:45:05Z</time>
      </trkpt>
      <trkpt lat="44.56146" lon="2.74167">
        <ele>512.52</ele>
        <time>2021-05-31T12:45:13Z</time>
      </trkpt>
      <trkpt lat="44.56137" lon="2.74165">
        <ele>512.52</ele>
        <time>2021-05-31T12:45:23Z</time>
      </trkpt>
      <trkpt lat="44.56131" lon="2.74168">
        <ele>512.04</ele>
        <time>2021-05-31T12:45:31Z</time>
      </trkpt>
      <trkpt lat="44.56125" lon="2.74168">
        <ele>511.08</ele>
        <time>2021-05-31T12:45:38Z</time>
      </trkpt>
      <trkpt lat="44.56113" lon="2.74166">
        <ele>510.6</ele>
        <time>2021-05-31T12:45:48Z</time>
      </trkpt>
      <trkpt lat="44.5611" lon="2.74165">
        <ele>508.19</ele>
        <time>2021-05-31T12:45:58Z</time>
      </trkpt>
      <trkpt lat="44.56105" lon="2.74164">
        <ele>507.71</ele>
        <time>2021-05-31T12:46:10Z</time>
      </trkpt>
      <trkpt lat="44.56098" lon="2.74164">
        <ele>507.71</ele>
        <time>2021-05-31T12:46:18Z</time>
      </trkpt>
      <trkpt lat="44.56089" lon="2.7416">
        <ele>507.71</ele>
        <time>2021-05-31T12:46:25Z</time>
      </trkpt>
      <trkpt lat="44.56078" lon="2.74162">
        <ele>507.71</ele>
        <time>2021-05-31T12:46:36Z</time>
      </trkpt>
      <trkpt lat="44.56067" lon="2.74161">
        <ele>507.23</ele>
        <time>2021-05-31T12:46:47Z</time>
      </trkpt>
      <trkpt lat="44.56056" lon="2.74158">
        <ele>508.19</ele>
        <time>2021-05-31T12:46:55Z</time>
      </trkpt>
      <trkpt lat="44.56048" lon="2.74158">
        <ele>508.67</ele>
        <time>2021-05-31T12:47:03Z</time>
      </trkpt>
      <trkpt lat="44.56041" lon="2.74157">
        <ele>508.19</ele>
        <time>2021-05-31T12:47:11Z</time>
      </trkpt>
      <trkpt lat="44.56032" lon="2.74158">
        <ele>507.71</ele>
        <time>2021-05-31T12:47:19Z</time>
      </trkpt>
      <trkpt lat="44.56017" lon="2.74157">
        <ele>509.64</ele>
        <time>2021-05-31T12:47:27Z</time>
      </trkpt>
      <trkpt lat="44.56009" lon="2.74158">
        <ele>509.64</ele>
        <time>2021-05-31T12:47:35Z</time>
      </trkpt>
      <trkpt lat="44.55999" lon="2.74156">
        <ele>509.16</ele>
        <time>2021-05-31T12:47:44Z</time>
      </trkpt>
      <trkpt lat="44.55988" lon="2.74152">
        <ele>509.16</ele>
        <time>2021-05-31T12:47:53Z</time>
      </trkpt>
      <trkpt lat="44.55985" lon="2.7415">
        <ele>509.16</ele>
        <time>2021-05-31T12:47:55Z</time>
      </trkpt>
      <trkpt lat="44.55975" lon="2.74142">
        <ele>510.12</ele>
        <time>2021-05-31T12:48:04Z</time>
      </trkpt>
      <trkpt lat="44.55972" lon="2.7414">
        <ele>510.6</ele>
        <time>2021-05-31T12:48:07Z</time>
      </trkpt>
      <trkpt lat="44.55964" lon="2.74133">
        <ele>513</ele>
        <time>2021-05-31T12:48:16Z</time>
      </trkpt>
      <trkpt lat="44.55957" lon="2.74128">
        <ele>513.48</ele>
        <time>2021-05-31T12:48:23Z</time>
      </trkpt>
      <trkpt lat="44.55949" lon="2.74122">
        <ele>514.92</ele>
        <time>2021-05-31T12:48:30Z</time>
      </trkpt>
      <trkpt lat="44.55938" lon="2.74113">
        <ele>515.88</ele>
        <time>2021-05-31T12:48:38Z</time>
      </trkpt>
      <trkpt lat="44.55937" lon="2.74112">
        <ele>515.88</ele>
        <time>2021-05-31T12:48:39Z</time>
      </trkpt>
      <trkpt lat="44.55933" lon="2.74111">
        <ele>515.4</ele>
        <time>2021-05-31T12:48:42Z</time>
      </trkpt>
      <trkpt lat="44.55925" lon="2.74104">
        <ele>515.4</ele>
        <time>2021-05-31T12:48:50Z</time>
      </trkpt>
      <trkpt lat="44.55919" lon="2.74102">
        <ele>515.4</ele>
        <time>2021-05-31T12:48:55Z</time>
      </trkpt>
      <trkpt lat="44.55909" lon="2.741">
        <ele>514.44</ele>
        <time>2021-05-31T12:49:05Z</time>
      </trkpt>
      <trkpt lat="44.559" lon="2.74099">
        <ele>513.96</ele>
        <time>2021-05-31T12:49:13Z</time>
      </trkpt>
      <trkpt lat="44.55897" lon="2.74099">
        <ele>513.96</ele>
        <time>2021-05-31T12:49:16Z</time>
      </trkpt>
      <trkpt lat="44.55888" lon="2.74104">
        <ele>512.52</ele>
        <time>2021-05-31T12:49:24Z</time>
      </trkpt>
      <trkpt lat="44.55879" lon="2.74106">
        <ele>511.08</ele>
        <time>2021-05-31T12:49:31Z</time>
      </trkpt>
      <trkpt lat="44.55871" lon="2.74108">
        <ele>509.16</ele>
        <time>2021-05-31T12:49:39Z</time>
      </trkpt>
      <trkpt lat="44.55863" lon="2.74111">
        <ele>507.71</ele>
        <time>2021-05-31T12:49:48Z</time>
      </trkpt>
      <trkpt lat="44.55856" lon="2.74117">
        <ele>507.23</ele>
        <time>2021-05-31T12:49:55Z</time>
      </trkpt>
      <trkpt lat="44.55855" lon="2.74126">
        <ele>505.79</ele>
        <time>2021-05-31T12:50:02Z</time>
      </trkpt>
      <trkpt lat="44.55855" lon="2.74137">
        <ele>506.27</ele>
        <time>2021-05-31T12:50:10Z</time>
      </trkpt>
      <trkpt lat="44.55857" lon="2.74147">
        <ele>505.79</ele>
        <time>2021-05-31T12:50:19Z</time>
      </trkpt>
      <trkpt lat="44.55859" lon="2.74154">
        <ele>506.75</ele>
        <time>2021-05-31T12:50:27Z</time>
      </trkpt>
      <trkpt lat="44.55859" lon="2.74166">
        <ele>507.71</ele>
        <time>2021-05-31T12:50:36Z</time>
      </trkpt>
      <trkpt lat="44.55861" lon="2.74167">
        <ele>506.27</ele>
        <time>2021-05-31T12:50:47Z</time>
      </trkpt>
      <trkpt lat="44.55861" lon="2.74172">
        <ele>506.75</ele>
        <time>2021-05-31T12:50:50Z</time>
      </trkpt>
      <trkpt lat="44.55862" lon="2.74177">
        <ele>507.71</ele>
        <time>2021-05-31T12:50:53Z</time>
      </trkpt>
      <trkpt lat="44.55864" lon="2.7419">
        <ele>509.16</ele>
        <time>2021-05-31T12:51:01Z</time>
      </trkpt>
      <trkpt lat="44.55866" lon="2.74202">
        <ele>509.16</ele>
        <time>2021-05-31T12:51:08Z</time>
      </trkpt>
      <trkpt lat="44.55869" lon="2.74214">
        <ele>511.08</ele>
        <time>2021-05-31T12:51:16Z</time>
      </trkpt>
      <trkpt lat="44.55869" lon="2.74223">
        <ele>512.04</ele>
        <time>2021-05-31T12:51:21Z</time>
      </trkpt>
      <trkpt lat="44.55871" lon="2.74239">
        <ele>513.96</ele>
        <time>2021-05-31T12:51:30Z</time>
      </trkpt>
      <trkpt lat="44.55873" lon="2.74244">
        <ele>513.96</ele>
        <time>2021-05-31T12:51:33Z</time>
      </trkpt>
      <trkpt lat="44.55875" lon="2.74258">
        <ele>514.92</ele>
        <time>2021-05-31T12:51:41Z</time>
      </trkpt>
      <trkpt lat="44.55876" lon="2.74262">
        <ele>514.92</ele>
        <time>2021-05-31T12:51:43Z</time>
      </trkpt>
      <trkpt lat="44.55879" lon="2.74276">
        <ele>514.92</ele>
        <time>2021-05-31T12:51:52Z</time>
      </trkpt>
      <trkpt lat="44.55881" lon="2.74282">
        <ele>513</ele>
        <time>2021-05-31T12:51:58Z</time>
      </trkpt>
      <trkpt lat="44.55882" lon="2.74286">
        <ele>512.04</ele>
        <time>2021-05-31T12:52:01Z</time>
      </trkpt>
      <trkpt lat="44.55886" lon="2.74296">
        <ele>512.04</ele>
        <time>2021-05-31T12:52:08Z</time>
      </trkpt>
      <trkpt lat="44.55891" lon="2.74303">
        <ele>512.04</ele>
        <time>2021-05-31T12:52:15Z</time>
      </trkpt>
      <trkpt lat="44.55894" lon="2.74308">
        <ele>512.04</ele>
        <time>2021-05-31T12:52:19Z</time>
      </trkpt>
      <trkpt lat="44.55901" lon="2.74321">
        <ele>512.04</ele>
        <time>2021-05-31T12:52:28Z</time>
      </trkpt>
      <trkpt lat="44.55907" lon="2.74333">
        <ele>512.52</ele>
        <time>2021-05-31T12:52:36Z</time>
      </trkpt>
      <trkpt lat="44.55908" lon="2.74336">
        <ele>512.52</ele>
        <time>2021-05-31T12:52:38Z</time>
      </trkpt>
      <trkpt lat="44.55913" lon="2.74349">
        <ele>513</ele>
        <time>2021-05-31T12:52:46Z</time>
      </trkpt>
      <trkpt lat="44.55919" lon="2.74359">
        <ele>513.48</ele>
        <time>2021-05-31T12:52:54Z</time>
      </trkpt>
      <trkpt lat="44.55923" lon="2.74365">
        <ele>514.44</ele>
        <time>2021-05-31T12:52:59Z</time>
      </trkpt>
      <trkpt lat="44.55929" lon="2.74379">
        <ele>516.85</ele>
        <time>2021-05-31T12:53:08Z</time>
      </trkpt>
      <trkpt lat="44.55935" lon="2.74387">
        <ele>517.33</ele>
        <time>2021-05-31T12:53:15Z</time>
      </trkpt>
      <trkpt lat="44.55939" lon="2.74399">
        <ele>517.81</ele>
        <time>2021-05-31T12:53:24Z</time>
      </trkpt>
      <trkpt lat="44.55941" lon="2.74403">
        <ele>518.29</ele>
        <time>2021-05-31T12:53:27Z</time>
      </trkpt>
      <trkpt lat="44.55942" lon="2.74409">
        <ele>518.29</ele>
        <time>2021-05-31T12:53:30Z</time>
      </trkpt>
      <trkpt lat="44.55947" lon="2.74422">
        <ele>519.25</ele>
        <time>2021-05-31T12:53:39Z</time>
      </trkpt>
      <trkpt lat="44.55948" lon="2.74427">
        <ele>519.25</ele>
        <time>2021-05-31T12:53:41Z</time>
      </trkpt>
      <trkpt lat="44.55952" lon="2.74439">
        <ele>519.73</ele>
        <time>2021-05-31T12:53:49Z</time>
      </trkpt>
      <trkpt lat="44.55955" lon="2.74453">
        <ele>519.25</ele>
        <time>2021-05-31T12:53:57Z</time>
      </trkpt>
      <trkpt lat="44.55956" lon="2.74459">
        <ele>519.25</ele>
        <time>2021-05-31T12:54:05Z</time>
      </trkpt>
      <trkpt lat="44.55958" lon="2.74468">
        <ele>517.81</ele>
        <time>2021-05-31T12:54:16Z</time>
      </trkpt>
      <trkpt lat="44.55963" lon="2.74477">
        <ele>515.88</ele>
        <time>2021-05-31T12:54:24Z</time>
      </trkpt>
      <trkpt lat="44.55963" lon="2.74478">
        <ele>515.4</ele>
        <time>2021-05-31T12:54:25Z</time>
      </trkpt>
      <trkpt lat="44.5597" lon="2.74486">
        <ele>513.48</ele>
        <time>2021-05-31T12:54:34Z</time>
      </trkpt>
      <trkpt lat="44.55978" lon="2.74495">
        <ele>512.04</ele>
        <time>2021-05-31T12:54:43Z</time>
      </trkpt>
      <trkpt lat="44.55983" lon="2.745">
        <ele>511.08</ele>
        <time>2021-05-31T12:54:50Z</time>
      </trkpt>
      <trkpt lat="44.55986" lon="2.74502">
        <ele>510.12</ele>
        <time>2021-05-31T12:54:53Z</time>
      </trkpt>
      <trkpt lat="44.55995" lon="2.74509">
        <ele>507.71</ele>
        <time>2021-05-31T12:55:02Z</time>
      </trkpt>
      <trkpt lat="44.56002" lon="2.74513">
        <ele>506.75</ele>
        <time>2021-05-31T12:55:09Z</time>
      </trkpt>
      <trkpt lat="44.56011" lon="2.74517">
        <ele>504.35</ele>
        <time>2021-05-31T12:55:18Z</time>
      </trkpt>
      <trkpt lat="44.56016" lon="2.74521">
        <ele>504.35</ele>
        <time>2021-05-31T12:55:25Z</time>
      </trkpt>
      <trkpt lat="44.56021" lon="2.74524">
        <ele>504.83</ele>
        <time>2021-05-31T12:55:33Z</time>
      </trkpt>
      <trkpt lat="44.5603" lon="2.74527">
        <ele>504.83</ele>
        <time>2021-05-31T12:55:41Z</time>
      </trkpt>
      <trkpt lat="44.56038" lon="2.74532">
        <ele>505.31</ele>
        <time>2021-05-31T12:55:48Z</time>
      </trkpt>
      <trkpt lat="44.56049" lon="2.74542">
        <ele>505.31</ele>
        <time>2021-05-31T12:55:56Z</time>
      </trkpt>
      <trkpt lat="44.56057" lon="2.74549">
        <ele>505.79</ele>
        <time>2021-05-31T12:56:04Z</time>
      </trkpt>
      <trkpt lat="44.56066" lon="2.74557">
        <ele>505.79</ele>
        <time>2021-05-31T12:56:14Z</time>
      </trkpt>
      <trkpt lat="44.56074" lon="2.74562">
        <ele>506.27</ele>
        <time>2021-05-31T12:56:23Z</time>
      </trkpt>
      <trkpt lat="44.56083" lon="2.74566">
        <ele>506.75</ele>
        <time>2021-05-31T12:56:31Z</time>
      </trkpt>
      <trkpt lat="44.56093" lon="2.74575">
        <ele>507.23</ele>
        <time>2021-05-31T12:56:39Z</time>
      </trkpt>
      <trkpt lat="44.56101" lon="2.74585">
        <ele>507.23</ele>
        <time>2021-05-31T12:56:47Z</time>
      </trkpt>
      <trkpt lat="44.56104" lon="2.74589">
        <ele>507.23</ele>
        <time>2021-05-31T12:56:51Z</time>
      </trkpt>
      <trkpt lat="44.56107" lon="2.74603">
        <ele>507.23</ele>
        <time>2021-05-31T12:57:00Z</time>
      </trkpt>
      <trkpt lat="44.56111" lon="2.74613">
        <ele>507.71</ele>
        <time>2021-05-31T12:57:09Z</time>
      </trkpt>
      <trkpt lat="44.56114" lon="2.74627">
        <ele>507.71</ele>
        <time>2021-05-31T12:57:17Z</time>
      </trkpt>
      <trkpt lat="44.5612" lon="2.74645">
        <ele>507.71</ele>
        <time>2021-05-31T12:57:28Z</time>
      </trkpt>
      <trkpt lat="44.56128" lon="2.74659">
        <ele>507.71</ele>
        <time>2021-05-31T12:57:37Z</time>
      </trkpt>
      <trkpt lat="44.56135" lon="2.74673">
        <ele>507.71</ele>
        <time>2021-05-31T12:57:46Z</time>
      </trkpt>
      <trkpt lat="44.56137" lon="2.74676">
        <ele>507.71</ele>
        <time>2021-05-31T12:57:48Z</time>
      </trkpt>
      <trkpt lat="44.56145" lon="2.74687">
        <ele>507.71</ele>
        <time>2021-05-31T12:57:57Z</time>
      </trkpt>
      <trkpt lat="44.56153" lon="2.74693">
        <ele>507.71</ele>
        <time>2021-05-31T12:58:06Z</time>
      </trkpt>
      <trkpt lat="44.56161" lon="2.747">
        <ele>507.71</ele>
        <time>2021-05-31T12:58:15Z</time>
      </trkpt>
      <trkpt lat="44.56166" lon="2.74707">
        <ele>508.19</ele>
        <time>2021-05-31T12:58:22Z</time>
      </trkpt>
      <trkpt lat="44.56174" lon="2.74712">
        <ele>508.19</ele>
        <time>2021-05-31T12:58:30Z</time>
      </trkpt>
      <trkpt lat="44.56184" lon="2.74719">
        <ele>508.67</ele>
        <time>2021-05-31T12:58:38Z</time>
      </trkpt>
      <trkpt lat="44.56185" lon="2.74721">
        <ele>509.16</ele>
        <time>2021-05-31T12:58:45Z</time>
      </trkpt>
      <trkpt lat="44.56187" lon="2.74722">
        <ele>508.67</ele>
        <time>2021-05-31T12:58:54Z</time>
      </trkpt>
      <trkpt lat="44.5619" lon="2.74731">
        <ele>522.13</ele>
        <time>2021-05-31T12:59:11Z</time>
      </trkpt>
      <trkpt lat="44.56189" lon="2.74733">
        <ele>525.02</ele>
        <time>2021-05-31T12:59:20Z</time>
      </trkpt>
      <trkpt lat="44.56192" lon="2.74729">
        <ele>522.13</ele>
        <time>2021-05-31T12:59:27Z</time>
      </trkpt>
      <trkpt lat="44.56189" lon="2.74719">
        <ele>513.96</ele>
        <time>2021-05-31T12:59:45Z</time>
      </trkpt>
      <trkpt lat="44.5619" lon="2.7472">
        <ele>512.52</ele>
        <time>2021-05-31T13:00:02Z</time>
      </trkpt>
      <trkpt lat="44.56196" lon="2.74726">
        <ele>512.04</ele>
        <time>2021-05-31T13:00:13Z</time>
      </trkpt>
      <trkpt lat="44.56202" lon="2.74734">
        <ele>511.56</ele>
        <time>2021-05-31T13:00:20Z</time>
      </trkpt>
      <trkpt lat="44.5621" lon="2.74745">
        <ele>511.08</ele>
        <time>2021-05-31T13:00:30Z</time>
      </trkpt>
      <trkpt lat="44.56214" lon="2.74753">
        <ele>511.08</ele>
        <time>2021-05-31T13:00:38Z</time>
      </trkpt>
      <trkpt lat="44.56218" lon="2.74755">
        <ele>511.56</ele>
        <time>2021-05-31T13:00:46Z</time>
      </trkpt>
      <trkpt lat="44.56221" lon="2.74752">
        <ele>511.56</ele>
        <time>2021-05-31T13:01:07Z</time>
      </trkpt>
      <trkpt lat="44.56225" lon="2.74759">
        <ele>512.52</ele>
        <time>2021-05-31T13:01:20Z</time>
      </trkpt>
      <trkpt lat="44.5623" lon="2.74766">
        <ele>513</ele>
        <time>2021-05-31T13:01:27Z</time>
      </trkpt>
      <trkpt lat="44.56236" lon="2.74776">
        <ele>512.52</ele>
        <time>2021-05-31T13:01:37Z</time>
      </trkpt>
      <trkpt lat="44.56243" lon="2.74784">
        <ele>512.04</ele>
        <time>2021-05-31T13:01:45Z</time>
      </trkpt>
      <trkpt lat="44.56251" lon="2.74794">
        <ele>510.6</ele>
        <time>2021-05-31T13:01:54Z</time>
      </trkpt>
      <trkpt lat="44.56257" lon="2.74798">
        <ele>510.12</ele>
        <time>2021-05-31T13:02:01Z</time>
      </trkpt>
      <trkpt lat="44.56266" lon="2.74801">
        <ele>509.16</ele>
        <time>2021-05-31T13:02:10Z</time>
      </trkpt>
      <trkpt lat="44.56276" lon="2.74804">
        <ele>509.16</ele>
        <time>2021-05-31T13:02:20Z</time>
      </trkpt>
      <trkpt lat="44.56285" lon="2.74806">
        <ele>509.64</ele>
        <time>2021-05-31T13:02:28Z</time>
      </trkpt>
      <trkpt lat="44.56295" lon="2.74808">
        <ele>509.64</ele>
        <time>2021-05-31T13:02:37Z</time>
      </trkpt>
      <trkpt lat="44.56306" lon="2.74808">
        <ele>508.67</ele>
        <time>2021-05-31T13:02:46Z</time>
      </trkpt>
      <trkpt lat="44.56315" lon="2.74809">
        <ele>508.67</ele>
        <time>2021-05-31T13:02:54Z</time>
      </trkpt>
      <trkpt lat="44.56329" lon="2.7481">
        <ele>510.12</ele>
        <time>2021-05-31T13:03:03Z</time>
      </trkpt>
      <trkpt lat="44.56342" lon="2.74811">
        <ele>513.96</ele>
        <time>2021-05-31T13:03:13Z</time>
      </trkpt>
      <trkpt lat="44.56351" lon="2.74809">
        <ele>514.44</ele>
        <time>2021-05-31T13:03:22Z</time>
      </trkpt>
      <trkpt lat="44.56361" lon="2.74811">
        <ele>513.48</ele>
        <time>2021-05-31T13:03:33Z</time>
      </trkpt>
      <trkpt lat="44.56374" lon="2.74811">
        <ele>510.12</ele>
        <time>2021-05-31T13:03:43Z</time>
      </trkpt>
      <trkpt lat="44.56391" lon="2.74817">
        <ele>511.08</ele>
        <time>2021-05-31T13:03:53Z</time>
      </trkpt>
      <trkpt lat="44.56401" lon="2.7482">
        <ele>511.56</ele>
        <time>2021-05-31T13:04:01Z</time>
      </trkpt>
      <trkpt lat="44.5641" lon="2.74823">
        <ele>511.08</ele>
        <time>2021-05-31T13:04:07Z</time>
      </trkpt>
      <trkpt lat="44.56427" lon="2.74831">
        <ele>516.85</ele>
        <time>2021-05-31T13:04:18Z</time>
      </trkpt>
      <trkpt lat="44.56437" lon="2.74838">
        <ele>520.69</ele>
        <time>2021-05-31T13:04:26Z</time>
      </trkpt>
      <trkpt lat="44.56447" lon="2.74849">
        <ele>524.54</ele>
        <time>2021-05-31T13:04:36Z</time>
      </trkpt>
      <trkpt lat="44.56455" lon="2.74855">
        <ele>525.5</ele>
        <time>2021-05-31T13:04:45Z</time>
      </trkpt>
      <trkpt lat="44.56461" lon="2.74862">
        <ele>525.5</ele>
        <time>2021-05-31T13:04:51Z</time>
      </trkpt>
      <trkpt lat="44.56472" lon="2.74869">
        <ele>525.02</ele>
        <time>2021-05-31T13:04:59Z</time>
      </trkpt>
      <trkpt lat="44.56482" lon="2.74877">
        <ele>525.5</ele>
        <time>2021-05-31T13:05:08Z</time>
      </trkpt>
      <trkpt lat="44.5649" lon="2.74885">
        <ele>525.02</ele>
        <time>2021-05-31T13:05:15Z</time>
      </trkpt>
      <trkpt lat="44.56494" lon="2.7489">
        <ele>524.54</ele>
        <time>2021-05-31T13:05:20Z</time>
      </trkpt>
      <trkpt lat="44.56503" lon="2.749">
        <ele>523.58</ele>
        <time>2021-05-31T13:05:28Z</time>
      </trkpt>
      <trkpt lat="44.56509" lon="2.74907">
        <ele>522.61</ele>
        <time>2021-05-31T13:05:36Z</time>
      </trkpt>
      <trkpt lat="44.56519" lon="2.74919">
        <ele>522.13</ele>
        <time>2021-05-31T13:05:46Z</time>
      </trkpt>
      <trkpt lat="44.56523" lon="2.74925">
        <ele>522.61</ele>
        <time>2021-05-31T13:05:49Z</time>
      </trkpt>
      <trkpt lat="44.56532" lon="2.74941">
        <ele>523.09</ele>
        <time>2021-05-31T13:06:00Z</time>
      </trkpt>
      <trkpt lat="44.56537" lon="2.74949">
        <ele>523.09</ele>
        <time>2021-05-31T13:06:09Z</time>
      </trkpt>
      <trkpt lat="44.56545" lon="2.74958">
        <ele>522.61</ele>
        <time>2021-05-31T13:06:19Z</time>
      </trkpt>
      <trkpt lat="44.56556" lon="2.7497">
        <ele>520.69</ele>
        <time>2021-05-31T13:06:29Z</time>
      </trkpt>
      <trkpt lat="44.56565" lon="2.74982">
        <ele>516.85</ele>
        <time>2021-05-31T13:06:40Z</time>
      </trkpt>
      <trkpt lat="44.56575" lon="2.74994">
        <ele>513</ele>
        <time>2021-05-31T13:06:49Z</time>
      </trkpt>
      <trkpt lat="44.5658" lon="2.75">
        <ele>510.12</ele>
        <time>2021-05-31T13:06:56Z</time>
      </trkpt>
      <trkpt lat="44.56586" lon="2.75008">
        <ele>506.27</ele>
        <time>2021-05-31T13:07:04Z</time>
      </trkpt>
      <trkpt lat="44.56594" lon="2.75018">
        <ele>502.43</ele>
        <time>2021-05-31T13:07:13Z</time>
      </trkpt>
      <trkpt lat="44.56606" lon="2.75027">
        <ele>496.18</ele>
        <time>2021-05-31T13:07:22Z</time>
      </trkpt>
      <trkpt lat="44.56611" lon="2.75035">
        <ele>489.45</ele>
        <time>2021-05-31T13:07:31Z</time>
      </trkpt>
      <trkpt lat="44.56614" lon="2.75054">
        <ele>487.53</ele>
        <time>2021-05-31T13:07:40Z</time>
      </trkpt>
      <trkpt lat="44.56617" lon="2.75068">
        <ele>489.93</ele>
        <time>2021-05-31T13:07:47Z</time>
      </trkpt>
      <trkpt lat="44.56622" lon="2.75083">
        <ele>490.41</ele>
        <time>2021-05-31T13:07:57Z</time>
      </trkpt>
      <trkpt lat="44.56625" lon="2.75092">
        <ele>488.97</ele>
        <time>2021-05-31T13:08:04Z</time>
      </trkpt>
      <trkpt lat="44.56628" lon="2.75101">
        <ele>488.49</ele>
        <time>2021-05-31T13:08:11Z</time>
      </trkpt>
      <trkpt lat="44.56632" lon="2.75108">
        <ele>487.53</ele>
        <time>2021-05-31T13:08:19Z</time>
      </trkpt>
      <trkpt lat="44.56636" lon="2.75122">
        <ele>486.08</ele>
        <time>2021-05-31T13:08:28Z</time>
      </trkpt>
      <trkpt lat="44.56639" lon="2.75148">
        <ele>487.05</ele>
        <time>2021-05-31T13:08:38Z</time>
      </trkpt>
      <trkpt lat="44.56642" lon="2.75163">
        <ele>487.53</ele>
        <time>2021-05-31T13:08:46Z</time>
      </trkpt>
      <trkpt lat="44.56645" lon="2.75174">
        <ele>488.97</ele>
        <time>2021-05-31T13:08:53Z</time>
      </trkpt>
      <trkpt lat="44.56649" lon="2.75185">
        <ele>489.45</ele>
        <time>2021-05-31T13:09:03Z</time>
      </trkpt>
      <trkpt lat="44.56653" lon="2.75201">
        <ele>490.89</ele>
        <time>2021-05-31T13:09:11Z</time>
      </trkpt>
      <trkpt lat="44.56657" lon="2.75211">
        <ele>492.81</ele>
        <time>2021-05-31T13:09:18Z</time>
      </trkpt>
      <trkpt lat="44.56659" lon="2.75216">
        <ele>493.77</ele>
        <time>2021-05-31T13:09:22Z</time>
      </trkpt>
      <trkpt lat="44.56663" lon="2.75228">
        <ele>495.22</ele>
        <time>2021-05-31T13:09:30Z</time>
      </trkpt>
      <trkpt lat="44.56667" lon="2.75239">
        <ele>496.18</ele>
        <time>2021-05-31T13:09:37Z</time>
      </trkpt>
      <trkpt lat="44.5667" lon="2.75249">
        <ele>497.62</ele>
        <time>2021-05-31T13:09:45Z</time>
      </trkpt>
      <trkpt lat="44.56671" lon="2.75253">
        <ele>498.1</ele>
        <time>2021-05-31T13:09:48Z</time>
      </trkpt>
      <trkpt lat="44.56673" lon="2.75275">
        <ele>497.62</ele>
        <time>2021-05-31T13:09:57Z</time>
      </trkpt>
      <trkpt lat="44.56676" lon="2.75285">
        <ele>497.62</ele>
        <time>2021-05-31T13:10:04Z</time>
      </trkpt>
      <trkpt lat="44.56677" lon="2.75297">
        <ele>497.14</ele>
        <time>2021-05-31T13:10:12Z</time>
      </trkpt>
      <trkpt lat="44.56674" lon="2.75309">
        <ele>499.06</ele>
        <time>2021-05-31T13:10:22Z</time>
      </trkpt>
      <trkpt lat="44.56661" lon="2.75321">
        <ele>502.43</ele>
        <time>2021-05-31T13:10:33Z</time>
      </trkpt>
      <trkpt lat="44.56659" lon="2.75322">
        <ele>502.91</ele>
        <time>2021-05-31T13:10:35Z</time>
      </trkpt>
      <trkpt lat="44.56653" lon="2.7532">
        <ele>504.35</ele>
        <time>2021-05-31T13:10:42Z</time>
      </trkpt>
      <trkpt lat="44.56647" lon="2.75316">
        <ele>503.87</ele>
        <time>2021-05-31T13:10:49Z</time>
      </trkpt>
      <trkpt lat="44.5664" lon="2.75308">
        <ele>503.87</ele>
        <time>2021-05-31T13:10:57Z</time>
      </trkpt>
      <trkpt lat="44.56634" lon="2.75298">
        <ele>503.87</ele>
        <time>2021-05-31T13:11:05Z</time>
      </trkpt>
      <trkpt lat="44.56631" lon="2.75292">
        <ele>503.87</ele>
        <time>2021-05-31T13:11:09Z</time>
      </trkpt>
      <trkpt lat="44.56625" lon="2.7528">
        <ele>503.87</ele>
        <time>2021-05-31T13:11:17Z</time>
      </trkpt>
      <trkpt lat="44.5662" lon="2.75271">
        <ele>503.39</ele>
        <time>2021-05-31T13:11:25Z</time>
      </trkpt>
      <trkpt lat="44.56614" lon="2.7526">
        <ele>503.87</ele>
        <time>2021-05-31T13:11:33Z</time>
      </trkpt>
      <trkpt lat="44.56608" lon="2.7525">
        <ele>503.87</ele>
        <time>2021-05-31T13:11:41Z</time>
      </trkpt>
      <trkpt lat="44.56602" lon="2.75244">
        <ele>504.83</ele>
        <time>2021-05-31T13:11:48Z</time>
      </trkpt>
      <trkpt lat="44.56596" lon="2.75234">
        <ele>504.83</ele>
        <time>2021-05-31T13:11:57Z</time>
      </trkpt>
      <trkpt lat="44.56594" lon="2.75229">
        <ele>504.83</ele>
        <time>2021-05-31T13:12:02Z</time>
      </trkpt>
      <trkpt lat="44.5659" lon="2.75222">
        <ele>504.83</ele>
        <time>2021-05-31T13:12:07Z</time>
      </trkpt>
      <trkpt lat="44.56582" lon="2.75212">
        <ele>504.83</ele>
        <time>2021-05-31T13:12:16Z</time>
      </trkpt>
      <trkpt lat="44.56577" lon="2.75202">
        <ele>504.83</ele>
        <time>2021-05-31T13:12:24Z</time>
      </trkpt>
      <trkpt lat="44.56573" lon="2.75192">
        <ele>504.83</ele>
        <time>2021-05-31T13:12:32Z</time>
      </trkpt>
      <trkpt lat="44.56569" lon="2.75184">
        <ele>504.83</ele>
        <time>2021-05-31T13:12:39Z</time>
      </trkpt>
      <trkpt lat="44.56563" lon="2.75176">
        <ele>505.31</ele>
        <time>2021-05-31T13:12:45Z</time>
      </trkpt>
      <trkpt lat="44.56556" lon="2.75168">
        <ele>506.75</ele>
        <time>2021-05-31T13:12:52Z</time>
      </trkpt>
      <trkpt lat="44.5655" lon="2.75161">
        <ele>507.71</ele>
        <time>2021-05-31T13:13:00Z</time>
      </trkpt>
      <trkpt lat="44.56544" lon="2.75156">
        <ele>508.19</ele>
        <time>2021-05-31T13:13:07Z</time>
      </trkpt>
      <trkpt lat="44.56542" lon="2.75154">
        <ele>508.19</ele>
        <time>2021-05-31T13:13:09Z</time>
      </trkpt>
      <trkpt lat="44.56535" lon="2.75147">
        <ele>509.64</ele>
        <time>2021-05-31T13:13:17Z</time>
      </trkpt>
      <trkpt lat="44.56533" lon="2.75145">
        <ele>510.12</ele>
        <time>2021-05-31T13:13:28Z</time>
      </trkpt>
      <trkpt lat="44.56531" lon="2.75144">
        <ele>511.56</ele>
        <time>2021-05-31T13:13:42Z</time>
      </trkpt>
      <trkpt lat="44.56528" lon="2.75142">
        <ele>511.08</ele>
        <time>2021-05-31T13:13:57Z</time>
      </trkpt>
      <trkpt lat="44.56521" lon="2.75133">
        <ele>510.6</ele>
        <time>2021-05-31T13:14:04Z</time>
      </trkpt>
      <trkpt lat="44.56514" lon="2.75128">
        <ele>510.6</ele>
        <time>2021-05-31T13:14:13Z</time>
      </trkpt>
      <trkpt lat="44.56507" lon="2.75124">
        <ele>511.08</ele>
        <time>2021-05-31T13:14:20Z</time>
      </trkpt>
      <trkpt lat="44.56498" lon="2.75118">
        <ele>511.08</ele>
        <time>2021-05-31T13:14:28Z</time>
      </trkpt>
      <trkpt lat="44.56487" lon="2.75113">
        <ele>512.52</ele>
        <time>2021-05-31T13:14:38Z</time>
      </trkpt>
      <trkpt lat="44.56477" lon="2.75106">
        <ele>514.44</ele>
        <time>2021-05-31T13:14:47Z</time>
      </trkpt>
      <trkpt lat="44.5647" lon="2.75102">
        <ele>514.92</ele>
        <time>2021-05-31T13:14:54Z</time>
      </trkpt>
      <trkpt lat="44.56467" lon="2.75102">
        <ele>515.88</ele>
        <time>2021-05-31T13:15:07Z</time>
      </trkpt>
      <trkpt lat="44.56467" lon="2.75101">
        <ele>515.88</ele>
        <time>2021-05-31T13:15:19Z</time>
      </trkpt>
      <trkpt lat="44.5646" lon="2.75096">
        <ele>516.37</ele>
        <time>2021-05-31T13:15:26Z</time>
      </trkpt>
      <trkpt lat="44.56451" lon="2.75089">
        <ele>515.88</ele>
        <time>2021-05-31T13:15:34Z</time>
      </trkpt>
      <trkpt lat="44.56446" lon="2.75084">
        <ele>515.88</ele>
        <time>2021-05-31T13:15:40Z</time>
      </trkpt>
      <trkpt lat="44.56435" lon="2.75076">
        <ele>514.92</ele>
        <time>2021-05-31T13:15:49Z</time>
      </trkpt>
      <trkpt lat="44.56426" lon="2.75073">
        <ele>513.96</ele>
        <time>2021-05-31T13:15:56Z</time>
      </trkpt>
      <trkpt lat="44.56417" lon="2.75071">
        <ele>513.48</ele>
        <time>2021-05-31T13:16:04Z</time>
      </trkpt>
      <trkpt lat="44.56407" lon="2.75069">
        <ele>512.04</ele>
        <time>2021-05-31T13:16:12Z</time>
      </trkpt>
      <trkpt lat="44.56398" lon="2.75072">
        <ele>509.64</ele>
        <time>2021-05-31T13:16:21Z</time>
      </trkpt>
      <trkpt lat="44.5639" lon="2.75077">
        <ele>506.27</ele>
        <time>2021-05-31T13:16:30Z</time>
      </trkpt>
      <trkpt lat="44.5638" lon="2.75075">
        <ele>505.31</ele>
        <time>2021-05-31T13:16:38Z</time>
      </trkpt>
      <trkpt lat="44.56375" lon="2.75071">
        <ele>505.31</ele>
        <time>2021-05-31T13:16:43Z</time>
      </trkpt>
      <trkpt lat="44.56371" lon="2.7506">
        <ele>505.79</ele>
        <time>2021-05-31T13:16:50Z</time>
      </trkpt>
      <trkpt lat="44.56367" lon="2.75047">
        <ele>506.75</ele>
        <time>2021-05-31T13:16:59Z</time>
      </trkpt>
      <trkpt lat="44.56364" lon="2.75035">
        <ele>507.71</ele>
        <time>2021-05-31T13:17:06Z</time>
      </trkpt>
      <trkpt lat="44.56357" lon="2.75026">
        <ele>509.64</ele>
        <time>2021-05-31T13:17:14Z</time>
      </trkpt>
      <trkpt lat="44.56347" lon="2.75016">
        <ele>509.64</ele>
        <time>2021-05-31T13:17:22Z</time>
      </trkpt>
      <trkpt lat="44.56341" lon="2.75013">
        <ele>508.19</ele>
        <time>2021-05-31T13:17:28Z</time>
      </trkpt>
      <trkpt lat="44.56333" lon="2.7501">
        <ele>507.23</ele>
        <time>2021-05-31T13:17:34Z</time>
      </trkpt>
      <trkpt lat="44.56322" lon="2.75004">
        <ele>506.75</ele>
        <time>2021-05-31T13:17:44Z</time>
      </trkpt>
      <trkpt lat="44.56314" lon="2.75001">
        <ele>506.75</ele>
        <time>2021-05-31T13:17:52Z</time>
      </trkpt>
      <trkpt lat="44.56306" lon="2.74995">
        <ele>506.27</ele>
        <time>2021-05-31T13:18:00Z</time>
      </trkpt>
      <trkpt lat="44.56297" lon="2.74989">
        <ele>506.75</ele>
        <time>2021-05-31T13:18:07Z</time>
      </trkpt>
      <trkpt lat="44.5629" lon="2.74985">
        <ele>505.79</ele>
        <time>2021-05-31T13:18:15Z</time>
      </trkpt>
      <trkpt lat="44.5628" lon="2.7498">
        <ele>505.31</ele>
        <time>2021-05-31T13:18:24Z</time>
      </trkpt>
      <trkpt lat="44.56271" lon="2.74979">
        <ele>504.83</ele>
        <time>2021-05-31T13:18:31Z</time>
      </trkpt>
      <trkpt lat="44.56269" lon="2.74979">
        <ele>504.83</ele>
        <time>2021-05-31T13:18:32Z</time>
      </trkpt>
      <trkpt lat="44.56256" lon="2.74978">
        <ele>503.39</ele>
        <time>2021-05-31T13:18:41Z</time>
      </trkpt>
      <trkpt lat="44.56247" lon="2.74977">
        <ele>501.95</ele>
        <time>2021-05-31T13:18:49Z</time>
      </trkpt>
      <trkpt lat="44.56239" lon="2.74976">
        <ele>501.46</ele>
        <time>2021-05-31T13:18:57Z</time>
      </trkpt>
      <trkpt lat="44.56231" lon="2.74975">
        <ele>500.5</ele>
        <time>2021-05-31T13:19:05Z</time>
      </trkpt>
      <trkpt lat="44.56221" lon="2.74969">
        <ele>500.5</ele>
        <time>2021-05-31T13:19:14Z</time>
      </trkpt>
      <trkpt lat="44.56213" lon="2.74965">
        <ele>500.5</ele>
        <time>2021-05-31T13:19:22Z</time>
      </trkpt>
      <trkpt lat="44.56203" lon="2.74962">
        <ele>500.98</ele>
        <time>2021-05-31T13:19:30Z</time>
      </trkpt>
      <trkpt lat="44.56197" lon="2.74959">
        <ele>501.46</ele>
        <time>2021-05-31T13:19:35Z</time>
      </trkpt>
      <trkpt lat="44.56185" lon="2.74952">
        <ele>501.46</ele>
        <time>2021-05-31T13:19:44Z</time>
      </trkpt>
      <trkpt lat="44.56178" lon="2.74946">
        <ele>501.46</ele>
        <time>2021-05-31T13:19:50Z</time>
      </trkpt>
      <trkpt lat="44.56169" lon="2.74944">
        <ele>501.46</ele>
        <time>2021-05-31T13:19:57Z</time>
      </trkpt>
      <trkpt lat="44.56159" lon="2.74937">
        <ele>501.46</ele>
        <time>2021-05-31T13:20:07Z</time>
      </trkpt>
      <trkpt lat="44.56147" lon="2.74934">
        <ele>500.98</ele>
        <time>2021-05-31T13:20:15Z</time>
      </trkpt>
      <trkpt lat="44.56138" lon="2.74931">
        <ele>499.06</ele>
        <time>2021-05-31T13:20:22Z</time>
      </trkpt>
      <trkpt lat="44.56129" lon="2.74927">
        <ele>498.1</ele>
        <time>2021-05-31T13:20:29Z</time>
      </trkpt>
      <trkpt lat="44.56123" lon="2.74926">
        <ele>498.1</ele>
        <time>2021-05-31T13:20:34Z</time>
      </trkpt>
      <trkpt lat="44.56112" lon="2.74926">
        <ele>498.58</ele>
        <time>2021-05-31T13:20:43Z</time>
      </trkpt>
      <trkpt lat="44.56106" lon="2.7493">
        <ele>498.58</ele>
        <time>2021-05-31T13:20:50Z</time>
      </trkpt>
      <trkpt lat="44.56097" lon="2.74937">
        <ele>498.58</ele>
        <time>2021-05-31T13:21:00Z</time>
      </trkpt>
      <trkpt lat="44.56091" lon="2.74939">
        <ele>497.62</ele>
        <time>2021-05-31T13:21:08Z</time>
      </trkpt>
      <trkpt lat="44.56084" lon="2.74943">
        <ele>496.18</ele>
        <time>2021-05-31T13:21:17Z</time>
      </trkpt>
      <trkpt lat="44.56076" lon="2.74946">
        <ele>493.29</ele>
        <time>2021-05-31T13:21:25Z</time>
      </trkpt>
      <trkpt lat="44.56066" lon="2.7495">
        <ele>493.29</ele>
        <time>2021-05-31T13:21:33Z</time>
      </trkpt>
      <trkpt lat="44.5606" lon="2.74955">
        <ele>493.29</ele>
        <time>2021-05-31T13:21:40Z</time>
      </trkpt>
      <trkpt lat="44.56053" lon="2.74963">
        <ele>493.77</ele>
        <time>2021-05-31T13:21:48Z</time>
      </trkpt>
      <trkpt lat="44.56052" lon="2.74967">
        <ele>493.77</ele>
        <time>2021-05-31T13:21:58Z</time>
      </trkpt>
      <trkpt lat="44.56045" lon="2.74968">
        <ele>494.74</ele>
        <time>2021-05-31T13:22:08Z</time>
      </trkpt>
      <trkpt lat="44.56037" lon="2.7496">
        <ele>495.22</ele>
        <time>2021-05-31T13:22:16Z</time>
      </trkpt>
      <trkpt lat="44.56033" lon="2.74958">
        <ele>495.22</ele>
        <time>2021-05-31T13:22:29Z</time>
      </trkpt>
      <trkpt lat="44.56035" lon="2.7497">
        <ele>494.26</ele>
        <time>2021-05-31T13:22:44Z</time>
      </trkpt>
      <trkpt lat="44.56038" lon="2.74968">
        <ele>497.14</ele>
        <time>2021-05-31T13:23:03Z</time>
      </trkpt>
      <trkpt lat="44.5604" lon="2.74968">
        <ele>500.5</ele>
        <time>2021-05-31T13:23:21Z</time>
      </trkpt>
      <trkpt lat="44.56038" lon="2.7497">
        <ele>502.43</ele>
        <time>2021-05-31T13:23:39Z</time>
      </trkpt>
      <trkpt lat="44.56038" lon="2.74963">
        <ele>497.62</ele>
        <time>2021-05-31T13:23:57Z</time>
      </trkpt>
      <trkpt lat="44.56041" lon="2.74962">
        <ele>496.66</ele>
        <time>2021-05-31T13:24:15Z</time>
      </trkpt>
      <trkpt lat="44.56047" lon="2.7496">
        <ele>493.29</ele>
        <time>2021-05-31T13:24:32Z</time>
      </trkpt>
      <trkpt lat="44.5604" lon="2.74952">
        <ele>496.66</ele>
        <time>2021-05-31T13:24:46Z</time>
      </trkpt>
      <trkpt lat="44.56036" lon="2.74953">
        <ele>496.66</ele>
        <time>2021-05-31T13:25:05Z</time>
      </trkpt>
      <trkpt lat="44.56033" lon="2.7495">
        <ele>495.7</ele>
        <time>2021-05-31T13:25:18Z</time>
      </trkpt>
      <trkpt lat="44.56034" lon="2.74953">
        <ele>496.66</ele>
        <time>2021-05-31T13:25:27Z</time>
      </trkpt>
      <trkpt lat="44.56035" lon="2.74945">
        <ele>495.7</ele>
        <time>2021-05-31T13:25:36Z</time>
      </trkpt>
      <trkpt lat="44.56038" lon="2.74935">
        <ele>494.26</ele>
        <time>2021-05-31T13:25:45Z</time>
      </trkpt>
      <trkpt lat="44.56038" lon="2.74933">
        <ele>494.26</ele>
        <time>2021-05-31T13:25:46Z</time>
      </trkpt>
      <trkpt lat="44.56041" lon="2.74923">
        <ele>492.81</ele>
        <time>2021-05-31T13:25:54Z</time>
      </trkpt>
      <trkpt lat="44.56043" lon="2.74912">
        <ele>493.29</ele>
        <time>2021-05-31T13:26:01Z</time>
      </trkpt>
      <trkpt lat="44.56041" lon="2.74901">
        <ele>493.77</ele>
        <time>2021-05-31T13:26:10Z</time>
      </trkpt>
      <trkpt lat="44.56036" lon="2.74897">
        <ele>494.26</ele>
        <time>2021-05-31T13:26:16Z</time>
      </trkpt>
      <trkpt lat="44.56029" lon="2.74893">
        <ele>494.26</ele>
        <time>2021-05-31T13:26:24Z</time>
      </trkpt>
      <trkpt lat="44.5602" lon="2.74884">
        <ele>494.26</ele>
        <time>2021-05-31T13:26:34Z</time>
      </trkpt>
      <trkpt lat="44.56013" lon="2.74877">
        <ele>493.29</ele>
        <time>2021-05-31T13:26:42Z</time>
      </trkpt>
      <trkpt lat="44.56007" lon="2.74869">
        <ele>492.33</ele>
        <time>2021-05-31T13:26:50Z</time>
      </trkpt>
      <trkpt lat="44.56002" lon="2.7486">
        <ele>491.37</ele>
        <time>2021-05-31T13:27:00Z</time>
      </trkpt>
      <trkpt lat="44.55997" lon="2.74854">
        <ele>490.41</ele>
        <time>2021-05-31T13:27:11Z</time>
      </trkpt>
      <trkpt lat="44.5599" lon="2.74844">
        <ele>488.49</ele>
        <time>2021-05-31T13:27:19Z</time>
      </trkpt>
      <trkpt lat="44.5599" lon="2.74842">
        <ele>486.08</ele>
        <time>2021-05-31T13:27:30Z</time>
      </trkpt>
      <trkpt lat="44.55991" lon="2.74838">
        <ele>485.12</ele>
        <time>2021-05-31T13:27:50Z</time>
      </trkpt>
      <trkpt lat="44.55989" lon="2.7484">
        <ele>484.16</ele>
        <time>2021-05-31T13:28:06Z</time>
      </trkpt>
      <trkpt lat="44.55993" lon="2.74836">
        <ele>484.16</ele>
        <time>2021-05-31T13:28:18Z</time>
      </trkpt>
      <trkpt lat="44.55994" lon="2.74837">
        <ele>487.05</ele>
        <time>2021-05-31T13:28:32Z</time>
      </trkpt>
      <trkpt lat="44.55991" lon="2.7483">
        <ele>488.49</ele>
        <time>2021-05-31T13:28:43Z</time>
      </trkpt>
      <trkpt lat="44.55988" lon="2.74822">
        <ele>488.01</ele>
        <time>2021-05-31T13:28:50Z</time>
      </trkpt>
      <trkpt lat="44.55987" lon="2.74809">
        <ele>487.05</ele>
        <time>2021-05-31T13:29:00Z</time>
      </trkpt>
      <trkpt lat="44.55986" lon="2.74803">
        <ele>485.12</ele>
        <time>2021-05-31T13:29:10Z</time>
      </trkpt>
      <trkpt lat="44.55987" lon="2.74795">
        <ele>484.16</ele>
        <time>2021-05-31T13:29:20Z</time>
      </trkpt>
      <trkpt lat="44.55989" lon="2.74787">
        <ele>484.16</ele>
        <time>2021-05-31T13:29:28Z</time>
      </trkpt>
      <trkpt lat="44.55987" lon="2.7477">
        <ele>485.12</ele>
        <time>2021-05-31T13:29:38Z</time>
      </trkpt>
      <trkpt lat="44.55984" lon="2.74758">
        <ele>484.64</ele>
        <time>2021-05-31T13:29:47Z</time>
      </trkpt>
      <trkpt lat="44.55982" lon="2.74748">
        <ele>484.64</ele>
        <time>2021-05-31T13:29:52Z</time>
      </trkpt>
      <trkpt lat="44.55975" lon="2.74735">
        <ele>483.68</ele>
        <time>2021-05-31T13:29:59Z</time>
      </trkpt>
      <trkpt lat="44.55969" lon="2.74729">
        <ele>481.28</ele>
        <time>2021-05-31T13:30:07Z</time>
      </trkpt>
      <trkpt lat="44.55964" lon="2.74727">
        <ele>480.32</ele>
        <time>2021-05-31T13:30:12Z</time>
      </trkpt>
      <trkpt lat="44.55954" lon="2.74721">
        <ele>480.32</ele>
        <time>2021-05-31T13:30:21Z</time>
      </trkpt>
      <trkpt lat="44.55945" lon="2.74715">
        <ele>480.32</ele>
        <time>2021-05-31T13:30:29Z</time>
      </trkpt>
      <trkpt lat="44.55938" lon="2.74712">
        <ele>480.32</ele>
        <time>2021-05-31T13:30:36Z</time>
      </trkpt>
      <trkpt lat="44.55931" lon="2.74708">
        <ele>479.84</ele>
        <time>2021-05-31T13:30:43Z</time>
      </trkpt>
      <trkpt lat="44.5593" lon="2.74704">
        <ele>479.84</ele>
        <time>2021-05-31T13:31:01Z</time>
      </trkpt>
      <trkpt lat="44.55928" lon="2.74692">
        <ele>480.32</ele>
        <time>2021-05-31T13:31:16Z</time>
      </trkpt>
      <trkpt lat="44.55927" lon="2.74688">
        <ele>481.28</ele>
        <time>2021-05-31T13:31:34Z</time>
      </trkpt>
      <trkpt lat="44.55925" lon="2.74686">
        <ele>481.28</ele>
        <time>2021-05-31T13:31:49Z</time>
      </trkpt>
      <trkpt lat="44.55921" lon="2.74687">
        <ele>481.28</ele>
        <time>2021-05-31T13:31:58Z</time>
      </trkpt>
      <trkpt lat="44.55914" lon="2.74683">
        <ele>482.24</ele>
        <time>2021-05-31T13:32:07Z</time>
      </trkpt>
      <trkpt lat="44.55907" lon="2.74678">
        <ele>482.24</ele>
        <time>2021-05-31T13:32:14Z</time>
      </trkpt>
      <trkpt lat="44.559" lon="2.74672">
        <ele>482.72</ele>
        <time>2021-05-31T13:32:22Z</time>
      </trkpt>
      <trkpt lat="44.55892" lon="2.74666">
        <ele>483.2</ele>
        <time>2021-05-31T13:32:30Z</time>
      </trkpt>
      <trkpt lat="44.55884" lon="2.74659">
        <ele>482.72</ele>
        <time>2021-05-31T13:32:38Z</time>
      </trkpt>
      <trkpt lat="44.55876" lon="2.74655">
        <ele>484.64</ele>
        <time>2021-05-31T13:32:47Z</time>
      </trkpt>
      <trkpt lat="44.55868" lon="2.74649">
        <ele>486.56</ele>
        <time>2021-05-31T13:32:54Z</time>
      </trkpt>
      <trkpt lat="44.55861" lon="2.74643">
        <ele>486.08</ele>
        <time>2021-05-31T13:33:02Z</time>
      </trkpt>
      <trkpt lat="44.55857" lon="2.74638">
        <ele>485.6</ele>
        <time>2021-05-31T13:33:11Z</time>
      </trkpt>
      <trkpt lat="44.55849" lon="2.7463">
        <ele>486.08</ele>
        <time>2021-05-31T13:33:20Z</time>
      </trkpt>
      <trkpt lat="44.55846" lon="2.74618">
        <ele>486.08</ele>
        <time>2021-05-31T13:33:27Z</time>
      </trkpt>
      <trkpt lat="44.55845" lon="2.74613">
        <ele>486.56</ele>
        <time>2021-05-31T13:33:30Z</time>
      </trkpt>
      <trkpt lat="44.55844" lon="2.74605">
        <ele>486.08</ele>
        <time>2021-05-31T13:33:34Z</time>
      </trkpt>
      <trkpt lat="44.55841" lon="2.74593">
        <ele>485.6</ele>
        <time>2021-05-31T13:33:43Z</time>
      </trkpt>
      <trkpt lat="44.55837" lon="2.74588">
        <ele>485.12</ele>
        <time>2021-05-31T13:33:50Z</time>
      </trkpt>
      <trkpt lat="44.5583" lon="2.74575">
        <ele>482.24</ele>
        <time>2021-05-31T13:34:01Z</time>
      </trkpt>
      <trkpt lat="44.55824" lon="2.74567">
        <ele>480.8</ele>
        <time>2021-05-31T13:34:08Z</time>
      </trkpt>
      <trkpt lat="44.55818" lon="2.74554">
        <ele>477.91</ele>
        <time>2021-05-31T13:34:16Z</time>
      </trkpt>
      <trkpt lat="44.55812" lon="2.74538">
        <ele>475.51</ele>
        <time>2021-05-31T13:34:24Z</time>
      </trkpt>
      <trkpt lat="44.55808" lon="2.7453">
        <ele>474.55</ele>
        <time>2021-05-31T13:34:30Z</time>
      </trkpt>
      <trkpt lat="44.55806" lon="2.74529">
        <ele>474.55</ele>
        <time>2021-05-31T13:34:31Z</time>
      </trkpt>
      <trkpt lat="44.55799" lon="2.74521">
        <ele>472.14</ele>
        <time>2021-05-31T13:34:40Z</time>
      </trkpt>
      <trkpt lat="44.55791" lon="2.74513">
        <ele>469.26</ele>
        <time>2021-05-31T13:34:48Z</time>
      </trkpt>
      <trkpt lat="44.55783" lon="2.74509">
        <ele>466.38</ele>
        <time>2021-05-31T13:34:56Z</time>
      </trkpt>
      <trkpt lat="44.55776" lon="2.74503">
        <ele>464.93</ele>
        <time>2021-05-31T13:35:03Z</time>
      </trkpt>
      <trkpt lat="44.55769" lon="2.74499">
        <ele>464.93</ele>
        <time>2021-05-31T13:35:10Z</time>
      </trkpt>
      <trkpt lat="44.55763" lon="2.74493">
        <ele>464.93</ele>
        <time>2021-05-31T13:35:17Z</time>
      </trkpt>
      <trkpt lat="44.55753" lon="2.74487">
        <ele>463.97</ele>
        <time>2021-05-31T13:35:26Z</time>
      </trkpt>
      <trkpt lat="44.55745" lon="2.74476">
        <ele>462.53</ele>
        <time>2021-05-31T13:35:33Z</time>
      </trkpt>
      <trkpt lat="44.55737" lon="2.74469">
        <ele>462.53</ele>
        <time>2021-05-31T13:35:40Z</time>
      </trkpt>
      <trkpt lat="44.5573" lon="2.74461">
        <ele>462.53</ele>
        <time>2021-05-31T13:35:48Z</time>
      </trkpt>
      <trkpt lat="44.55723" lon="2.74453">
        <ele>462.05</ele>
        <time>2021-05-31T13:35:55Z</time>
      </trkpt>
      <trkpt lat="44.55716" lon="2.74444">
        <ele>461.09</ele>
        <time>2021-05-31T13:36:03Z</time>
      </trkpt>
      <trkpt lat="44.5571" lon="2.74435">
        <ele>461.09</ele>
        <time>2021-05-31T13:36:09Z</time>
      </trkpt>
      <trkpt lat="44.55702" lon="2.74425">
        <ele>461.09</ele>
        <time>2021-05-31T13:36:17Z</time>
      </trkpt>
      <trkpt lat="44.55695" lon="2.74418">
        <ele>460.13</ele>
        <time>2021-05-31T13:36:24Z</time>
      </trkpt>
      <trkpt lat="44.55688" lon="2.74412">
        <ele>461.09</ele>
        <time>2021-05-31T13:36:32Z</time>
      </trkpt>
      <trkpt lat="44.55677" lon="2.74407">
        <ele>463.01</ele>
        <time>2021-05-31T13:36:43Z</time>
      </trkpt>
      <trkpt lat="44.5567" lon="2.74405">
        <ele>463.49</ele>
        <time>2021-05-31T13:36:51Z</time>
      </trkpt>
      <trkpt lat="44.55666" lon="2.74399">
        <ele>463.01</ele>
        <time>2021-05-31T13:37:00Z</time>
      </trkpt>
      <trkpt lat="44.55665" lon="2.74394">
        <ele>463.01</ele>
        <time>2021-05-31T13:37:07Z</time>
      </trkpt>
      <trkpt lat="44.5566" lon="2.74375">
        <ele>463.97</ele>
        <time>2021-05-31T13:37:17Z</time>
      </trkpt>
      <trkpt lat="44.55655" lon="2.74359">
        <ele>464.93</ele>
        <time>2021-05-31T13:37:25Z</time>
      </trkpt>
      <trkpt lat="44.5565" lon="2.74343">
        <ele>466.86</ele>
        <time>2021-05-31T13:37:33Z</time>
      </trkpt>
      <trkpt lat="44.55644" lon="2.74328">
        <ele>468.3</ele>
        <time>2021-05-31T13:37:42Z</time>
      </trkpt>
      <trkpt lat="44.5564" lon="2.74319">
        <ele>468.78</ele>
        <time>2021-05-31T13:37:50Z</time>
      </trkpt>
      <trkpt lat="44.55635" lon="2.74307">
        <ele>469.26</ele>
        <time>2021-05-31T13:37:58Z</time>
      </trkpt>
      <trkpt lat="44.55628" lon="2.74293">
        <ele>469.74</ele>
        <time>2021-05-31T13:38:08Z</time>
      </trkpt>
      <trkpt lat="44.55621" lon="2.74281">
        <ele>470.22</ele>
        <time>2021-05-31T13:38:19Z</time>
      </trkpt>
      <trkpt lat="44.55613" lon="2.74267">
        <ele>469.74</ele>
        <time>2021-05-31T13:38:31Z</time>
      </trkpt>
      <trkpt lat="44.55607" lon="2.7426">
        <ele>467.82</ele>
        <time>2021-05-31T13:38:40Z</time>
      </trkpt>
      <trkpt lat="44.55599" lon="2.74244">
        <ele>465.42</ele>
        <time>2021-05-31T13:38:50Z</time>
      </trkpt>
      <trkpt lat="44.55591" lon="2.74234">
        <ele>463.97</ele>
        <time>2021-05-31T13:38:58Z</time>
      </trkpt>
      <trkpt lat="44.5559" lon="2.74232">
        <ele>463.97</ele>
        <time>2021-05-31T13:38:59Z</time>
      </trkpt>
      <trkpt lat="44.55581" lon="2.74218">
        <ele>463.01</ele>
        <time>2021-05-31T13:39:07Z</time>
      </trkpt>
      <trkpt lat="44.5557" lon="2.74204">
        <ele>466.38</ele>
        <time>2021-05-31T13:39:16Z</time>
      </trkpt>
      <trkpt lat="44.5556" lon="2.74197">
        <ele>466.86</ele>
        <time>2021-05-31T13:39:23Z</time>
      </trkpt>
      <trkpt lat="44.55555" lon="2.74194">
        <ele>466.86</ele>
        <time>2021-05-31T13:39:29Z</time>
      </trkpt>
      <trkpt lat="44.55547" lon="2.74193">
        <ele>465.42</ele>
        <time>2021-05-31T13:39:36Z</time>
      </trkpt>
      <trkpt lat="44.55538" lon="2.74192">
        <ele>464.45</ele>
        <time>2021-05-31T13:39:43Z</time>
      </trkpt>
      <trkpt lat="44.55532" lon="2.74189">
        <ele>464.45</ele>
        <time>2021-05-31T13:39:49Z</time>
      </trkpt>
      <trkpt lat="44.55523" lon="2.7418">
        <ele>463.01</ele>
        <time>2021-05-31T13:39:57Z</time>
      </trkpt>
      <trkpt lat="44.55513" lon="2.74174">
        <ele>462.53</ele>
        <time>2021-05-31T13:40:06Z</time>
      </trkpt>
      <trkpt lat="44.55508" lon="2.74171">
        <ele>462.53</ele>
        <time>2021-05-31T13:40:11Z</time>
      </trkpt>
      <trkpt lat="44.55502" lon="2.74168">
        <ele>463.01</ele>
        <time>2021-05-31T13:40:17Z</time>
      </trkpt>
      <trkpt lat="44.55497" lon="2.74166">
        <ele>463.97</ele>
        <time>2021-05-31T13:40:21Z</time>
      </trkpt>
      <trkpt lat="44.55487" lon="2.74166">
        <ele>465.42</ele>
        <time>2021-05-31T13:40:28Z</time>
      </trkpt>
      <trkpt lat="44.55478" lon="2.74171">
        <ele>467.82</ele>
        <time>2021-05-31T13:40:36Z</time>
      </trkpt>
      <trkpt lat="44.55477" lon="2.74172">
        <ele>468.3</ele>
        <time>2021-05-31T13:40:37Z</time>
      </trkpt>
      <trkpt lat="44.55474" lon="2.74184">
        <ele>478.87</ele>
        <time>2021-05-31T13:40:45Z</time>
      </trkpt>
      <trkpt lat="44.55473" lon="2.74194">
        <ele>483.2</ele>
        <time>2021-05-31T13:40:53Z</time>
      </trkpt>
      <trkpt lat="44.55472" lon="2.74204">
        <ele>483.68</ele>
        <time>2021-05-31T13:41:00Z</time>
      </trkpt>
      <trkpt lat="44.5547" lon="2.74213">
        <ele>482.72</ele>
        <time>2021-05-31T13:41:08Z</time>
      </trkpt>
      <trkpt lat="44.55469" lon="2.74223">
        <ele>483.2</ele>
        <time>2021-05-31T13:41:15Z</time>
      </trkpt>
      <trkpt lat="44.55467" lon="2.74231">
        <ele>483.68</ele>
        <time>2021-05-31T13:41:22Z</time>
      </trkpt>
      <trkpt lat="44.55465" lon="2.74241">
        <ele>485.6</ele>
        <time>2021-05-31T13:41:29Z</time>
      </trkpt>
      <trkpt lat="44.55464" lon="2.74248">
        <ele>489.45</ele>
        <time>2021-05-31T13:41:40Z</time>
      </trkpt>
      <trkpt lat="44.55464" lon="2.74248">
        <ele>489.93</ele>
        <time>2021-05-31T13:41:54Z</time>
      </trkpt>
      <trkpt lat="44.55464" lon="2.74247">
        <ele>489.45</ele>
        <time>2021-05-31T13:41:56Z</time>
      </trkpt>
      <trkpt lat="44.55464" lon="2.74249">
        <ele>490.89</ele>
        <time>2021-05-31T13:42:01Z</time>
      </trkpt>
      <trkpt lat="44.55465" lon="2.7425">
        <ele>491.37</ele>
        <time>2021-05-31T13:42:03Z</time>
      </trkpt>
      <trkpt lat="44.55467" lon="2.74255">
        <ele>490.89</ele>
        <time>2021-05-31T13:42:07Z</time>
      </trkpt>
      <trkpt lat="44.55464" lon="2.74267">
        <ele>489.93</ele>
        <time>2021-05-31T13:42:16Z</time>
      </trkpt>
      <trkpt lat="44.55463" lon="2.74277">
        <ele>491.37</ele>
        <time>2021-05-31T13:42:23Z</time>
      </trkpt>
      <trkpt lat="44.55463" lon="2.74287">
        <ele>492.81</ele>
        <time>2021-05-31T13:42:31Z</time>
      </trkpt>
      <trkpt lat="44.55462" lon="2.74297">
        <ele>494.26</ele>
        <time>2021-05-31T13:42:38Z</time>
      </trkpt>
      <trkpt lat="44.55461" lon="2.74302">
        <ele>495.7</ele>
        <time>2021-05-31T13:42:46Z</time>
      </trkpt>
      <trkpt lat="44.55459" lon="2.74299">
        <ele>497.62</ele>
        <time>2021-05-31T13:43:01Z</time>
      </trkpt>
      <trkpt lat="44.55458" lon="2.74299">
        <ele>499.06</ele>
        <time>2021-05-31T13:43:14Z</time>
      </trkpt>
      <trkpt lat="44.55461" lon="2.74304">
        <ele>502.43</ele>
        <time>2021-05-31T13:43:38Z</time>
      </trkpt>
      <trkpt lat="44.5546" lon="2.7431">
        <ele>501.95</ele>
        <time>2021-05-31T13:43:44Z</time>
      </trkpt>
      <trkpt lat="44.55457" lon="2.74323">
        <ele>501.95</ele>
        <time>2021-05-31T13:43:53Z</time>
      </trkpt>
      <trkpt lat="44.55454" lon="2.74334">
        <ele>502.43</ele>
        <time>2021-05-31T13:44:03Z</time>
      </trkpt>
      <trkpt lat="44.55452" lon="2.74333">
        <ele>500.5</ele>
        <time>2021-05-31T13:44:18Z</time>
      </trkpt>
      <trkpt lat="44.5545" lon="2.74344">
        <ele>500.98</ele>
        <time>2021-05-31T13:44:25Z</time>
      </trkpt>
      <trkpt lat="44.55448" lon="2.74353">
        <ele>502.91</ele>
        <time>2021-05-31T13:44:32Z</time>
      </trkpt>
      <trkpt lat="44.55448" lon="2.74355">
        <ele>502.91</ele>
        <time>2021-05-31T13:44:46Z</time>
      </trkpt>
      <trkpt lat="44.55447" lon="2.74355">
        <ele>502.91</ele>
        <time>2021-05-31T13:44:50Z</time>
      </trkpt>
      <trkpt lat="44.55446" lon="2.74362">
        <ele>501.95</ele>
        <time>2021-05-31T13:44:56Z</time>
      </trkpt>
      <trkpt lat="44.55447" lon="2.74363">
        <ele>501.95</ele>
        <time>2021-05-31T13:44:57Z</time>
      </trkpt>
      <trkpt lat="44.5544" lon="2.7438">
        <ele>500.98</ele>
        <time>2021-05-31T13:45:06Z</time>
      </trkpt>
      <trkpt lat="44.55437" lon="2.7439">
        <ele>501.46</ele>
        <time>2021-05-31T13:45:12Z</time>
      </trkpt>
      <trkpt lat="44.55432" lon="2.74403">
        <ele>502.91</ele>
        <time>2021-05-31T13:45:20Z</time>
      </trkpt>
      <trkpt lat="44.55426" lon="2.74418">
        <ele>506.27</ele>
        <time>2021-05-31T13:45:30Z</time>
      </trkpt>
      <trkpt lat="44.55417" lon="2.74424">
        <ele>507.23</ele>
        <time>2021-05-31T13:45:38Z</time>
      </trkpt>
      <trkpt lat="44.55401" lon="2.74433">
        <ele>510.12</ele>
        <time>2021-05-31T13:45:50Z</time>
      </trkpt>
      <trkpt lat="44.554" lon="2.74433">
        <ele>509.64</ele>
        <time>2021-05-31T13:45:51Z</time>
      </trkpt>
      <trkpt lat="44.55388" lon="2.74442">
        <ele>508.67</ele>
        <time>2021-05-31T13:45:59Z</time>
      </trkpt>
      <trkpt lat="44.55379" lon="2.74452">
        <ele>507.23</ele>
        <time>2021-05-31T13:46:06Z</time>
      </trkpt>
      <trkpt lat="44.55367" lon="2.7446">
        <ele>505.31</ele>
        <time>2021-05-31T13:46:14Z</time>
      </trkpt>
      <trkpt lat="44.55358" lon="2.74459">
        <ele>504.83</ele>
        <time>2021-05-31T13:46:23Z</time>
      </trkpt>
      <trkpt lat="44.55348" lon="2.74451">
        <ele>504.83</ele>
        <time>2021-05-31T13:46:31Z</time>
      </trkpt>
      <trkpt lat="44.55347" lon="2.74451">
        <ele>504.83</ele>
        <time>2021-05-31T13:46:32Z</time>
      </trkpt>
      <trkpt lat="44.55346" lon="2.7445">
        <ele>504.83</ele>
        <time>2021-05-31T13:46:33Z</time>
      </trkpt>
      <trkpt lat="44.55342" lon="2.74444">
        <ele>505.79</ele>
        <time>2021-05-31T13:46:38Z</time>
      </trkpt>
      <trkpt lat="44.55341" lon="2.74443">
        <ele>506.27</ele>
        <time>2021-05-31T13:46:39Z</time>
      </trkpt>
      <trkpt lat="44.5534" lon="2.74441">
        <ele>506.27</ele>
        <time>2021-05-31T13:46:40Z</time>
      </trkpt>
      <trkpt lat="44.55334" lon="2.7443">
        <ele>508.67</ele>
        <time>2021-05-31T13:46:48Z</time>
      </trkpt>
      <trkpt lat="44.55327" lon="2.74414">
        <ele>510.6</ele>
        <time>2021-05-31T13:46:57Z</time>
      </trkpt>
      <trkpt lat="44.55323" lon="2.74403">
        <ele>512.52</ele>
        <time>2021-05-31T13:47:04Z</time>
      </trkpt>
      <trkpt lat="44.5532" lon="2.74392">
        <ele>514.44</ele>
        <time>2021-05-31T13:47:11Z</time>
      </trkpt>
      <trkpt lat="44.55315" lon="2.74377">
        <ele>516.85</ele>
        <time>2021-05-31T13:47:19Z</time>
      </trkpt>
      <trkpt lat="44.55308" lon="2.74366">
        <ele>519.25</ele>
        <time>2021-05-31T13:47:26Z</time>
      </trkpt>
      <trkpt lat="44.55298" lon="2.7436">
        <ele>519.73</ele>
        <time>2021-05-31T13:47:34Z</time>
      </trkpt>
      <trkpt lat="44.55288" lon="2.74345">
        <ele>522.61</ele>
        <time>2021-05-31T13:47:43Z</time>
      </trkpt>
      <trkpt lat="44.55285" lon="2.74336">
        <ele>522.61</ele>
        <time>2021-05-31T13:47:49Z</time>
      </trkpt>
      <trkpt lat="44.55279" lon="2.74323">
        <ele>521.17</ele>
        <time>2021-05-31T13:47:57Z</time>
      </trkpt>
      <trkpt lat="44.55272" lon="2.74299">
        <ele>523.09</ele>
        <time>2021-05-31T13:48:07Z</time>
      </trkpt>
      <trkpt lat="44.55266" lon="2.74282">
        <ele>522.13</ele>
        <time>2021-05-31T13:48:16Z</time>
      </trkpt>
      <trkpt lat="44.55261" lon="2.74267">
        <ele>519.73</ele>
        <time>2021-05-31T13:48:24Z</time>
      </trkpt>
      <trkpt lat="44.55254" lon="2.74256">
        <ele>513.48</ele>
        <time>2021-05-31T13:48:32Z</time>
      </trkpt>
      <trkpt lat="44.5525" lon="2.74246">
        <ele>509.16</ele>
        <time>2021-05-31T13:48:39Z</time>
      </trkpt>
      <trkpt lat="44.55247" lon="2.74232">
        <ele>507.71</ele>
        <time>2021-05-31T13:48:45Z</time>
      </trkpt>
      <trkpt lat="44.55244" lon="2.74217">
        <ele>504.83</ele>
        <time>2021-05-31T13:48:54Z</time>
      </trkpt>
      <trkpt lat="44.55243" lon="2.74196">
        <ele>503.39</ele>
        <time>2021-05-31T13:49:05Z</time>
      </trkpt>
      <trkpt lat="44.55243" lon="2.74176">
        <ele>502.43</ele>
        <time>2021-05-31T13:49:16Z</time>
      </trkpt>
      <trkpt lat="44.55245" lon="2.7416">
        <ele>502.43</ele>
        <time>2021-05-31T13:49:24Z</time>
      </trkpt>
      <trkpt lat="44.55247" lon="2.74137">
        <ele>502.43</ele>
        <time>2021-05-31T13:49:35Z</time>
      </trkpt>
      <trkpt lat="44.55248" lon="2.74136">
        <ele>501.95</ele>
        <time>2021-05-31T13:49:36Z</time>
      </trkpt>
      <trkpt lat="44.55249" lon="2.74134">
        <ele>501.46</ele>
        <time>2021-05-31T13:49:37Z</time>
      </trkpt>
      <trkpt lat="44.55252" lon="2.74114">
        <ele>498.1</ele>
        <time>2021-05-31T13:49:47Z</time>
      </trkpt>
      <trkpt lat="44.55259" lon="2.74084">
        <ele>498.1</ele>
        <time>2021-05-31T13:50:00Z</time>
      </trkpt>
      <trkpt lat="44.55265" lon="2.74064">
        <ele>497.62</ele>
        <time>2021-05-31T13:50:10Z</time>
      </trkpt>
      <trkpt lat="44.55272" lon="2.74045">
        <ele>496.18</ele>
        <time>2021-05-31T13:50:20Z</time>
      </trkpt>
      <trkpt lat="44.55276" lon="2.74024">
        <ele>496.18</ele>
        <time>2021-05-31T13:50:30Z</time>
      </trkpt>
      <trkpt lat="44.55278" lon="2.74006">
        <ele>494.26</ele>
        <time>2021-05-31T13:50:39Z</time>
      </trkpt>
      <trkpt lat="44.55278" lon="2.73988">
        <ele>490.89</ele>
        <time>2021-05-31T13:50:49Z</time>
      </trkpt>
      <trkpt lat="44.5528" lon="2.73968">
        <ele>487.53</ele>
        <time>2021-05-31T13:50:59Z</time>
      </trkpt>
      <trkpt lat="44.55279" lon="2.73949">
        <ele>484.64</ele>
        <time>2021-05-31T13:51:09Z</time>
      </trkpt>
      <trkpt lat="44.55276" lon="2.73928">
        <ele>482.24</ele>
        <time>2021-05-31T13:51:20Z</time>
      </trkpt>
      <trkpt lat="44.5527" lon="2.73904">
        <ele>480.32</ele>
        <time>2021-05-31T13:51:33Z</time>
      </trkpt>
      <trkpt lat="44.55267" lon="2.73892">
        <ele>478.87</ele>
        <time>2021-05-31T13:51:40Z</time>
      </trkpt>
      <trkpt lat="44.55265" lon="2.73892">
        <ele>478.87</ele>
        <time>2021-05-31T13:51:47Z</time>
      </trkpt>
      <trkpt lat="44.55264" lon="2.73891">
        <ele>478.39</ele>
        <time>2021-05-31T13:51:48Z</time>
      </trkpt>
      <trkpt lat="44.55263" lon="2.7389">
        <ele>477.91</ele>
        <time>2021-05-31T13:51:49Z</time>
      </trkpt>
      <trkpt lat="44.55263" lon="2.73888">
        <ele>477.91</ele>
        <time>2021-05-31T13:51:50Z</time>
      </trkpt>
      <trkpt lat="44.55262" lon="2.73887">
        <ele>477.43</ele>
        <time>2021-05-31T13:51:51Z</time>
      </trkpt>
      <trkpt lat="44.5526" lon="2.73882">
        <ele>475.99</ele>
        <time>2021-05-31T13:51:55Z</time>
      </trkpt>
      <trkpt lat="44.55259" lon="2.73881">
        <ele>475.51</ele>
        <time>2021-05-31T13:51:56Z</time>
      </trkpt>
      <trkpt lat="44.55251" lon="2.73871">
        <ele>475.03</ele>
        <time>2021-05-31T13:52:05Z</time>
      </trkpt>
      <trkpt lat="44.55243" lon="2.73863">
        <ele>475.51</ele>
        <time>2021-05-31T13:52:13Z</time>
      </trkpt>
      <trkpt lat="44.5524" lon="2.73862">
        <ele>475.51</ele>
        <time>2021-05-31T13:52:15Z</time>
      </trkpt>
      <trkpt lat="44.55226" lon="2.73856">
        <ele>476.47</ele>
        <time>2021-05-31T13:52:25Z</time>
      </trkpt>
      <trkpt lat="44.55213" lon="2.7385">
        <ele>476.47</ele>
        <time>2021-05-31T13:52:34Z</time>
      </trkpt>
      <trkpt lat="44.55197" lon="2.73847">
        <ele>477.43</ele>
        <time>2021-05-31T13:52:43Z</time>
      </trkpt>
      <trkpt lat="44.55188" lon="2.73848">
        <ele>477.91</ele>
        <time>2021-05-31T13:52:51Z</time>
      </trkpt>
      <trkpt lat="44.55178" lon="2.73851">
        <ele>478.39</ele>
        <time>2021-05-31T13:53:00Z</time>
      </trkpt>
      <trkpt lat="44.55166" lon="2.73858">
        <ele>477.91</ele>
        <time>2021-05-31T13:53:08Z</time>
      </trkpt>
      <trkpt lat="44.5515" lon="2.73867">
        <ele>475.51</ele>
        <time>2021-05-31T13:53:19Z</time>
      </trkpt>
      <trkpt lat="44.55137" lon="2.73877">
        <ele>477.43</ele>
        <time>2021-05-31T13:53:28Z</time>
      </trkpt>
      <trkpt lat="44.55129" lon="2.73885">
        <ele>477.91</ele>
        <time>2021-05-31T13:53:35Z</time>
      </trkpt>
      <trkpt lat="44.55122" lon="2.73893">
        <ele>475.99</ele>
        <time>2021-05-31T13:53:44Z</time>
      </trkpt>
      <trkpt lat="44.55113" lon="2.73901">
        <ele>476.47</ele>
        <time>2021-05-31T13:53:52Z</time>
      </trkpt>
      <trkpt lat="44.55103" lon="2.73908">
        <ele>475.51</ele>
        <time>2021-05-31T13:54:00Z</time>
      </trkpt>
      <trkpt lat="44.55092" lon="2.73915">
        <ele>472.14</ele>
        <time>2021-05-31T13:54:09Z</time>
      </trkpt>
      <trkpt lat="44.55086" lon="2.73922">
        <ele>470.22</ele>
        <time>2021-05-31T13:54:16Z</time>
      </trkpt>
      <trkpt lat="44.55077" lon="2.7393">
        <ele>470.22</ele>
        <time>2021-05-31T13:54:24Z</time>
      </trkpt>
      <trkpt lat="44.55067" lon="2.73927">
        <ele>468.3</ele>
        <time>2021-05-31T13:54:32Z</time>
      </trkpt>
      <trkpt lat="44.55061" lon="2.73915">
        <ele>467.34</ele>
        <time>2021-05-31T13:54:39Z</time>
      </trkpt>
      <trkpt lat="44.5506" lon="2.73911">
        <ele>466.38</ele>
        <time>2021-05-31T13:54:42Z</time>
      </trkpt>
      <trkpt lat="44.5506" lon="2.73908">
        <ele>465.9</ele>
        <time>2021-05-31T13:54:43Z</time>
      </trkpt>
      <trkpt lat="44.5506" lon="2.73906">
        <ele>465.42</ele>
        <time>2021-05-31T13:54:44Z</time>
      </trkpt>
      <trkpt lat="44.5506" lon="2.73904">
        <ele>464.93</ele>
        <time>2021-05-31T13:54:45Z</time>
      </trkpt>
      <trkpt lat="44.5506" lon="2.73902">
        <ele>464.45</ele>
        <time>2021-05-31T13:54:46Z</time>
      </trkpt>
      <trkpt lat="44.55058" lon="2.73886">
        <ele>460.61</ele>
        <time>2021-05-31T13:54:54Z</time>
      </trkpt>
      <trkpt lat="44.55059" lon="2.73874">
        <ele>455.8</ele>
        <time>2021-05-31T13:55:01Z</time>
      </trkpt>
      <trkpt lat="44.5506" lon="2.73871">
        <ele>454.36</ele>
        <time>2021-05-31T13:55:03Z</time>
      </trkpt>
      <trkpt lat="44.55061" lon="2.73869">
        <ele>453.88</ele>
        <time>2021-05-31T13:55:04Z</time>
      </trkpt>
      <trkpt lat="44.55061" lon="2.73867">
        <ele>453.4</ele>
        <time>2021-05-31T13:55:05Z</time>
      </trkpt>
      <trkpt lat="44.55061" lon="2.73865">
        <ele>452.44</ele>
        <time>2021-05-31T13:55:06Z</time>
      </trkpt>
      <trkpt lat="44.55061" lon="2.73863">
        <ele>451.96</ele>
        <time>2021-05-31T13:55:07Z</time>
      </trkpt>
      <trkpt lat="44.55062" lon="2.73862">
        <ele>451.48</ele>
        <time>2021-05-31T13:55:08Z</time>
      </trkpt>
      <trkpt lat="44.55063" lon="2.73845">
        <ele>449.55</ele>
        <time>2021-05-31T13:55:15Z</time>
      </trkpt>
      <trkpt lat="44.55065" lon="2.73827">
        <ele>447.63</ele>
        <time>2021-05-31T13:55:24Z</time>
      </trkpt>
      <trkpt lat="44.55063" lon="2.73821">
        <ele>445.23</ele>
        <time>2021-05-31T13:55:32Z</time>
      </trkpt>
      <trkpt lat="44.55063" lon="2.73821">
        <ele>441.86</ele>
        <time>2021-05-31T13:55:50Z</time>
      </trkpt>
      <trkpt lat="44.55064" lon="2.73817">
        <ele>438.98</ele>
        <time>2021-05-31T13:56:06Z</time>
      </trkpt>
      <trkpt lat="44.55065" lon="2.73815">
        <ele>438.98</ele>
        <time>2021-05-31T13:56:07Z</time>
      </trkpt>
      <trkpt lat="44.55065" lon="2.73814">
        <ele>438.98</ele>
        <time>2021-05-31T13:56:08Z</time>
      </trkpt>
      <trkpt lat="44.55068" lon="2.738">
        <ele>437.54</ele>
        <time>2021-05-31T13:56:17Z</time>
      </trkpt>
      <trkpt lat="44.55071" lon="2.73783">
        <ele>436.1</ele>
        <time>2021-05-31T13:56:26Z</time>
      </trkpt>
      <trkpt lat="44.55071" lon="2.73771">
        <ele>433.21</ele>
        <time>2021-05-31T13:56:35Z</time>
      </trkpt>
      <trkpt lat="44.55071" lon="2.73766">
        <ele>432.73</ele>
        <time>2021-05-31T13:56:38Z</time>
      </trkpt>
      <trkpt lat="44.55071" lon="2.73764">
        <ele>432.25</ele>
        <time>2021-05-31T13:56:39Z</time>
      </trkpt>
      <trkpt lat="44.55073" lon="2.73749">
        <ele>430.33</ele>
        <time>2021-05-31T13:56:47Z</time>
      </trkpt>
      <trkpt lat="44.55074" lon="2.73732">
        <ele>430.33</ele>
        <time>2021-05-31T13:56:56Z</time>
      </trkpt>
      <trkpt lat="44.55075" lon="2.73716">
        <ele>429.37</ele>
        <time>2021-05-31T13:57:06Z</time>
      </trkpt>
      <trkpt lat="44.55077" lon="2.73703">
        <ele>426.96</ele>
        <time>2021-05-31T13:57:14Z</time>
      </trkpt>
      <trkpt lat="44.55078" lon="2.73693">
        <ele>424.56</ele>
        <time>2021-05-31T13:57:20Z</time>
      </trkpt>
      <trkpt lat="44.55083" lon="2.73675">
        <ele>421.19</ele>
        <time>2021-05-31T13:57:30Z</time>
      </trkpt>
      <trkpt lat="44.55087" lon="2.73665">
        <ele>420.71</ele>
        <time>2021-05-31T13:57:37Z</time>
      </trkpt>
      <trkpt lat="44.5509" lon="2.73648">
        <ele>419.75</ele>
        <time>2021-05-31T13:57:45Z</time>
      </trkpt>
      <trkpt lat="44.55094" lon="2.73624">
        <ele>424.08</ele>
        <time>2021-05-31T13:57:56Z</time>
      </trkpt>
      <trkpt lat="44.55096" lon="2.73616">
        <ele>420.23</ele>
        <time>2021-05-31T13:58:02Z</time>
      </trkpt>
      <trkpt lat="44.55099" lon="2.736">
        <ele>414.47</ele>
        <time>2021-05-31T13:58:12Z</time>
      </trkpt>
      <trkpt lat="44.55105" lon="2.73588">
        <ele>413.5</ele>
        <time>2021-05-31T13:58:20Z</time>
      </trkpt>
      <trkpt lat="44.55111" lon="2.73573">
        <ele>413.02</ele>
        <time>2021-05-31T13:58:30Z</time>
      </trkpt>
      <trkpt lat="44.55116" lon="2.7356">
        <ele>412.06</ele>
        <time>2021-05-31T13:58:38Z</time>
      </trkpt>
      <trkpt lat="44.5512" lon="2.73552">
        <ele>411.58</ele>
        <time>2021-05-31T13:58:45Z</time>
      </trkpt>
      <trkpt lat="44.55125" lon="2.73541">
        <ele>411.58</ele>
        <time>2021-05-31T13:58:52Z</time>
      </trkpt>
      <trkpt lat="44.55133" lon="2.7353">
        <ele>410.62</ele>
        <time>2021-05-31T13:59:00Z</time>
      </trkpt>
      <trkpt lat="44.55139" lon="2.73523">
        <ele>410.62</ele>
        <time>2021-05-31T13:59:07Z</time>
      </trkpt>
      <trkpt lat="44.55145" lon="2.73511">
        <ele>409.66</ele>
        <time>2021-05-31T13:59:17Z</time>
      </trkpt>
      <trkpt lat="44.55152" lon="2.73497">
        <ele>408.22</ele>
        <time>2021-05-31T13:59:27Z</time>
      </trkpt>
      <trkpt lat="44.55156" lon="2.73485">
        <ele>408.22</ele>
        <time>2021-05-31T13:59:34Z</time>
      </trkpt>
      <trkpt lat="44.55159" lon="2.73478">
        <ele>408.7</ele>
        <time>2021-05-31T13:59:39Z</time>
      </trkpt>
      <trkpt lat="44.55161" lon="2.73463">
        <ele>406.77</ele>
        <time>2021-05-31T13:59:48Z</time>
      </trkpt>
      <trkpt lat="44.55161" lon="2.73462">
        <ele>405.81</ele>
        <time>2021-05-31T13:59:49Z</time>
      </trkpt>
      <trkpt lat="44.55164" lon="2.73449">
        <ele>401.01</ele>
        <time>2021-05-31T13:59:56Z</time>
      </trkpt>
      <trkpt lat="44.55165" lon="2.73433">
        <ele>399.08</ele>
        <time>2021-05-31T14:00:05Z</time>
      </trkpt>
      <trkpt lat="44.55164" lon="2.73417">
        <ele>399.08</ele>
        <time>2021-05-31T14:00:16Z</time>
      </trkpt>
      <trkpt lat="44.55163" lon="2.73395">
        <ele>398.6</ele>
        <time>2021-05-31T14:00:27Z</time>
      </trkpt>
      <trkpt lat="44.55164" lon="2.73379">
        <ele>395.24</ele>
        <time>2021-05-31T14:00:35Z</time>
      </trkpt>
      <trkpt lat="44.55163" lon="2.73361">
        <ele>393.32</ele>
        <time>2021-05-31T14:00:44Z</time>
      </trkpt>
      <trkpt lat="44.55161" lon="2.73351">
        <ele>392.84</ele>
        <time>2021-05-31T14:00:51Z</time>
      </trkpt>
      <trkpt lat="44.5516" lon="2.73335">
        <ele>392.84</ele>
        <time>2021-05-31T14:00:59Z</time>
      </trkpt>
      <trkpt lat="44.55158" lon="2.73324">
        <ele>392.36</ele>
        <time>2021-05-31T14:01:07Z</time>
      </trkpt>
      <trkpt lat="44.55158" lon="2.7331">
        <ele>390.43</ele>
        <time>2021-05-31T14:01:17Z</time>
      </trkpt>
      <trkpt lat="44.55156" lon="2.73295">
        <ele>389.47</ele>
        <time>2021-05-31T14:01:25Z</time>
      </trkpt>
      <trkpt lat="44.55155" lon="2.73282">
        <ele>389.47</ele>
        <time>2021-05-31T14:01:33Z</time>
      </trkpt>
      <trkpt lat="44.55153" lon="2.73275">
        <ele>388.51</ele>
        <time>2021-05-31T14:01:37Z</time>
      </trkpt>
      <trkpt lat="44.55152" lon="2.73274">
        <ele>388.51</ele>
        <time>2021-05-31T14:01:38Z</time>
      </trkpt>
      <trkpt lat="44.55152" lon="2.73272">
        <ele>388.51</ele>
        <time>2021-05-31T14:01:39Z</time>
      </trkpt>
      <trkpt lat="44.55152" lon="2.7327">
        <ele>388.03</ele>
        <time>2021-05-31T14:01:40Z</time>
      </trkpt>
      <trkpt lat="44.55152" lon="2.73268">
        <ele>388.03</ele>
        <time>2021-05-31T14:01:41Z</time>
      </trkpt>
      <trkpt lat="44.55151" lon="2.73266">
        <ele>388.51</ele>
        <time>2021-05-31T14:01:42Z</time>
      </trkpt>
      <trkpt lat="44.55151" lon="2.73264">
        <ele>388.51</ele>
        <time>2021-05-31T14:01:43Z</time>
      </trkpt>
      <trkpt lat="44.5515" lon="2.73262">
        <ele>388.03</ele>
        <time>2021-05-31T14:01:44Z</time>
      </trkpt>
      <trkpt lat="44.5515" lon="2.73259">
        <ele>388.03</ele>
        <time>2021-05-31T14:01:45Z</time>
      </trkpt>
      <trkpt lat="44.5515" lon="2.73257">
        <ele>388.03</ele>
        <time>2021-05-31T14:01:46Z</time>
      </trkpt>
      <trkpt lat="44.55149" lon="2.73256">
        <ele>388.03</ele>
        <time>2021-05-31T14:01:47Z</time>
      </trkpt>
      <trkpt lat="44.55145" lon="2.73242">
        <ele>386.11</ele>
        <time>2021-05-31T14:01:57Z</time>
      </trkpt>
      <trkpt lat="44.55143" lon="2.73228">
        <ele>384.18</ele>
        <time>2021-05-31T14:02:05Z</time>
      </trkpt>
      <trkpt lat="44.55143" lon="2.73212">
        <ele>382.74</ele>
        <time>2021-05-31T14:02:13Z</time>
      </trkpt>
      <trkpt lat="44.55141" lon="2.73207">
        <ele>382.74</ele>
        <time>2021-05-31T14:02:17Z</time>
      </trkpt>
      <trkpt lat="44.5514" lon="2.73205">
        <ele>382.74</ele>
        <time>2021-05-31T14:02:18Z</time>
      </trkpt>
      <trkpt lat="44.55139" lon="2.73203">
        <ele>382.74</ele>
        <time>2021-05-31T14:02:19Z</time>
      </trkpt>
      <trkpt lat="44.55138" lon="2.73201">
        <ele>382.74</ele>
        <time>2021-05-31T14:02:20Z</time>
      </trkpt>
      <trkpt lat="44.55138" lon="2.732">
        <ele>382.74</ele>
        <time>2021-05-31T14:02:21Z</time>
      </trkpt>
      <trkpt lat="44.55137" lon="2.73199">
        <ele>382.74</ele>
        <time>2021-05-31T14:02:22Z</time>
      </trkpt>
      <trkpt lat="44.55136" lon="2.73197">
        <ele>382.74</ele>
        <time>2021-05-31T14:02:23Z</time>
      </trkpt>
      <trkpt lat="44.55135" lon="2.73196">
        <ele>382.74</ele>
        <time>2021-05-31T14:02:24Z</time>
      </trkpt>
      <trkpt lat="44.55135" lon="2.73194">
        <ele>382.74</ele>
        <time>2021-05-31T14:02:25Z</time>
      </trkpt>
      <trkpt lat="44.55128" lon="2.73184">
        <ele>383.22</ele>
        <time>2021-05-31T14:02:34Z</time>
      </trkpt>
      <trkpt lat="44.55121" lon="2.73174">
        <ele>382.74</ele>
        <time>2021-05-31T14:02:42Z</time>
      </trkpt>
      <trkpt lat="44.55115" lon="2.73164">
        <ele>382.26</ele>
        <time>2021-05-31T14:02:49Z</time>
      </trkpt>
      <trkpt lat="44.55108" lon="2.73157">
        <ele>382.74</ele>
        <time>2021-05-31T14:02:57Z</time>
      </trkpt>
      <trkpt lat="44.55098" lon="2.73143">
        <ele>382.74</ele>
        <time>2021-05-31T14:03:07Z</time>
      </trkpt>
      <trkpt lat="44.55096" lon="2.7314">
        <ele>382.26</ele>
        <time>2021-05-31T14:03:13Z</time>
      </trkpt>
      <trkpt lat="44.55096" lon="2.73139">
        <ele>382.26</ele>
        <time>2021-05-31T14:03:33Z</time>
      </trkpt>
      <trkpt lat="44.55096" lon="2.73138">
        <ele>380.82</ele>
        <time>2021-05-31T14:03:51Z</time>
      </trkpt>
      <trkpt lat="44.55094" lon="2.73136">
        <ele>380.34</ele>
        <time>2021-05-31T14:04:02Z</time>
      </trkpt>
      <trkpt lat="44.55095" lon="2.73134">
        <ele>379.86</ele>
        <time>2021-05-31T14:04:10Z</time>
      </trkpt>
      <trkpt lat="44.55095" lon="2.73134">
        <ele>378.9</ele>
        <time>2021-05-31T14:04:26Z</time>
      </trkpt>
      <trkpt lat="44.55094" lon="2.73134">
        <ele>378.42</ele>
        <time>2021-05-31T14:04:35Z</time>
      </trkpt>
      <trkpt lat="44.55094" lon="2.73136">
        <ele>377.94</ele>
        <time>2021-05-31T14:04:55Z</time>
      </trkpt>
      <trkpt lat="44.55094" lon="2.73136">
        <ele>377.94</ele>
        <time>2021-05-31T14:05:05Z</time>
      </trkpt>
      <trkpt lat="44.55093" lon="2.73134">
        <ele>379.38</ele>
        <time>2021-05-31T14:05:20Z</time>
      </trkpt>
      <trkpt lat="44.55093" lon="2.73133">
        <ele>377.94</ele>
        <time>2021-05-31T14:05:39Z</time>
      </trkpt>
      <trkpt lat="44.55089" lon="2.7313">
        <ele>378.42</ele>
        <time>2021-05-31T14:05:47Z</time>
      </trkpt>
      <trkpt lat="44.55084" lon="2.73124">
        <ele>378.9</ele>
        <time>2021-05-31T14:05:54Z</time>
      </trkpt>
      <trkpt lat="44.55077" lon="2.73112">
        <ele>377.45</ele>
        <time>2021-05-31T14:06:03Z</time>
      </trkpt>
      <trkpt lat="44.55073" lon="2.73104">
        <ele>378.9</ele>
        <time>2021-05-31T14:06:09Z</time>
      </trkpt>
      <trkpt lat="44.55068" lon="2.73095">
        <ele>376.49</ele>
        <time>2021-05-31T14:06:16Z</time>
      </trkpt>
      <trkpt lat="44.55059" lon="2.73084">
        <ele>374.09</ele>
        <time>2021-05-31T14:06:25Z</time>
      </trkpt>
      <trkpt lat="44.55051" lon="2.73077">
        <ele>373.61</ele>
        <time>2021-05-31T14:06:34Z</time>
      </trkpt>
      <trkpt lat="44.55044" lon="2.73071">
        <ele>373.61</ele>
        <time>2021-05-31T14:06:40Z</time>
      </trkpt>
      <trkpt lat="44.55035" lon="2.73064">
        <ele>373.61</ele>
        <time>2021-05-31T14:06:49Z</time>
      </trkpt>
      <trkpt lat="44.55026" lon="2.73055">
        <ele>373.13</ele>
        <time>2021-05-31T14:06:57Z</time>
      </trkpt>
      <trkpt lat="44.55017" lon="2.73048">
        <ele>373.13</ele>
        <time>2021-05-31T14:07:06Z</time>
      </trkpt>
      <trkpt lat="44.55009" lon="2.73037">
        <ele>372.65</ele>
        <time>2021-05-31T14:07:14Z</time>
      </trkpt>
      <trkpt lat="44.55008" lon="2.73037">
        <ele>372.65</ele>
        <time>2021-05-31T14:07:17Z</time>
      </trkpt>
      <trkpt lat="44.5501" lon="2.73039">
        <ele>372.17</ele>
        <time>2021-05-31T14:07:24Z</time>
      </trkpt>
      <trkpt lat="44.55008" lon="2.73035">
        <ele>370.73</ele>
        <time>2021-05-31T14:07:37Z</time>
      </trkpt>
      <trkpt lat="44.55007" lon="2.73033">
        <ele>370.73</ele>
        <time>2021-05-31T14:07:39Z</time>
      </trkpt>
      <trkpt lat="44.55006" lon="2.73031">
        <ele>370.24</ele>
        <time>2021-05-31T14:07:40Z</time>
      </trkpt>
      <trkpt lat="44.55006" lon="2.73029">
        <ele>370.24</ele>
        <time>2021-05-31T14:07:41Z</time>
      </trkpt>
      <trkpt lat="44.55006" lon="2.73027">
        <ele>370.24</ele>
        <time>2021-05-31T14:07:42Z</time>
      </trkpt>
      <trkpt lat="44.55005" lon="2.73026">
        <ele>370.73</ele>
        <time>2021-05-31T14:07:43Z</time>
      </trkpt>
      <trkpt lat="44.55001" lon="2.73016">
        <ele>370.24</ele>
        <time>2021-05-31T14:07:50Z</time>
      </trkpt>
      <trkpt lat="44.54998" lon="2.73003">
        <ele>369.28</ele>
        <time>2021-05-31T14:07:58Z</time>
      </trkpt>
      <trkpt lat="44.54996" lon="2.72997">
        <ele>368.8</ele>
        <time>2021-05-31T14:08:03Z</time>
      </trkpt>
      <trkpt lat="44.54996" lon="2.72995">
        <ele>368.8</ele>
        <time>2021-05-31T14:08:04Z</time>
      </trkpt>
      <trkpt lat="44.54995" lon="2.72993">
        <ele>368.8</ele>
        <time>2021-05-31T14:08:05Z</time>
      </trkpt>
      <trkpt lat="44.54995" lon="2.72987">
        <ele>369.76</ele>
        <time>2021-05-31T14:08:11Z</time>
      </trkpt>
      <trkpt lat="44.54996" lon="2.72984">
        <ele>372.65</ele>
        <time>2021-05-31T14:08:15Z</time>
      </trkpt>
      <trkpt lat="44.54997" lon="2.72984">
        <ele>373.13</ele>
        <time>2021-05-31T14:08:16Z</time>
      </trkpt>
      <trkpt lat="44.55002" lon="2.72981">
        <ele>373.13</ele>
        <time>2021-05-31T14:08:23Z</time>
      </trkpt>
      <trkpt lat="44.55004" lon="2.72979">
        <ele>372.65</ele>
        <time>2021-05-31T14:08:25Z</time>
      </trkpt>
      <trkpt lat="44.55005" lon="2.72979">
        <ele>372.65</ele>
        <time>2021-05-31T14:08:26Z</time>
      </trkpt>
      <trkpt lat="44.55007" lon="2.72978">
        <ele>372.65</ele>
        <time>2021-05-31T14:08:27Z</time>
      </trkpt>
      <trkpt lat="44.55008" lon="2.72978">
        <ele>372.65</ele>
        <time>2021-05-31T14:08:28Z</time>
      </trkpt>
      <trkpt lat="44.5501" lon="2.72978">
        <ele>372.65</ele>
        <time>2021-05-31T14:08:29Z</time>
      </trkpt>
      <trkpt lat="44.55011" lon="2.72978">
        <ele>373.13</ele>
        <time>2021-05-31T14:08:30Z</time>
      </trkpt>
      <trkpt lat="44.55013" lon="2.72977">
        <ele>373.13</ele>
        <time>2021-05-31T14:08:31Z</time>
      </trkpt>
      <trkpt lat="44.55021" lon="2.72978">
        <ele>373.61</ele>
        <time>2021-05-31T14:08:39Z</time>
      </trkpt>
      <trkpt lat="44.55025" lon="2.72977">
        <ele>373.61</ele>
        <time>2021-05-31T14:08:43Z</time>
      </trkpt>
      <trkpt lat="44.55033" lon="2.72974">
        <ele>374.09</ele>
        <time>2021-05-31T14:08:50Z</time>
      </trkpt>
      <trkpt lat="44.55045" lon="2.72967">
        <ele>374.57</ele>
        <time>2021-05-31T14:08:59Z</time>
      </trkpt>
      <trkpt lat="44.55054" lon="2.72964">
        <ele>374.09</ele>
        <time>2021-05-31T14:09:06Z</time>
      </trkpt>
      <trkpt lat="44.5506" lon="2.72964">
        <ele>373.13</ele>
        <time>2021-05-31T14:09:12Z</time>
      </trkpt>
      <trkpt lat="44.55061" lon="2.72963">
        <ele>373.13</ele>
        <time>2021-05-31T14:09:13Z</time>
      </trkpt>
      <trkpt lat="44.5507" lon="2.7296">
        <ele>371.21</ele>
        <time>2021-05-31T14:09:21Z</time>
      </trkpt>
      <trkpt lat="44.55072" lon="2.72961">
        <ele>370.73</ele>
        <time>2021-05-31T14:09:22Z</time>
      </trkpt>
      <trkpt lat="44.55073" lon="2.7296">
        <ele>370.73</ele>
        <time>2021-05-31T14:09:23Z</time>
      </trkpt>
      <trkpt lat="44.55074" lon="2.7296">
        <ele>370.24</ele>
        <time>2021-05-31T14:09:24Z</time>
      </trkpt>
      <trkpt lat="44.55081" lon="2.72959">
        <ele>368.8</ele>
        <time>2021-05-31T14:09:32Z</time>
      </trkpt>
      <trkpt lat="44.55093" lon="2.72964">
        <ele>367.84</ele>
        <time>2021-05-31T14:09:41Z</time>
      </trkpt>
      <trkpt lat="44.55101" lon="2.72963">
        <ele>363.52</ele>
        <time>2021-05-31T14:09:49Z</time>
      </trkpt>
      <trkpt lat="44.55111" lon="2.72964">
        <ele>359.19</ele>
        <time>2021-05-31T14:09:57Z</time>
      </trkpt>
      <trkpt lat="44.5512" lon="2.72968">
        <ele>357.75</ele>
        <time>2021-05-31T14:10:05Z</time>
      </trkpt>
      <trkpt lat="44.55125" lon="2.72968">
        <ele>357.27</ele>
        <time>2021-05-31T14:10:12Z</time>
      </trkpt>
      <trkpt lat="44.55127" lon="2.72968">
        <ele>355.83</ele>
        <time>2021-05-31T14:10:22Z</time>
      </trkpt>
      <trkpt lat="44.5513" lon="2.72974">
        <ele>355.34</ele>
        <time>2021-05-31T14:10:28Z</time>
      </trkpt>
      <trkpt lat="44.55135" lon="2.72982">
        <ele>356.31</ele>
        <time>2021-05-31T14:10:35Z</time>
      </trkpt>
      <trkpt lat="44.55141" lon="2.7299">
        <ele>358.23</ele>
        <time>2021-05-31T14:10:42Z</time>
      </trkpt>
      <trkpt lat="44.55148" lon="2.72995">
        <ele>360.15</ele>
        <time>2021-05-31T14:10:49Z</time>
      </trkpt>
      <trkpt lat="44.55156" lon="2.73">
        <ele>362.07</ele>
        <time>2021-05-31T14:10:58Z</time>
      </trkpt>
      <trkpt lat="44.55164" lon="2.73003">
        <ele>364.48</ele>
        <time>2021-05-31T14:11:05Z</time>
      </trkpt>
      <trkpt lat="44.55174" lon="2.73005">
        <ele>365.92</ele>
        <time>2021-05-31T14:11:15Z</time>
      </trkpt>
      <trkpt lat="44.55183" lon="2.73005">
        <ele>366.88</ele>
        <time>2021-05-31T14:11:25Z</time>
      </trkpt>
      <trkpt lat="44.55188" lon="2.73007">
        <ele>366.88</ele>
        <time>2021-05-31T14:11:32Z</time>
      </trkpt>
      <trkpt lat="44.55197" lon="2.7301">
        <ele>368.32</ele>
        <time>2021-05-31T14:11:40Z</time>
      </trkpt>
      <trkpt lat="44.55205" lon="2.73012">
        <ele>370.24</ele>
        <time>2021-05-31T14:11:47Z</time>
      </trkpt>
      <trkpt lat="44.55213" lon="2.73013">
        <ele>373.61</ele>
        <time>2021-05-31T14:11:55Z</time>
      </trkpt>
      <trkpt lat="44.5522" lon="2.73015">
        <ele>374.09</ele>
        <time>2021-05-31T14:12:03Z</time>
      </trkpt>
      <trkpt lat="44.55225" lon="2.73018">
        <ele>375.05</ele>
        <time>2021-05-31T14:12:10Z</time>
      </trkpt>
      <trkpt lat="44.55232" lon="2.7302">
        <ele>375.53</ele>
        <time>2021-05-31T14:12:18Z</time>
      </trkpt>
      <trkpt lat="44.55234" lon="2.73021">
        <ele>376.01</ele>
        <time>2021-05-31T14:12:20Z</time>
      </trkpt>
      <trkpt lat="44.55241" lon="2.73025">
        <ele>376.01</ele>
        <time>2021-05-31T14:12:27Z</time>
      </trkpt>
      <trkpt lat="44.55247" lon="2.7303">
        <ele>377.45</ele>
        <time>2021-05-31T14:12:34Z</time>
      </trkpt>
      <trkpt lat="44.55254" lon="2.73036">
        <ele>377.94</ele>
        <time>2021-05-31T14:12:42Z</time>
      </trkpt>
      <trkpt lat="44.55261" lon="2.73043">
        <ele>377.94</ele>
        <time>2021-05-31T14:12:50Z</time>
      </trkpt>
      <trkpt lat="44.55266" lon="2.73048">
        <ele>377.45</ele>
        <time>2021-05-31T14:12:56Z</time>
      </trkpt>
      <trkpt lat="44.55272" lon="2.73055">
        <ele>377.45</ele>
        <time>2021-05-31T14:13:03Z</time>
      </trkpt>
      <trkpt lat="44.55277" lon="2.73064">
        <ele>377.45</ele>
        <time>2021-05-31T14:13:11Z</time>
      </trkpt>
      <trkpt lat="44.55281" lon="2.73071">
        <ele>376.49</ele>
        <time>2021-05-31T14:13:16Z</time>
      </trkpt>
      <trkpt lat="44.55281" lon="2.73072">
        <ele>376.49</ele>
        <time>2021-05-31T14:13:17Z</time>
      </trkpt>
      <trkpt lat="44.55282" lon="2.73074">
        <ele>376.49</ele>
        <time>2021-05-31T14:13:18Z</time>
      </trkpt>
      <trkpt lat="44.55283" lon="2.73075">
        <ele>376.49</ele>
        <time>2021-05-31T14:13:19Z</time>
      </trkpt>
      <trkpt lat="44.55286" lon="2.73084">
        <ele>376.49</ele>
        <time>2021-05-31T14:13:25Z</time>
      </trkpt>
      <trkpt lat="44.55292" lon="2.73094">
        <ele>376.01</ele>
        <time>2021-05-31T14:13:34Z</time>
      </trkpt>
      <trkpt lat="44.55295" lon="2.73102">
        <ele>376.97</ele>
        <time>2021-05-31T14:13:41Z</time>
      </trkpt>
      <trkpt lat="44.55299" lon="2.73113">
        <ele>378.9</ele>
        <time>2021-05-31T14:13:48Z</time>
      </trkpt>
      <trkpt lat="44.55299" lon="2.73121">
        <ele>379.38</ele>
        <time>2021-05-31T14:13:55Z</time>
      </trkpt>
      <trkpt lat="44.553" lon="2.7313">
        <ele>381.78</ele>
        <time>2021-05-31T14:14:02Z</time>
      </trkpt>
      <trkpt lat="44.55301" lon="2.73134">
        <ele>383.22</ele>
        <time>2021-05-31T14:14:09Z</time>
      </trkpt>
      <trkpt lat="44.55305" lon="2.73132">
        <ele>381.3</ele>
        <time>2021-05-31T14:14:16Z</time>
      </trkpt>
      <trkpt lat="44.55311" lon="2.73126">
        <ele>379.86</ele>
        <time>2021-05-31T14:14:23Z</time>
      </trkpt>
      <trkpt lat="44.55314" lon="2.73127">
        <ele>379.38</ele>
        <time>2021-05-31T14:14:26Z</time>
      </trkpt>
      <trkpt lat="44.55315" lon="2.73131">
        <ele>378.9</ele>
        <time>2021-05-31T14:14:29Z</time>
      </trkpt>
      <trkpt lat="44.55315" lon="2.7314">
        <ele>378.9</ele>
        <time>2021-05-31T14:14:36Z</time>
      </trkpt>
      <trkpt lat="44.55313" lon="2.73151">
        <ele>378.9</ele>
        <time>2021-05-31T14:14:43Z</time>
      </trkpt>
      <trkpt lat="44.55312" lon="2.7316">
        <ele>380.82</ele>
        <time>2021-05-31T14:14:51Z</time>
      </trkpt>
      <trkpt lat="44.55311" lon="2.73175">
        <ele>383.7</ele>
        <time>2021-05-31T14:15:00Z</time>
      </trkpt>
      <trkpt lat="44.55311" lon="2.73185">
        <ele>384.66</ele>
        <time>2021-05-31T14:15:07Z</time>
      </trkpt>
      <trkpt lat="44.55313" lon="2.73189">
        <ele>384.66</ele>
        <time>2021-05-31T14:15:11Z</time>
      </trkpt>
      <trkpt lat="44.55318" lon="2.73192">
        <ele>387.55</ele>
        <time>2021-05-31T14:15:16Z</time>
      </trkpt>
      <trkpt lat="44.55326" lon="2.7319">
        <ele>387.55</ele>
        <time>2021-05-31T14:15:24Z</time>
      </trkpt>
      <trkpt lat="44.55332" lon="2.73183">
        <ele>387.55</ele>
        <time>2021-05-31T14:15:30Z</time>
      </trkpt>
      <trkpt lat="44.55334" lon="2.73179">
        <ele>388.03</ele>
        <time>2021-05-31T14:15:33Z</time>
      </trkpt>
      <trkpt lat="44.55337" lon="2.7317">
        <ele>388.99</ele>
        <time>2021-05-31T14:15:39Z</time>
      </trkpt>
      <trkpt lat="44.55336" lon="2.73161">
        <ele>392.36</ele>
        <time>2021-05-31T14:15:47Z</time>
      </trkpt>
      <trkpt lat="44.55333" lon="2.73162">
        <ele>396.68</ele>
        <time>2021-05-31T14:15:57Z</time>
      </trkpt>
      <trkpt lat="44.55332" lon="2.73162">
        <ele>398.6</ele>
        <time>2021-05-31T14:16:08Z</time>
      </trkpt>
      <trkpt lat="44.55333" lon="2.73162">
        <ele>397.64</ele>
        <time>2021-05-31T14:16:18Z</time>
      </trkpt>
      <trkpt lat="44.55329" lon="2.73162">
        <ele>396.2</ele>
        <time>2021-05-31T14:16:34Z</time>
      </trkpt>
      <trkpt lat="44.55327" lon="2.73162">
        <ele>400.53</ele>
        <time>2021-05-31T14:16:46Z</time>
      </trkpt>
    </trkseg>
  </trk>
</gpx>